<?xml version="1.0" encoding="UTF-8" standalone="no" ?>
<gpx xmlns="http://www.topografix.com/GPX/1/1" xmlns:xsi="http://www.w3.org/2001/XMLSchema-instance" xsi:schemaLocation="http://www.topografix.com/GPX/1/1 http://www.topografix.com/GPX/1/1/gpx.xsd" version="1.1" creator="VisuGPX - https://www.visugpx.com">
  <metadata>
    <name>lundi 2016 02 01</name>
    <desc><![CDATA[rando du lundi]]></desc>
  </metadata>
  <trk>
    <name><![CDATA[lundi 2016 02 01]]></name>
    <trkseg>
      <trkpt lat="48.8574" lon="2.34711">
        <ele>40.200000762939</ele>
        <time>2016-02-01T19:21:25.000Z</time>
      </trkpt>
      <trkpt lat="48.85727" lon="2.34687">
        <ele>40</ele>
        <time>2016-02-01T19:21:33.000Z</time>
      </trkpt>
      <trkpt lat="48.8572" lon="2.34687">
        <ele>40.400001525879</ele>
        <time>2016-02-01T19:21:40.000Z</time>
      </trkpt>
      <trkpt lat="48.857" lon="2.34678">
        <ele>40.799999237061</ele>
        <time>2016-02-01T19:21:47.000Z</time>
      </trkpt>
      <trkpt lat="48.85682" lon="2.34667">
        <ele>41.599998474121</ele>
        <time>2016-02-01T19:21:54.000Z</time>
      </trkpt>
      <trkpt lat="48.85663" lon="2.34654">
        <ele>43.200000762939</ele>
        <time>2016-02-01T19:22:01.000Z</time>
      </trkpt>
      <trkpt lat="48.85645" lon="2.34643">
        <ele>44.799999237061</ele>
        <time>2016-02-01T19:22:07.000Z</time>
      </trkpt>
      <trkpt lat="48.85639" lon="2.34636">
        <ele>45.200000762939</ele>
        <time>2016-02-01T19:22:10.000Z</time>
      </trkpt>
      <trkpt lat="48.85642" lon="2.34615">
        <ele>45.200000762939</ele>
        <time>2016-02-01T19:22:16.000Z</time>
      </trkpt>
      <trkpt lat="48.85652" lon="2.34583">
        <ele>48.799999237061</ele>
        <time>2016-02-01T19:22:21.000Z</time>
      </trkpt>
      <trkpt lat="48.85663" lon="2.34554">
        <ele>49</ele>
        <time>2016-02-01T19:22:25.000Z</time>
      </trkpt>
      <trkpt lat="48.85671" lon="2.34524">
        <ele>48.400001525879</ele>
        <time>2016-02-01T19:22:29.000Z</time>
      </trkpt>
      <trkpt lat="48.85678" lon="2.34493">
        <ele>47.799999237061</ele>
        <time>2016-02-01T19:22:33.000Z</time>
      </trkpt>
      <trkpt lat="48.85683" lon="2.3446">
        <ele>48.599998474121</ele>
        <time>2016-02-01T19:22:37.000Z</time>
      </trkpt>
      <trkpt lat="48.85688" lon="2.34428">
        <ele>49.599998474121</ele>
        <time>2016-02-01T19:22:41.000Z</time>
      </trkpt>
      <trkpt lat="48.85694" lon="2.34395">
        <ele>47.200000762939</ele>
        <time>2016-02-01T19:22:45.000Z</time>
      </trkpt>
      <trkpt lat="48.85697" lon="2.34363">
        <ele>43</ele>
        <time>2016-02-01T19:22:49.000Z</time>
      </trkpt>
      <trkpt lat="48.85696" lon="2.34356">
        <ele>42.200000762939</ele>
        <time>2016-02-01T19:22:50.000Z</time>
      </trkpt>
      <trkpt lat="48.85677" lon="2.34333">
        <ele>40.400001525879</ele>
        <time>2016-02-01T19:22:54.000Z</time>
      </trkpt>
      <trkpt lat="48.85673" lon="2.34329">
        <ele>40.200000762939</ele>
        <time>2016-02-01T19:22:55.000Z</time>
      </trkpt>
      <trkpt lat="48.85669" lon="2.34326">
        <ele>40.400001525879</ele>
        <time>2016-02-01T19:22:56.000Z</time>
      </trkpt>
      <trkpt lat="48.85652" lon="2.34315">
        <ele>40.599998474121</ele>
        <time>2016-02-01T19:22:59.000Z</time>
      </trkpt>
      <trkpt lat="48.85634" lon="2.34302">
        <ele>41</ele>
        <time>2016-02-01T19:23:03.000Z</time>
      </trkpt>
      <trkpt lat="48.85615" lon="2.34287">
        <ele>41.400001525879</ele>
        <time>2016-02-01T19:23:07.000Z</time>
      </trkpt>
      <trkpt lat="48.85599" lon="2.34274">
        <ele>41.400001525879</ele>
        <time>2016-02-01T19:23:11.000Z</time>
      </trkpt>
      <trkpt lat="48.85582" lon="2.34266">
        <ele>40.799999237061</ele>
        <time>2016-02-01T19:23:16.000Z</time>
      </trkpt>
      <trkpt lat="48.85589" lon="2.34239">
        <ele>41.400001525879</ele>
        <time>2016-02-01T19:23:22.000Z</time>
      </trkpt>
      <trkpt lat="48.85599" lon="2.3423">
        <ele>42.799999237061</ele>
        <time>2016-02-01T19:23:25.000Z</time>
      </trkpt>
      <trkpt lat="48.85603" lon="2.34228">
        <ele>43.400001525879</ele>
        <time>2016-02-01T19:23:26.000Z</time>
      </trkpt>
      <trkpt lat="48.8562" lon="2.3421">
        <ele>45.200000762939</ele>
        <time>2016-02-01T19:23:31.000Z</time>
      </trkpt>
      <trkpt lat="48.85624" lon="2.34205">
        <ele>45.599998474121</ele>
        <time>2016-02-01T19:23:32.000Z</time>
      </trkpt>
      <trkpt lat="48.85641" lon="2.34185">
        <ele>47.200000762939</ele>
        <time>2016-02-01T19:23:36.000Z</time>
      </trkpt>
      <trkpt lat="48.85648" lon="2.34174">
        <ele>48.400001525879</ele>
        <time>2016-02-01T19:23:38.000Z</time>
      </trkpt>
      <trkpt lat="48.85662" lon="2.34154">
        <ele>48.400001525879</ele>
        <time>2016-02-01T19:23:42.000Z</time>
      </trkpt>
      <trkpt lat="48.85664" lon="2.34149">
        <ele>48</ele>
        <time>2016-02-01T19:23:43.000Z</time>
      </trkpt>
      <trkpt lat="48.85676" lon="2.34124">
        <ele>44.799999237061</ele>
        <time>2016-02-01T19:23:49.000Z</time>
      </trkpt>
      <trkpt lat="48.85676" lon="2.3412">
        <ele>44.400001525879</ele>
        <time>2016-02-01T19:23:50.000Z</time>
      </trkpt>
      <trkpt lat="48.85672" lon="2.34109">
        <ele>43.200000762939</ele>
        <time>2016-02-01T19:23:54.000Z</time>
      </trkpt>
      <trkpt lat="48.85671" lon="2.34106">
        <ele>43</ele>
        <time>2016-02-01T19:23:55.000Z</time>
      </trkpt>
      <trkpt lat="48.8566" lon="2.3408">
        <ele>40.400001525879</ele>
        <time>2016-02-01T19:24:04.000Z</time>
      </trkpt>
      <trkpt lat="48.85645" lon="2.34065">
        <ele>42</ele>
        <time>2016-02-01T19:24:11.000Z</time>
      </trkpt>
      <trkpt lat="48.85635" lon="2.34043">
        <ele>43.799999237061</ele>
        <time>2016-02-01T19:24:18.000Z</time>
      </trkpt>
      <trkpt lat="48.85637" lon="2.34036">
        <ele>44.200000762939</ele>
        <time>2016-02-01T19:24:22.000Z</time>
      </trkpt>
      <trkpt lat="48.85642" lon="2.34017">
        <ele>43</ele>
        <time>2016-02-01T19:24:49.000Z</time>
      </trkpt>
      <trkpt lat="48.85655" lon="2.3399">
        <ele>39.200000762939</ele>
        <time>2016-02-01T19:24:54.000Z</time>
      </trkpt>
      <trkpt lat="48.85668" lon="2.33965">
        <ele>37.400001525879</ele>
        <time>2016-02-01T19:24:58.000Z</time>
      </trkpt>
      <trkpt lat="48.85683" lon="2.33936">
        <ele>38</ele>
        <time>2016-02-01T19:25:02.000Z</time>
      </trkpt>
      <trkpt lat="48.85694" lon="2.33915">
        <ele>38.200000762939</ele>
        <time>2016-02-01T19:25:05.000Z</time>
      </trkpt>
      <trkpt lat="48.85705" lon="2.33893">
        <ele>36.799999237061</ele>
        <time>2016-02-01T19:25:08.000Z</time>
      </trkpt>
      <trkpt lat="48.85718" lon="2.33871">
        <ele>35</ele>
        <time>2016-02-01T19:25:11.000Z</time>
      </trkpt>
      <trkpt lat="48.85731" lon="2.33847">
        <ele>35.200000762939</ele>
        <time>2016-02-01T19:25:14.000Z</time>
      </trkpt>
      <trkpt lat="48.85744" lon="2.33822">
        <ele>35.599998474121</ele>
        <time>2016-02-01T19:25:17.000Z</time>
      </trkpt>
      <trkpt lat="48.85758" lon="2.33797">
        <ele>34.799999237061</ele>
        <time>2016-02-01T19:25:20.000Z</time>
      </trkpt>
      <trkpt lat="48.85761" lon="2.33788">
        <ele>34.799999237061</ele>
        <time>2016-02-01T19:25:21.000Z</time>
      </trkpt>
      <trkpt lat="48.85767" lon="2.33759">
        <ele>35.200000762939</ele>
        <time>2016-02-01T19:25:24.000Z</time>
      </trkpt>
      <trkpt lat="48.85774" lon="2.33727">
        <ele>34.799999237061</ele>
        <time>2016-02-01T19:25:28.000Z</time>
      </trkpt>
      <trkpt lat="48.85778" lon="2.33708">
        <ele>34.599998474121</ele>
        <time>2016-02-01T19:25:31.000Z</time>
      </trkpt>
      <trkpt lat="48.8578" lon="2.3368">
        <ele>34.400001525879</ele>
        <time>2016-02-01T19:25:35.000Z</time>
      </trkpt>
      <trkpt lat="48.85785" lon="2.33653">
        <ele>33.200000762939</ele>
        <time>2016-02-01T19:25:39.000Z</time>
      </trkpt>
      <trkpt lat="48.85787" lon="2.33649">
        <ele>33.200000762939</ele>
        <time>2016-02-01T19:25:40.000Z</time>
      </trkpt>
      <trkpt lat="48.85777" lon="2.33655">
        <ele>34.599998474121</ele>
        <time>2016-02-01T19:25:49.000Z</time>
      </trkpt>
      <trkpt lat="48.85776" lon="2.33655">
        <ele>35</ele>
        <time>2016-02-01T19:25:50.000Z</time>
      </trkpt>
      <trkpt lat="48.85773" lon="2.33657">
        <ele>35.400001525879</ele>
        <time>2016-02-01T19:25:52.000Z</time>
      </trkpt>
      <trkpt lat="48.85757" lon="2.33649">
        <ele>37.599998474121</ele>
        <time>2016-02-01T19:26:03.000Z</time>
      </trkpt>
      <trkpt lat="48.85748" lon="2.3365">
        <ele>38.599998474121</ele>
        <time>2016-02-01T19:26:06.000Z</time>
      </trkpt>
      <trkpt lat="48.85726" lon="2.33658">
        <ele>40.400001525879</ele>
        <time>2016-02-01T19:26:10.000Z</time>
      </trkpt>
      <trkpt lat="48.85707" lon="2.33664">
        <ele>42</ele>
        <time>2016-02-01T19:26:15.000Z</time>
      </trkpt>
      <trkpt lat="48.85688" lon="2.33673">
        <ele>44</ele>
        <time>2016-02-01T19:26:22.000Z</time>
      </trkpt>
      <trkpt lat="48.85668" lon="2.33676">
        <ele>44.799999237061</ele>
        <time>2016-02-01T19:26:27.000Z</time>
      </trkpt>
      <trkpt lat="48.85661" lon="2.33673">
        <ele>45</ele>
        <time>2016-02-01T19:26:31.000Z</time>
      </trkpt>
      <trkpt lat="48.85658" lon="2.33645">
        <ele>44.599998474121</ele>
        <time>2016-02-01T19:26:37.000Z</time>
      </trkpt>
      <trkpt lat="48.8566" lon="2.33613">
        <ele>45.599998474121</ele>
        <time>2016-02-01T19:26:43.000Z</time>
      </trkpt>
      <trkpt lat="48.85666" lon="2.33588">
        <ele>47.400001525879</ele>
        <time>2016-02-01T19:26:48.000Z</time>
      </trkpt>
      <trkpt lat="48.85669" lon="2.33558">
        <ele>48.400001525879</ele>
        <time>2016-02-01T19:26:53.000Z</time>
      </trkpt>
      <trkpt lat="48.85672" lon="2.33528">
        <ele>47.799999237061</ele>
        <time>2016-02-01T19:26:59.000Z</time>
      </trkpt>
      <trkpt lat="48.8567" lon="2.33491">
        <ele>47</ele>
        <time>2016-02-01T19:27:06.000Z</time>
      </trkpt>
      <trkpt lat="48.85667" lon="2.33475">
        <ele>46.799999237061</ele>
        <time>2016-02-01T19:27:15.000Z</time>
      </trkpt>
      <trkpt lat="48.85685" lon="2.33491">
        <ele>46.799999237061</ele>
        <time>2016-02-01T19:27:22.000Z</time>
      </trkpt>
      <trkpt lat="48.85703" lon="2.33501">
        <ele>46.200000762939</ele>
        <time>2016-02-01T19:27:26.000Z</time>
      </trkpt>
      <trkpt lat="48.85721" lon="2.33516">
        <ele>45</ele>
        <time>2016-02-01T19:27:31.000Z</time>
      </trkpt>
      <trkpt lat="48.85741" lon="2.33527">
        <ele>43.799999237061</ele>
        <time>2016-02-01T19:27:37.000Z</time>
      </trkpt>
      <trkpt lat="48.85758" lon="2.33535">
        <ele>42.799999237061</ele>
        <time>2016-02-01T19:27:43.000Z</time>
      </trkpt>
      <trkpt lat="48.85777" lon="2.3353">
        <ele>40.799999237061</ele>
        <time>2016-02-01T19:27:49.000Z</time>
      </trkpt>
      <trkpt lat="48.85782" lon="2.33504">
        <ele>40.400001525879</ele>
        <time>2016-02-01T19:27:55.000Z</time>
      </trkpt>
      <trkpt lat="48.85788" lon="2.33474">
        <ele>43.200000762939</ele>
        <time>2016-02-01T19:28:00.000Z</time>
      </trkpt>
      <trkpt lat="48.85796" lon="2.33446">
        <ele>43.599998474121</ele>
        <time>2016-02-01T19:28:04.000Z</time>
      </trkpt>
      <trkpt lat="48.85805" lon="2.33414">
        <ele>45.200000762939</ele>
        <time>2016-02-01T19:28:08.000Z</time>
      </trkpt>
      <trkpt lat="48.85812" lon="2.33381">
        <ele>45.799999237061</ele>
        <time>2016-02-01T19:28:12.000Z</time>
      </trkpt>
      <trkpt lat="48.85821" lon="2.33353">
        <ele>45</ele>
        <time>2016-02-01T19:28:16.000Z</time>
      </trkpt>
      <trkpt lat="48.85826" lon="2.33326">
        <ele>43.799999237061</ele>
        <time>2016-02-01T19:28:21.000Z</time>
      </trkpt>
      <trkpt lat="48.85823" lon="2.33307">
        <ele>44.400001525879</ele>
        <time>2016-02-01T19:28:29.000Z</time>
      </trkpt>
      <trkpt lat="48.85804" lon="2.33293">
        <ele>45.200000762939</ele>
        <time>2016-02-01T19:28:35.000Z</time>
      </trkpt>
      <trkpt lat="48.85785" lon="2.33283">
        <ele>45.799999237061</ele>
        <time>2016-02-01T19:28:40.000Z</time>
      </trkpt>
      <trkpt lat="48.8578" lon="2.33275">
        <ele>46.200000762939</ele>
        <time>2016-02-01T19:28:42.000Z</time>
      </trkpt>
      <trkpt lat="48.85786" lon="2.33247">
        <ele>46.200000762939</ele>
        <time>2016-02-01T19:28:47.000Z</time>
      </trkpt>
      <trkpt lat="48.85791" lon="2.33232">
        <ele>45.799999237061</ele>
        <time>2016-02-01T19:28:49.000Z</time>
      </trkpt>
      <trkpt lat="48.85797" lon="2.33201">
        <ele>45</ele>
        <time>2016-02-01T19:28:53.000Z</time>
      </trkpt>
      <trkpt lat="48.85804" lon="2.33174">
        <ele>45</ele>
        <time>2016-02-01T19:28:57.000Z</time>
      </trkpt>
      <trkpt lat="48.85811" lon="2.33148">
        <ele>44.799999237061</ele>
        <time>2016-02-01T19:29:01.000Z</time>
      </trkpt>
      <trkpt lat="48.85814" lon="2.33143">
        <ele>44.799999237061</ele>
        <time>2016-02-01T19:29:02.000Z</time>
      </trkpt>
      <trkpt lat="48.85826" lon="2.33116">
        <ele>45.200000762939</ele>
        <time>2016-02-01T19:29:07.000Z</time>
      </trkpt>
      <trkpt lat="48.85829" lon="2.33111">
        <ele>45.599998474121</ele>
        <time>2016-02-01T19:29:08.000Z</time>
      </trkpt>
      <trkpt lat="48.85834" lon="2.331">
        <ele>46.200000762939</ele>
        <time>2016-02-01T19:29:13.000Z</time>
      </trkpt>
      <trkpt lat="48.85829" lon="2.33101">
        <ele>46</ele>
        <time>2016-02-01T19:29:17.000Z</time>
      </trkpt>
      <trkpt lat="48.85814" lon="2.33086">
        <ele>46.200000762939</ele>
        <time>2016-02-01T19:29:27.000Z</time>
      </trkpt>
      <trkpt lat="48.85791" lon="2.33071">
        <ele>45.799999237061</ele>
        <time>2016-02-01T19:29:30.000Z</time>
      </trkpt>
      <trkpt lat="48.85777" lon="2.33064">
        <ele>45.400001525879</ele>
        <time>2016-02-01T19:29:32.000Z</time>
      </trkpt>
      <trkpt lat="48.85777" lon="2.33032">
        <ele>45.799999237061</ele>
        <time>2016-02-01T19:29:37.000Z</time>
      </trkpt>
      <trkpt lat="48.85781" lon="2.3302">
        <ele>46</ele>
        <time>2016-02-01T19:29:39.000Z</time>
      </trkpt>
      <trkpt lat="48.85791" lon="2.32994">
        <ele>46.400001525879</ele>
        <time>2016-02-01T19:29:43.000Z</time>
      </trkpt>
      <trkpt lat="48.858" lon="2.32968">
        <ele>46.200000762939</ele>
        <time>2016-02-01T19:29:47.000Z</time>
      </trkpt>
      <trkpt lat="48.85807" lon="2.32953">
        <ele>46.200000762939</ele>
        <time>2016-02-01T19:29:51.000Z</time>
      </trkpt>
      <trkpt lat="48.85813" lon="2.3294">
        <ele>46.200000762939</ele>
        <time>2016-02-01T19:29:55.000Z</time>
      </trkpt>
      <trkpt lat="48.85826" lon="2.32918">
        <ele>45.799999237061</ele>
        <time>2016-02-01T19:30:01.000Z</time>
      </trkpt>
      <trkpt lat="48.8583" lon="2.32885">
        <ele>45.599998474121</ele>
        <time>2016-02-01T19:30:06.000Z</time>
      </trkpt>
      <trkpt lat="48.85838" lon="2.32857">
        <ele>45.400001525879</ele>
        <time>2016-02-01T19:30:11.000Z</time>
      </trkpt>
      <trkpt lat="48.85827" lon="2.3283">
        <ele>45</ele>
        <time>2016-02-01T19:30:19.000Z</time>
      </trkpt>
      <trkpt lat="48.85808" lon="2.32816">
        <ele>45</ele>
        <time>2016-02-01T19:30:22.000Z</time>
      </trkpt>
      <trkpt lat="48.85786" lon="2.32805">
        <ele>45</ele>
        <time>2016-02-01T19:30:26.000Z</time>
      </trkpt>
      <trkpt lat="48.85786" lon="2.32799">
        <ele>45</ele>
        <time>2016-02-01T19:30:27.000Z</time>
      </trkpt>
      <trkpt lat="48.85789" lon="2.32769">
        <ele>45</ele>
        <time>2016-02-01T19:30:32.000Z</time>
      </trkpt>
      <trkpt lat="48.85794" lon="2.32742">
        <ele>45.599998474121</ele>
        <time>2016-02-01T19:30:36.000Z</time>
      </trkpt>
      <trkpt lat="48.85802" lon="2.32716">
        <ele>45.400001525879</ele>
        <time>2016-02-01T19:30:40.000Z</time>
      </trkpt>
      <trkpt lat="48.85815" lon="2.32692">
        <ele>45</ele>
        <time>2016-02-01T19:30:44.000Z</time>
      </trkpt>
      <trkpt lat="48.85821" lon="2.32679">
        <ele>44.799999237061</ele>
        <time>2016-02-01T19:30:46.000Z</time>
      </trkpt>
      <trkpt lat="48.85833" lon="2.32653">
        <ele>43.799999237061</ele>
        <time>2016-02-01T19:30:50.000Z</time>
      </trkpt>
      <trkpt lat="48.85844" lon="2.32625">
        <ele>42.799999237061</ele>
        <time>2016-02-01T19:30:54.000Z</time>
      </trkpt>
      <trkpt lat="48.85853" lon="2.32598">
        <ele>41.799999237061</ele>
        <time>2016-02-01T19:30:58.000Z</time>
      </trkpt>
      <trkpt lat="48.85865" lon="2.32574">
        <ele>41.400001525879</ele>
        <time>2016-02-01T19:31:02.000Z</time>
      </trkpt>
      <trkpt lat="48.85877" lon="2.32545">
        <ele>42.400001525879</ele>
        <time>2016-02-01T19:31:07.000Z</time>
      </trkpt>
      <trkpt lat="48.85885" lon="2.32521">
        <ele>43</ele>
        <time>2016-02-01T19:31:11.000Z</time>
      </trkpt>
      <trkpt lat="48.8589" lon="2.32495">
        <ele>42.599998474121</ele>
        <time>2016-02-01T19:31:15.000Z</time>
      </trkpt>
      <trkpt lat="48.8589" lon="2.32483">
        <ele>43</ele>
        <time>2016-02-01T19:31:17.000Z</time>
      </trkpt>
      <trkpt lat="48.85881" lon="2.32456">
        <ele>44.200000762939</ele>
        <time>2016-02-01T19:31:22.000Z</time>
      </trkpt>
      <trkpt lat="48.8587" lon="2.32433">
        <ele>45.200000762939</ele>
        <time>2016-02-01T19:31:26.000Z</time>
      </trkpt>
      <trkpt lat="48.85857" lon="2.3241">
        <ele>45.799999237061</ele>
        <time>2016-02-01T19:31:30.000Z</time>
      </trkpt>
      <trkpt lat="48.85842" lon="2.32389">
        <ele>44.799999237061</ele>
        <time>2016-02-01T19:31:35.000Z</time>
      </trkpt>
      <trkpt lat="48.85837" lon="2.32384">
        <ele>44.599998474121</ele>
        <time>2016-02-01T19:31:38.000Z</time>
      </trkpt>
      <trkpt lat="48.85829" lon="2.32381">
        <ele>44</ele>
        <time>2016-02-01T19:31:41.000Z</time>
      </trkpt>
      <trkpt lat="48.85825" lon="2.32377">
        <ele>43.799999237061</ele>
        <time>2016-02-01T19:31:44.000Z</time>
      </trkpt>
      <trkpt lat="48.85821" lon="2.32375">
        <ele>43.400001525879</ele>
        <time>2016-02-01T19:31:47.000Z</time>
      </trkpt>
      <trkpt lat="48.8582" lon="2.32358">
        <ele>43.200000762939</ele>
        <time>2016-02-01T19:32:07.000Z</time>
      </trkpt>
      <trkpt lat="48.85809" lon="2.3234">
        <ele>42.400001525879</ele>
        <time>2016-02-01T19:32:17.000Z</time>
      </trkpt>
      <trkpt lat="48.85817" lon="2.32313">
        <ele>42.799999237061</ele>
        <time>2016-02-01T19:32:24.000Z</time>
      </trkpt>
      <trkpt lat="48.85829" lon="2.32297">
        <ele>43.599998474121</ele>
        <time>2016-02-01T19:32:32.000Z</time>
      </trkpt>
      <trkpt lat="48.85826" lon="2.32292">
        <ele>43.599998474121</ele>
        <time>2016-02-01T19:32:36.000Z</time>
      </trkpt>
      <trkpt lat="48.85826" lon="2.32288">
        <ele>43.599998474121</ele>
        <time>2016-02-01T19:32:38.000Z</time>
      </trkpt>
      <trkpt lat="48.85807" lon="2.32272">
        <ele>42.599998474121</ele>
        <time>2016-02-01T19:32:49.000Z</time>
      </trkpt>
      <trkpt lat="48.85793" lon="2.32256">
        <ele>42</ele>
        <time>2016-02-01T19:32:53.000Z</time>
      </trkpt>
      <trkpt lat="48.85774" lon="2.32243">
        <ele>41.200000762939</ele>
        <time>2016-02-01T19:32:57.000Z</time>
      </trkpt>
      <trkpt lat="48.85761" lon="2.32231">
        <ele>41.400001525879</ele>
        <time>2016-02-01T19:33:00.000Z</time>
      </trkpt>
      <trkpt lat="48.85744" lon="2.32209">
        <ele>41.799999237061</ele>
        <time>2016-02-01T19:33:04.000Z</time>
      </trkpt>
      <trkpt lat="48.85728" lon="2.32196">
        <ele>42.200000762939</ele>
        <time>2016-02-01T19:33:07.000Z</time>
      </trkpt>
      <trkpt lat="48.85713" lon="2.32181">
        <ele>42.599998474121</ele>
        <time>2016-02-01T19:33:10.000Z</time>
      </trkpt>
      <trkpt lat="48.85692" lon="2.32162">
        <ele>43</ele>
        <time>2016-02-01T19:33:13.000Z</time>
      </trkpt>
      <trkpt lat="48.85674" lon="2.32147">
        <ele>44</ele>
        <time>2016-02-01T19:33:16.000Z</time>
      </trkpt>
      <trkpt lat="48.85654" lon="2.32132">
        <ele>45</ele>
        <time>2016-02-01T19:33:20.000Z</time>
      </trkpt>
      <trkpt lat="48.85651" lon="2.32126">
        <ele>45.200000762939</ele>
        <time>2016-02-01T19:33:22.000Z</time>
      </trkpt>
      <trkpt lat="48.85654" lon="2.32102">
        <ele>46</ele>
        <time>2016-02-01T19:33:34.000Z</time>
      </trkpt>
      <trkpt lat="48.85665" lon="2.32078">
        <ele>46.599998474121</ele>
        <time>2016-02-01T19:33:38.000Z</time>
      </trkpt>
      <trkpt lat="48.85674" lon="2.32051">
        <ele>45.799999237061</ele>
        <time>2016-02-01T19:33:42.000Z</time>
      </trkpt>
      <trkpt lat="48.85684" lon="2.32021">
        <ele>44.799999237061</ele>
        <time>2016-02-01T19:33:46.000Z</time>
      </trkpt>
      <trkpt lat="48.85694" lon="2.31989">
        <ele>44.200000762939</ele>
        <time>2016-02-01T19:33:50.000Z</time>
      </trkpt>
      <trkpt lat="48.85705" lon="2.31964">
        <ele>44.799999237061</ele>
        <time>2016-02-01T19:33:53.000Z</time>
      </trkpt>
      <trkpt lat="48.85712" lon="2.31938">
        <ele>45.599998474121</ele>
        <time>2016-02-01T19:33:56.000Z</time>
      </trkpt>
      <trkpt lat="48.8572" lon="2.31912">
        <ele>45.599998474121</ele>
        <time>2016-02-01T19:33:59.000Z</time>
      </trkpt>
      <trkpt lat="48.8573" lon="2.31887">
        <ele>45.599998474121</ele>
        <time>2016-02-01T19:34:03.000Z</time>
      </trkpt>
      <trkpt lat="48.85739" lon="2.31865">
        <ele>46.200000762939</ele>
        <time>2016-02-01T19:34:07.000Z</time>
      </trkpt>
      <trkpt lat="48.85749" lon="2.31836">
        <ele>47.200000762939</ele>
        <time>2016-02-01T19:34:12.000Z</time>
      </trkpt>
      <trkpt lat="48.85753" lon="2.31826">
        <ele>47.400001525879</ele>
        <time>2016-02-01T19:34:14.000Z</time>
      </trkpt>
      <trkpt lat="48.85765" lon="2.318">
        <ele>46.599998474121</ele>
        <time>2016-02-01T19:34:19.000Z</time>
      </trkpt>
      <trkpt lat="48.85773" lon="2.31772">
        <ele>45.599998474121</ele>
        <time>2016-02-01T19:34:24.000Z</time>
      </trkpt>
      <trkpt lat="48.85775" lon="2.31764">
        <ele>45.400001525879</ele>
        <time>2016-02-01T19:34:26.000Z</time>
      </trkpt>
      <trkpt lat="48.85775" lon="2.31733">
        <ele>44.400001525879</ele>
        <time>2016-02-01T19:34:41.000Z</time>
      </trkpt>
      <trkpt lat="48.85782" lon="2.31699">
        <ele>43</ele>
        <time>2016-02-01T19:34:45.000Z</time>
      </trkpt>
      <trkpt lat="48.8579" lon="2.31673">
        <ele>41.799999237061</ele>
        <time>2016-02-01T19:34:48.000Z</time>
      </trkpt>
      <trkpt lat="48.85796" lon="2.31643">
        <ele>40.599998474121</ele>
        <time>2016-02-01T19:34:51.000Z</time>
      </trkpt>
      <trkpt lat="48.858" lon="2.31612">
        <ele>39.799999237061</ele>
        <time>2016-02-01T19:34:54.000Z</time>
      </trkpt>
      <trkpt lat="48.85804" lon="2.31584">
        <ele>39.599998474121</ele>
        <time>2016-02-01T19:34:57.000Z</time>
      </trkpt>
      <trkpt lat="48.85809" lon="2.31549">
        <ele>38</ele>
        <time>2016-02-01T19:35:01.000Z</time>
      </trkpt>
      <trkpt lat="48.85809" lon="2.31541">
        <ele>37.599998474121</ele>
        <time>2016-02-01T19:35:02.000Z</time>
      </trkpt>
      <trkpt lat="48.85811" lon="2.31513">
        <ele>37</ele>
        <time>2016-02-01T19:35:06.000Z</time>
      </trkpt>
      <trkpt lat="48.85814" lon="2.31486">
        <ele>36.799999237061</ele>
        <time>2016-02-01T19:35:11.000Z</time>
      </trkpt>
      <trkpt lat="48.85819" lon="2.31468">
        <ele>36.799999237061</ele>
        <time>2016-02-01T19:35:15.000Z</time>
      </trkpt>
      <trkpt lat="48.85835" lon="2.31447">
        <ele>37.200000762939</ele>
        <time>2016-02-01T19:35:20.000Z</time>
      </trkpt>
      <trkpt lat="48.85834" lon="2.31441">
        <ele>37.200000762939</ele>
        <time>2016-02-01T19:35:21.000Z</time>
      </trkpt>
      <trkpt lat="48.85836" lon="2.31415">
        <ele>37.200000762939</ele>
        <time>2016-02-01T19:35:24.000Z</time>
      </trkpt>
      <trkpt lat="48.85838" lon="2.31386">
        <ele>35.200000762939</ele>
        <time>2016-02-01T19:35:28.000Z</time>
      </trkpt>
      <trkpt lat="48.85839" lon="2.31363">
        <ele>34</ele>
        <time>2016-02-01T19:35:32.000Z</time>
      </trkpt>
      <trkpt lat="48.85855" lon="2.31342">
        <ele>33.599998474121</ele>
        <time>2016-02-01T19:35:37.000Z</time>
      </trkpt>
      <trkpt lat="48.85859" lon="2.31337">
        <ele>33.200000762939</ele>
        <time>2016-02-01T19:35:38.000Z</time>
      </trkpt>
      <trkpt lat="48.85875" lon="2.31312">
        <ele>31.39999961853</ele>
        <time>2016-02-01T19:35:42.000Z</time>
      </trkpt>
      <trkpt lat="48.85876" lon="2.31279">
        <ele>31</ele>
        <time>2016-02-01T19:35:46.000Z</time>
      </trkpt>
      <trkpt lat="48.85863" lon="2.31251">
        <ele>31.60000038147</ele>
        <time>2016-02-01T19:35:50.000Z</time>
      </trkpt>
      <trkpt lat="48.85859" lon="2.31246">
        <ele>32</ele>
        <time>2016-02-01T19:35:51.000Z</time>
      </trkpt>
      <trkpt lat="48.85852" lon="2.31233">
        <ele>33</ele>
        <time>2016-02-01T19:35:53.000Z</time>
      </trkpt>
      <trkpt lat="48.85848" lon="2.31202">
        <ele>35</ele>
        <time>2016-02-01T19:35:57.000Z</time>
      </trkpt>
      <trkpt lat="48.85847" lon="2.31171">
        <ele>36.799999237061</ele>
        <time>2016-02-01T19:36:01.000Z</time>
      </trkpt>
      <trkpt lat="48.85846" lon="2.31143">
        <ele>38.400001525879</ele>
        <time>2016-02-01T19:36:05.000Z</time>
      </trkpt>
      <trkpt lat="48.85841" lon="2.3113">
        <ele>39.200000762939</ele>
        <time>2016-02-01T19:36:09.000Z</time>
      </trkpt>
      <trkpt lat="48.85825" lon="2.3111">
        <ele>40.400001525879</ele>
        <time>2016-02-01T19:36:13.000Z</time>
      </trkpt>
      <trkpt lat="48.85819" lon="2.31081">
        <ele>42.599998474121</ele>
        <time>2016-02-01T19:36:18.000Z</time>
      </trkpt>
      <trkpt lat="48.85818" lon="2.31075">
        <ele>42.599998474121</ele>
        <time>2016-02-01T19:36:19.000Z</time>
      </trkpt>
      <trkpt lat="48.85815" lon="2.31057">
        <ele>42.799999237061</ele>
        <time>2016-02-01T19:36:22.000Z</time>
      </trkpt>
      <trkpt lat="48.85813" lon="2.3103">
        <ele>43</ele>
        <time>2016-02-01T19:36:27.000Z</time>
      </trkpt>
      <trkpt lat="48.85809" lon="2.31">
        <ele>43.400001525879</ele>
        <time>2016-02-01T19:36:32.000Z</time>
      </trkpt>
      <trkpt lat="48.85809" lon="2.30976">
        <ele>44.400001525879</ele>
        <time>2016-02-01T19:36:36.000Z</time>
      </trkpt>
      <trkpt lat="48.85809" lon="2.30969">
        <ele>44.799999237061</ele>
        <time>2016-02-01T19:36:37.000Z</time>
      </trkpt>
      <trkpt lat="48.85808" lon="2.3094">
        <ele>46</ele>
        <time>2016-02-01T19:36:41.000Z</time>
      </trkpt>
      <trkpt lat="48.85806" lon="2.30908">
        <ele>46.599998474121</ele>
        <time>2016-02-01T19:36:45.000Z</time>
      </trkpt>
      <trkpt lat="48.85806" lon="2.30899">
        <ele>46.599998474121</ele>
        <time>2016-02-01T19:36:46.000Z</time>
      </trkpt>
      <trkpt lat="48.85806" lon="2.30864">
        <ele>46.599998474121</ele>
        <time>2016-02-01T19:36:50.000Z</time>
      </trkpt>
      <trkpt lat="48.85808" lon="2.30831">
        <ele>45.400001525879</ele>
        <time>2016-02-01T19:36:53.000Z</time>
      </trkpt>
      <trkpt lat="48.85807" lon="2.30807">
        <ele>44.599998474121</ele>
        <time>2016-02-01T19:36:56.000Z</time>
      </trkpt>
      <trkpt lat="48.85804" lon="2.30778">
        <ele>43.599998474121</ele>
        <time>2016-02-01T19:36:59.000Z</time>
      </trkpt>
      <trkpt lat="48.85803" lon="2.30768">
        <ele>43.599998474121</ele>
        <time>2016-02-01T19:37:00.000Z</time>
      </trkpt>
      <trkpt lat="48.85801" lon="2.30739">
        <ele>43.599998474121</ele>
        <time>2016-02-01T19:37:03.000Z</time>
      </trkpt>
      <trkpt lat="48.85797" lon="2.30709">
        <ele>43.799999237061</ele>
        <time>2016-02-01T19:37:06.000Z</time>
      </trkpt>
      <trkpt lat="48.85789" lon="2.30682">
        <ele>43.799999237061</ele>
        <time>2016-02-01T19:37:09.000Z</time>
      </trkpt>
      <trkpt lat="48.85782" lon="2.30656">
        <ele>43.799999237061</ele>
        <time>2016-02-01T19:37:12.000Z</time>
      </trkpt>
      <trkpt lat="48.85775" lon="2.30629">
        <ele>44</ele>
        <time>2016-02-01T19:37:15.000Z</time>
      </trkpt>
      <trkpt lat="48.85771" lon="2.3062">
        <ele>44</ele>
        <time>2016-02-01T19:37:16.000Z</time>
      </trkpt>
      <trkpt lat="48.85764" lon="2.30593">
        <ele>44.400001525879</ele>
        <time>2016-02-01T19:37:19.000Z</time>
      </trkpt>
      <trkpt lat="48.85752" lon="2.30565">
        <ele>44.599998474121</ele>
        <time>2016-02-01T19:37:23.000Z</time>
      </trkpt>
      <trkpt lat="48.85744" lon="2.30538">
        <ele>44.599998474121</ele>
        <time>2016-02-01T19:37:27.000Z</time>
      </trkpt>
      <trkpt lat="48.85735" lon="2.30513">
        <ele>44.799999237061</ele>
        <time>2016-02-01T19:37:31.000Z</time>
      </trkpt>
      <trkpt lat="48.85729" lon="2.30484">
        <ele>45.200000762939</ele>
        <time>2016-02-01T19:37:36.000Z</time>
      </trkpt>
      <trkpt lat="48.85723" lon="2.30455">
        <ele>45.599998474121</ele>
        <time>2016-02-01T19:37:44.000Z</time>
      </trkpt>
      <trkpt lat="48.85724" lon="2.30448">
        <ele>45.799999237061</ele>
        <time>2016-02-01T19:37:46.000Z</time>
      </trkpt>
      <trkpt lat="48.85723" lon="2.30436">
        <ele>45.599998474121</ele>
        <time>2016-02-01T19:37:52.000Z</time>
      </trkpt>
      <trkpt lat="48.85722" lon="2.30434">
        <ele>45.599998474121</ele>
        <time>2016-02-01T19:37:53.000Z</time>
      </trkpt>
      <trkpt lat="48.85714" lon="2.30425">
        <ele>46</ele>
        <time>2016-02-01T19:37:58.000Z</time>
      </trkpt>
      <trkpt lat="48.85712" lon="2.30423">
        <ele>46</ele>
        <time>2016-02-01T19:38:00.000Z</time>
      </trkpt>
      <trkpt lat="48.85704" lon="2.30407">
        <ele>46.200000762939</ele>
        <time>2016-02-01T19:38:04.000Z</time>
      </trkpt>
      <trkpt lat="48.85698" lon="2.30379">
        <ele>46.599998474121</ele>
        <time>2016-02-01T19:38:09.000Z</time>
      </trkpt>
      <trkpt lat="48.85686" lon="2.30351">
        <ele>47</ele>
        <time>2016-02-01T19:38:14.000Z</time>
      </trkpt>
      <trkpt lat="48.85671" lon="2.30329">
        <ele>47.200000762939</ele>
        <time>2016-02-01T19:38:18.000Z</time>
      </trkpt>
      <trkpt lat="48.85655" lon="2.30309">
        <ele>47.400001525879</ele>
        <time>2016-02-01T19:38:22.000Z</time>
      </trkpt>
      <trkpt lat="48.8564" lon="2.30286">
        <ele>47.599998474121</ele>
        <time>2016-02-01T19:38:27.000Z</time>
      </trkpt>
      <trkpt lat="48.85627" lon="2.30268">
        <ele>47.799999237061</ele>
        <time>2016-02-01T19:38:31.000Z</time>
      </trkpt>
      <trkpt lat="48.85612" lon="2.30247">
        <ele>47.799999237061</ele>
        <time>2016-02-01T19:38:36.000Z</time>
      </trkpt>
      <trkpt lat="48.85607" lon="2.30237">
        <ele>47.799999237061</ele>
        <time>2016-02-01T19:38:38.000Z</time>
      </trkpt>
      <trkpt lat="48.85593" lon="2.30214">
        <ele>47.200000762939</ele>
        <time>2016-02-01T19:38:44.000Z</time>
      </trkpt>
      <trkpt lat="48.85582" lon="2.30197">
        <ele>46.599998474121</ele>
        <time>2016-02-01T19:38:48.000Z</time>
      </trkpt>
      <trkpt lat="48.85566" lon="2.30176">
        <ele>45.799999237061</ele>
        <time>2016-02-01T19:38:53.000Z</time>
      </trkpt>
      <trkpt lat="48.85555" lon="2.30155">
        <ele>45</ele>
        <time>2016-02-01T19:38:58.000Z</time>
      </trkpt>
      <trkpt lat="48.85549" lon="2.3014">
        <ele>44.400001525879</ele>
        <time>2016-02-01T19:39:03.000Z</time>
      </trkpt>
      <trkpt lat="48.85545" lon="2.30135">
        <ele>44.200000762939</ele>
        <time>2016-02-01T19:39:06.000Z</time>
      </trkpt>
      <trkpt lat="48.85536" lon="2.30127">
        <ele>43.599998474121</ele>
        <time>2016-02-01T19:39:11.000Z</time>
      </trkpt>
      <trkpt lat="48.85525" lon="2.30102">
        <ele>42.599998474121</ele>
        <time>2016-02-01T19:39:18.000Z</time>
      </trkpt>
      <trkpt lat="48.8551" lon="2.30085">
        <ele>41.200000762939</ele>
        <time>2016-02-01T19:39:24.000Z</time>
      </trkpt>
      <trkpt lat="48.85496" lon="2.30065">
        <ele>40.400001525879</ele>
        <time>2016-02-01T19:39:30.000Z</time>
      </trkpt>
      <trkpt lat="48.85481" lon="2.30045">
        <ele>39.799999237061</ele>
        <time>2016-02-01T19:39:35.000Z</time>
      </trkpt>
      <trkpt lat="48.85466" lon="2.30023">
        <ele>39.200000762939</ele>
        <time>2016-02-01T19:39:40.000Z</time>
      </trkpt>
      <trkpt lat="48.85453" lon="2.30001">
        <ele>38.200000762939</ele>
        <time>2016-02-01T19:39:46.000Z</time>
      </trkpt>
      <trkpt lat="48.85439" lon="2.29979">
        <ele>37.599998474121</ele>
        <time>2016-02-01T19:39:52.000Z</time>
      </trkpt>
      <trkpt lat="48.85427" lon="2.29958">
        <ele>38.400001525879</ele>
        <time>2016-02-01T19:39:58.000Z</time>
      </trkpt>
      <trkpt lat="48.85416" lon="2.29933">
        <ele>39</ele>
        <time>2016-02-01T19:40:06.000Z</time>
      </trkpt>
      <trkpt lat="48.854" lon="2.29913">
        <ele>40.200000762939</ele>
        <time>2016-02-01T19:40:11.000Z</time>
      </trkpt>
      <trkpt lat="48.85386" lon="2.29894">
        <ele>42.599998474121</ele>
        <time>2016-02-01T19:40:19.000Z</time>
      </trkpt>
      <trkpt lat="48.85381" lon="2.29892">
        <ele>43</ele>
        <time>2016-02-01T19:40:22.000Z</time>
      </trkpt>
      <trkpt lat="48.85376" lon="2.29883">
        <ele>43.799999237061</ele>
        <time>2016-02-01T19:40:26.000Z</time>
      </trkpt>
      <trkpt lat="48.85365" lon="2.2986">
        <ele>46</ele>
        <time>2016-02-01T19:40:36.000Z</time>
      </trkpt>
      <trkpt lat="48.85363" lon="2.29851">
        <ele>46.599998474121</ele>
        <time>2016-02-01T19:40:43.000Z</time>
      </trkpt>
      <trkpt lat="48.85348" lon="2.29837">
        <ele>47.200000762939</ele>
        <time>2016-02-01T19:40:54.000Z</time>
      </trkpt>
      <trkpt lat="48.85332" lon="2.29817">
        <ele>45.599998474121</ele>
        <time>2016-02-01T19:41:01.000Z</time>
      </trkpt>
      <trkpt lat="48.85331" lon="2.29814">
        <ele>45.400001525879</ele>
        <time>2016-02-01T19:41:02.000Z</time>
      </trkpt>
      <trkpt lat="48.85328" lon="2.29805">
        <ele>44.599998474121</ele>
        <time>2016-02-01T19:41:07.000Z</time>
      </trkpt>
      <trkpt lat="48.85333" lon="2.29788">
        <ele>45</ele>
        <time>2016-02-01T19:41:13.000Z</time>
      </trkpt>
      <trkpt lat="48.85344" lon="2.29762">
        <ele>46.400001525879</ele>
        <time>2016-02-01T19:41:18.000Z</time>
      </trkpt>
      <trkpt lat="48.85345" lon="2.29741">
        <ele>46.599998474121</ele>
        <time>2016-02-01T19:41:23.000Z</time>
      </trkpt>
      <trkpt lat="48.85327" lon="2.29727">
        <ele>44.400001525879</ele>
        <time>2016-02-01T19:41:29.000Z</time>
      </trkpt>
      <trkpt lat="48.85309" lon="2.29717">
        <ele>42.200000762939</ele>
        <time>2016-02-01T19:41:36.000Z</time>
      </trkpt>
      <trkpt lat="48.85293" lon="2.29702">
        <ele>40.200000762939</ele>
        <time>2016-02-01T19:41:45.000Z</time>
      </trkpt>
      <trkpt lat="48.85275" lon="2.29692">
        <ele>38</ele>
        <time>2016-02-01T19:41:51.000Z</time>
      </trkpt>
      <trkpt lat="48.85256" lon="2.29681">
        <ele>38.200000762939</ele>
        <time>2016-02-01T19:41:57.000Z</time>
      </trkpt>
      <trkpt lat="48.85242" lon="2.29664">
        <ele>38.799999237061</ele>
        <time>2016-02-01T19:42:03.000Z</time>
      </trkpt>
      <trkpt lat="48.85224" lon="2.29649">
        <ele>39.599998474121</ele>
        <time>2016-02-01T19:42:10.000Z</time>
      </trkpt>
      <trkpt lat="48.85205" lon="2.2963">
        <ele>40.799999237061</ele>
        <time>2016-02-01T19:42:14.000Z</time>
      </trkpt>
      <trkpt lat="48.85187" lon="2.2961">
        <ele>41.799999237061</ele>
        <time>2016-02-01T19:42:18.000Z</time>
      </trkpt>
      <trkpt lat="48.85169" lon="2.29592">
        <ele>42</ele>
        <time>2016-02-01T19:42:23.000Z</time>
      </trkpt>
      <trkpt lat="48.85156" lon="2.29572">
        <ele>42.200000762939</ele>
        <time>2016-02-01T19:42:29.000Z</time>
      </trkpt>
      <trkpt lat="48.85143" lon="2.29552">
        <ele>41.799999237061</ele>
        <time>2016-02-01T19:42:36.000Z</time>
      </trkpt>
      <trkpt lat="48.85129" lon="2.2953">
        <ele>41.599998474121</ele>
        <time>2016-02-01T19:42:43.000Z</time>
      </trkpt>
      <trkpt lat="48.85118" lon="2.29506">
        <ele>41.200000762939</ele>
        <time>2016-02-01T19:42:52.000Z</time>
      </trkpt>
      <trkpt lat="48.85106" lon="2.29481">
        <ele>41.400001525879</ele>
        <time>2016-02-01T19:43:02.000Z</time>
      </trkpt>
      <trkpt lat="48.85091" lon="2.29465">
        <ele>41.400001525879</ele>
        <time>2016-02-01T19:43:07.000Z</time>
      </trkpt>
      <trkpt lat="48.85075" lon="2.2945">
        <ele>41.400001525879</ele>
        <time>2016-02-01T19:43:12.000Z</time>
      </trkpt>
      <trkpt lat="48.85061" lon="2.29431">
        <ele>41.599998474121</ele>
        <time>2016-02-01T19:43:18.000Z</time>
      </trkpt>
      <trkpt lat="48.8505" lon="2.29418">
        <ele>41.599998474121</ele>
        <time>2016-02-01T19:43:27.000Z</time>
      </trkpt>
      <trkpt lat="48.85055" lon="2.29394">
        <ele>41.599998474121</ele>
        <time>2016-02-01T19:43:41.000Z</time>
      </trkpt>
      <trkpt lat="48.85055" lon="2.29366">
        <ele>41.200000762939</ele>
        <time>2016-02-01T19:43:50.000Z</time>
      </trkpt>
      <trkpt lat="48.85057" lon="2.2935">
        <ele>41</ele>
        <time>2016-02-01T19:43:54.000Z</time>
      </trkpt>
      <trkpt lat="48.85062" lon="2.2933">
        <ele>41</ele>
        <time>2016-02-01T19:44:02.000Z</time>
      </trkpt>
      <trkpt lat="48.85077" lon="2.29308">
        <ele>41</ele>
        <time>2016-02-01T19:44:06.000Z</time>
      </trkpt>
      <trkpt lat="48.85086" lon="2.29282">
        <ele>40.200000762939</ele>
        <time>2016-02-01T19:44:11.000Z</time>
      </trkpt>
      <trkpt lat="48.8509" lon="2.29254">
        <ele>39.200000762939</ele>
        <time>2016-02-01T19:44:18.000Z</time>
      </trkpt>
      <trkpt lat="48.85089" lon="2.29246">
        <ele>39</ele>
        <time>2016-02-01T19:44:21.000Z</time>
      </trkpt>
      <trkpt lat="48.85076" lon="2.29225">
        <ele>39.200000762939</ele>
        <time>2016-02-01T19:44:28.000Z</time>
      </trkpt>
      <trkpt lat="48.85057" lon="2.29213">
        <ele>39.400001525879</ele>
        <time>2016-02-01T19:44:33.000Z</time>
      </trkpt>
      <trkpt lat="48.85039" lon="2.29206">
        <ele>39.400001525879</ele>
        <time>2016-02-01T19:44:37.000Z</time>
      </trkpt>
      <trkpt lat="48.85022" lon="2.29195">
        <ele>39.599998474121</ele>
        <time>2016-02-01T19:44:41.000Z</time>
      </trkpt>
      <trkpt lat="48.85005" lon="2.29184">
        <ele>39.599998474121</ele>
        <time>2016-02-01T19:44:45.000Z</time>
      </trkpt>
      <trkpt lat="48.84983" lon="2.29172">
        <ele>39.400001525879</ele>
        <time>2016-02-01T19:44:50.000Z</time>
      </trkpt>
      <trkpt lat="48.84966" lon="2.29158">
        <ele>39.400001525879</ele>
        <time>2016-02-01T19:44:54.000Z</time>
      </trkpt>
      <trkpt lat="48.84951" lon="2.29145">
        <ele>39.200000762939</ele>
        <time>2016-02-01T19:44:58.000Z</time>
      </trkpt>
      <trkpt lat="48.84933" lon="2.29129">
        <ele>39</ele>
        <time>2016-02-01T19:45:03.000Z</time>
      </trkpt>
      <trkpt lat="48.84915" lon="2.29117">
        <ele>39</ele>
        <time>2016-02-01T19:45:07.000Z</time>
      </trkpt>
      <trkpt lat="48.84898" lon="2.29101">
        <ele>39</ele>
        <time>2016-02-01T19:45:12.000Z</time>
      </trkpt>
      <trkpt lat="48.84882" lon="2.29085">
        <ele>39</ele>
        <time>2016-02-01T19:45:17.000Z</time>
      </trkpt>
      <trkpt lat="48.84865" lon="2.29069">
        <ele>39.400001525879</ele>
        <time>2016-02-01T19:45:22.000Z</time>
      </trkpt>
      <trkpt lat="48.84848" lon="2.29055">
        <ele>39.799999237061</ele>
        <time>2016-02-01T19:45:27.000Z</time>
      </trkpt>
      <trkpt lat="48.8483" lon="2.29044">
        <ele>40.200000762939</ele>
        <time>2016-02-01T19:45:33.000Z</time>
      </trkpt>
      <trkpt lat="48.84814" lon="2.2903">
        <ele>40.799999237061</ele>
        <time>2016-02-01T19:45:38.000Z</time>
      </trkpt>
      <trkpt lat="48.84795" lon="2.29015">
        <ele>41.400001525879</ele>
        <time>2016-02-01T19:45:43.000Z</time>
      </trkpt>
      <trkpt lat="48.84775" lon="2.29003">
        <ele>41.799999237061</ele>
        <time>2016-02-01T19:45:49.000Z</time>
      </trkpt>
      <trkpt lat="48.84756" lon="2.28992">
        <ele>41.799999237061</ele>
        <time>2016-02-01T19:45:54.000Z</time>
      </trkpt>
      <trkpt lat="48.84737" lon="2.28971">
        <ele>41.799999237061</ele>
        <time>2016-02-01T19:45:59.000Z</time>
      </trkpt>
      <trkpt lat="48.8472" lon="2.28948">
        <ele>42</ele>
        <time>2016-02-01T19:46:03.000Z</time>
      </trkpt>
      <trkpt lat="48.84706" lon="2.2893">
        <ele>42</ele>
        <time>2016-02-01T19:46:06.000Z</time>
      </trkpt>
      <trkpt lat="48.84699" lon="2.28919">
        <ele>42</ele>
        <time>2016-02-01T19:46:08.000Z</time>
      </trkpt>
      <trkpt lat="48.84689" lon="2.289">
        <ele>41.799999237061</ele>
        <time>2016-02-01T19:46:11.000Z</time>
      </trkpt>
      <trkpt lat="48.84675" lon="2.28883">
        <ele>41.400001525879</ele>
        <time>2016-02-01T19:46:15.000Z</time>
      </trkpt>
      <trkpt lat="48.8467" lon="2.2888">
        <ele>41.200000762939</ele>
        <time>2016-02-01T19:46:16.000Z</time>
      </trkpt>
      <trkpt lat="48.8466" lon="2.28873">
        <ele>40.799999237061</ele>
        <time>2016-02-01T19:46:18.000Z</time>
      </trkpt>
      <trkpt lat="48.84639" lon="2.28857">
        <ele>40.200000762939</ele>
        <time>2016-02-01T19:46:22.000Z</time>
      </trkpt>
      <trkpt lat="48.84618" lon="2.28842">
        <ele>39.400001525879</ele>
        <time>2016-02-01T19:46:26.000Z</time>
      </trkpt>
      <trkpt lat="48.84598" lon="2.28831">
        <ele>38.799999237061</ele>
        <time>2016-02-01T19:46:30.000Z</time>
      </trkpt>
      <trkpt lat="48.8458" lon="2.28821">
        <ele>38</ele>
        <time>2016-02-01T19:46:34.000Z</time>
      </trkpt>
      <trkpt lat="48.84563" lon="2.28805">
        <ele>37.200000762939</ele>
        <time>2016-02-01T19:46:38.000Z</time>
      </trkpt>
      <trkpt lat="48.84542" lon="2.2879">
        <ele>36.200000762939</ele>
        <time>2016-02-01T19:46:42.000Z</time>
      </trkpt>
      <trkpt lat="48.84521" lon="2.28776">
        <ele>35.400001525879</ele>
        <time>2016-02-01T19:46:46.000Z</time>
      </trkpt>
      <trkpt lat="48.84501" lon="2.28761">
        <ele>35.599998474121</ele>
        <time>2016-02-01T19:46:50.000Z</time>
      </trkpt>
      <trkpt lat="48.84483" lon="2.28747">
        <ele>36</ele>
        <time>2016-02-01T19:46:54.000Z</time>
      </trkpt>
      <trkpt lat="48.8447" lon="2.28738">
        <ele>36.400001525879</ele>
        <time>2016-02-01T19:46:57.000Z</time>
      </trkpt>
      <trkpt lat="48.84453" lon="2.2872">
        <ele>37</ele>
        <time>2016-02-01T19:47:01.000Z</time>
      </trkpt>
      <trkpt lat="48.84435" lon="2.28702">
        <ele>37.400001525879</ele>
        <time>2016-02-01T19:47:06.000Z</time>
      </trkpt>
      <trkpt lat="48.8443" lon="2.28698">
        <ele>37.400001525879</ele>
        <time>2016-02-01T19:47:07.000Z</time>
      </trkpt>
      <trkpt lat="48.84412" lon="2.28681">
        <ele>37.200000762939</ele>
        <time>2016-02-01T19:47:11.000Z</time>
      </trkpt>
      <trkpt lat="48.84396" lon="2.28668">
        <ele>37</ele>
        <time>2016-02-01T19:47:14.000Z</time>
      </trkpt>
      <trkpt lat="48.84388" lon="2.28661">
        <ele>36.799999237061</ele>
        <time>2016-02-01T19:47:16.000Z</time>
      </trkpt>
      <trkpt lat="48.8437" lon="2.28647">
        <ele>36</ele>
        <time>2016-02-01T19:47:20.000Z</time>
      </trkpt>
      <trkpt lat="48.84365" lon="2.28644">
        <ele>35.799999237061</ele>
        <time>2016-02-01T19:47:21.000Z</time>
      </trkpt>
      <trkpt lat="48.84347" lon="2.28633">
        <ele>36</ele>
        <time>2016-02-01T19:47:26.000Z</time>
      </trkpt>
      <trkpt lat="48.84344" lon="2.2863">
        <ele>36</ele>
        <time>2016-02-01T19:47:27.000Z</time>
      </trkpt>
      <trkpt lat="48.84337" lon="2.28626">
        <ele>36.400001525879</ele>
        <time>2016-02-01T19:47:29.000Z</time>
      </trkpt>
      <trkpt lat="48.8433" lon="2.28622">
        <ele>36.799999237061</ele>
        <time>2016-02-01T19:47:31.000Z</time>
      </trkpt>
      <trkpt lat="48.84323" lon="2.28616">
        <ele>37.200000762939</ele>
        <time>2016-02-01T19:47:33.000Z</time>
      </trkpt>
      <trkpt lat="48.84316" lon="2.28612">
        <ele>37.599998474121</ele>
        <time>2016-02-01T19:47:35.000Z</time>
      </trkpt>
      <trkpt lat="48.84304" lon="2.28604">
        <ele>38.400001525879</ele>
        <time>2016-02-01T19:47:39.000Z</time>
      </trkpt>
      <trkpt lat="48.84288" lon="2.28599">
        <ele>39.200000762939</ele>
        <time>2016-02-01T19:47:43.000Z</time>
      </trkpt>
      <trkpt lat="48.8427" lon="2.28586">
        <ele>40</ele>
        <time>2016-02-01T19:47:48.000Z</time>
      </trkpt>
      <trkpt lat="48.84264" lon="2.28585">
        <ele>40</ele>
        <time>2016-02-01T19:47:49.000Z</time>
      </trkpt>
      <trkpt lat="48.84247" lon="2.28577">
        <ele>39.599998474121</ele>
        <time>2016-02-01T19:47:54.000Z</time>
      </trkpt>
      <trkpt lat="48.8424" lon="2.28568">
        <ele>39.400001525879</ele>
        <time>2016-02-01T19:47:57.000Z</time>
      </trkpt>
      <trkpt lat="48.84233" lon="2.28564">
        <ele>39.200000762939</ele>
        <time>2016-02-01T19:48:01.000Z</time>
      </trkpt>
      <trkpt lat="48.84234" lon="2.28565">
        <ele>39.200000762939</ele>
        <time>2016-02-01T19:48:02.000Z</time>
      </trkpt>
      <trkpt lat="48.84223" lon="2.28551">
        <ele>38.799999237061</ele>
        <time>2016-02-01T19:48:17.000Z</time>
      </trkpt>
      <trkpt lat="48.84204" lon="2.28538">
        <ele>38.200000762939</ele>
        <time>2016-02-01T19:48:21.000Z</time>
      </trkpt>
      <trkpt lat="48.84185" lon="2.28529">
        <ele>37.799999237061</ele>
        <time>2016-02-01T19:48:25.000Z</time>
      </trkpt>
      <trkpt lat="48.84164" lon="2.28517">
        <ele>37.799999237061</ele>
        <time>2016-02-01T19:48:28.000Z</time>
      </trkpt>
      <trkpt lat="48.84144" lon="2.28502">
        <ele>37.599998474121</ele>
        <time>2016-02-01T19:48:32.000Z</time>
      </trkpt>
      <trkpt lat="48.84125" lon="2.28484">
        <ele>37.599998474121</ele>
        <time>2016-02-01T19:48:36.000Z</time>
      </trkpt>
      <trkpt lat="48.84108" lon="2.28466">
        <ele>37.599998474121</ele>
        <time>2016-02-01T19:48:40.000Z</time>
      </trkpt>
      <trkpt lat="48.84092" lon="2.28449">
        <ele>38.400001525879</ele>
        <time>2016-02-01T19:48:44.000Z</time>
      </trkpt>
      <trkpt lat="48.84077" lon="2.2843">
        <ele>39.200000762939</ele>
        <time>2016-02-01T19:48:50.000Z</time>
      </trkpt>
      <trkpt lat="48.84074" lon="2.28426">
        <ele>39.400001525879</ele>
        <time>2016-02-01T19:48:51.000Z</time>
      </trkpt>
      <trkpt lat="48.84064" lon="2.28411">
        <ele>40</ele>
        <time>2016-02-01T19:48:55.000Z</time>
      </trkpt>
      <trkpt lat="48.84051" lon="2.28392">
        <ele>41.200000762939</ele>
        <time>2016-02-01T19:48:59.000Z</time>
      </trkpt>
      <trkpt lat="48.84033" lon="2.28373">
        <ele>42.799999237061</ele>
        <time>2016-02-01T19:49:03.000Z</time>
      </trkpt>
      <trkpt lat="48.84028" lon="2.28367">
        <ele>43.200000762939</ele>
        <time>2016-02-01T19:49:04.000Z</time>
      </trkpt>
      <trkpt lat="48.84012" lon="2.28346">
        <ele>43.599998474121</ele>
        <time>2016-02-01T19:49:07.000Z</time>
      </trkpt>
      <trkpt lat="48.83993" lon="2.28326">
        <ele>43.599998474121</ele>
        <time>2016-02-01T19:49:10.000Z</time>
      </trkpt>
      <trkpt lat="48.83974" lon="2.28306">
        <ele>42.799999237061</ele>
        <time>2016-02-01T19:49:13.000Z</time>
      </trkpt>
      <trkpt lat="48.83955" lon="2.28286">
        <ele>42.200000762939</ele>
        <time>2016-02-01T19:49:16.000Z</time>
      </trkpt>
      <trkpt lat="48.83937" lon="2.28268">
        <ele>41.400001525879</ele>
        <time>2016-02-01T19:49:19.000Z</time>
      </trkpt>
      <trkpt lat="48.83919" lon="2.28249">
        <ele>40</ele>
        <time>2016-02-01T19:49:23.000Z</time>
      </trkpt>
      <trkpt lat="48.83906" lon="2.28235">
        <ele>39.400001525879</ele>
        <time>2016-02-01T19:49:26.000Z</time>
      </trkpt>
      <trkpt lat="48.83889" lon="2.28216">
        <ele>38.599998474121</ele>
        <time>2016-02-01T19:49:31.000Z</time>
      </trkpt>
      <trkpt lat="48.83883" lon="2.28213">
        <ele>38.400001525879</ele>
        <time>2016-02-01T19:49:33.000Z</time>
      </trkpt>
      <trkpt lat="48.83877" lon="2.28211">
        <ele>38</ele>
        <time>2016-02-01T19:49:37.000Z</time>
      </trkpt>
      <trkpt lat="48.83881" lon="2.28208">
        <ele>38.200000762939</ele>
        <time>2016-02-01T19:49:45.000Z</time>
      </trkpt>
      <trkpt lat="48.8387" lon="2.28182">
        <ele>37.799999237061</ele>
        <time>2016-02-01T19:49:53.000Z</time>
      </trkpt>
      <trkpt lat="48.83855" lon="2.28155">
        <ele>36.799999237061</ele>
        <time>2016-02-01T19:49:58.000Z</time>
      </trkpt>
      <trkpt lat="48.83853" lon="2.28149">
        <ele>36.799999237061</ele>
        <time>2016-02-01T19:49:59.000Z</time>
      </trkpt>
      <trkpt lat="48.83839" lon="2.28128">
        <ele>37</ele>
        <time>2016-02-01T19:50:03.000Z</time>
      </trkpt>
      <trkpt lat="48.83828" lon="2.28106">
        <ele>37</ele>
        <time>2016-02-01T19:50:06.000Z</time>
      </trkpt>
      <trkpt lat="48.83822" lon="2.2809">
        <ele>36.799999237061</ele>
        <time>2016-02-01T19:50:08.000Z</time>
      </trkpt>
      <trkpt lat="48.83812" lon="2.28063">
        <ele>37.400001525879</ele>
        <time>2016-02-01T19:50:11.000Z</time>
      </trkpt>
      <trkpt lat="48.83796" lon="2.28033">
        <ele>38.400001525879</ele>
        <time>2016-02-01T19:50:15.000Z</time>
      </trkpt>
      <trkpt lat="48.83779" lon="2.28014">
        <ele>39.400001525879</ele>
        <time>2016-02-01T19:50:18.000Z</time>
      </trkpt>
      <trkpt lat="48.83763" lon="2.27994">
        <ele>40.400001525879</ele>
        <time>2016-02-01T19:50:21.000Z</time>
      </trkpt>
      <trkpt lat="48.83747" lon="2.27973">
        <ele>40.400001525879</ele>
        <time>2016-02-01T19:50:24.000Z</time>
      </trkpt>
      <trkpt lat="48.83735" lon="2.27952">
        <ele>40.400001525879</ele>
        <time>2016-02-01T19:50:27.000Z</time>
      </trkpt>
      <trkpt lat="48.83719" lon="2.27929">
        <ele>40.400001525879</ele>
        <time>2016-02-01T19:50:31.000Z</time>
      </trkpt>
      <trkpt lat="48.83713" lon="2.27923">
        <ele>40.599998474121</ele>
        <time>2016-02-01T19:50:32.000Z</time>
      </trkpt>
      <trkpt lat="48.83698" lon="2.27906">
        <ele>40.599998474121</ele>
        <time>2016-02-01T19:50:36.000Z</time>
      </trkpt>
      <trkpt lat="48.83696" lon="2.27901">
        <ele>40.400001525879</ele>
        <time>2016-02-01T19:50:37.000Z</time>
      </trkpt>
      <trkpt lat="48.83689" lon="2.27881">
        <ele>39.799999237061</ele>
        <time>2016-02-01T19:50:41.000Z</time>
      </trkpt>
      <trkpt lat="48.83687" lon="2.27873">
        <ele>39.400001525879</ele>
        <time>2016-02-01T19:50:43.000Z</time>
      </trkpt>
      <trkpt lat="48.83685" lon="2.27867">
        <ele>39.200000762939</ele>
        <time>2016-02-01T19:50:45.000Z</time>
      </trkpt>
      <trkpt lat="48.83675" lon="2.27854">
        <ele>38.400001525879</ele>
        <time>2016-02-01T19:50:51.000Z</time>
      </trkpt>
      <trkpt lat="48.83654" lon="2.27847">
        <ele>37.400001525879</ele>
        <time>2016-02-01T19:50:58.000Z</time>
      </trkpt>
      <trkpt lat="48.83636" lon="2.27832">
        <ele>36.200000762939</ele>
        <time>2016-02-01T19:51:03.000Z</time>
      </trkpt>
      <trkpt lat="48.83619" lon="2.27818">
        <ele>35.400001525879</ele>
        <time>2016-02-01T19:51:09.000Z</time>
      </trkpt>
      <trkpt lat="48.83602" lon="2.27806">
        <ele>34.599998474121</ele>
        <time>2016-02-01T19:51:15.000Z</time>
      </trkpt>
      <trkpt lat="48.83583" lon="2.27802">
        <ele>34.200000762939</ele>
        <time>2016-02-01T19:51:21.000Z</time>
      </trkpt>
      <trkpt lat="48.83563" lon="2.27794">
        <ele>33.599998474121</ele>
        <time>2016-02-01T19:51:26.000Z</time>
      </trkpt>
      <trkpt lat="48.83544" lon="2.27784">
        <ele>33</ele>
        <time>2016-02-01T19:51:30.000Z</time>
      </trkpt>
      <trkpt lat="48.83525" lon="2.27773">
        <ele>32.400001525879</ele>
        <time>2016-02-01T19:51:34.000Z</time>
      </trkpt>
      <trkpt lat="48.83503" lon="2.27764">
        <ele>32.599998474121</ele>
        <time>2016-02-01T19:51:38.000Z</time>
      </trkpt>
      <trkpt lat="48.83482" lon="2.27755">
        <ele>33</ele>
        <time>2016-02-01T19:51:42.000Z</time>
      </trkpt>
      <trkpt lat="48.83461" lon="2.27748">
        <ele>33.400001525879</ele>
        <time>2016-02-01T19:51:46.000Z</time>
      </trkpt>
      <trkpt lat="48.83448" lon="2.27742">
        <ele>33.799999237061</ele>
        <time>2016-02-01T19:51:49.000Z</time>
      </trkpt>
      <trkpt lat="48.83431" lon="2.27732">
        <ele>34</ele>
        <time>2016-02-01T19:51:53.000Z</time>
      </trkpt>
      <trkpt lat="48.83421" lon="2.27723">
        <ele>33.799999237061</ele>
        <time>2016-02-01T19:51:56.000Z</time>
      </trkpt>
      <trkpt lat="48.83413" lon="2.27714">
        <ele>33.599998474121</ele>
        <time>2016-02-01T19:52:00.000Z</time>
      </trkpt>
      <trkpt lat="48.83405" lon="2.27705">
        <ele>33.599998474121</ele>
        <time>2016-02-01T19:52:03.000Z</time>
      </trkpt>
      <trkpt lat="48.83396" lon="2.27701">
        <ele>33.400001525879</ele>
        <time>2016-02-01T19:52:06.000Z</time>
      </trkpt>
      <trkpt lat="48.83379" lon="2.27695">
        <ele>33.599998474121</ele>
        <time>2016-02-01T19:52:12.000Z</time>
      </trkpt>
      <trkpt lat="48.83375" lon="2.27692">
        <ele>33.599998474121</ele>
        <time>2016-02-01T19:52:14.000Z</time>
      </trkpt>
      <trkpt lat="48.83368" lon="2.27666">
        <ele>33.200000762939</ele>
        <time>2016-02-01T19:52:43.000Z</time>
      </trkpt>
      <trkpt lat="48.83366" lon="2.27653">
        <ele>32.599998474121</ele>
        <time>2016-02-01T19:52:50.000Z</time>
      </trkpt>
      <trkpt lat="48.83355" lon="2.27632">
        <ele>31.60000038147</ele>
        <time>2016-02-01T19:52:58.000Z</time>
      </trkpt>
      <trkpt lat="48.83345" lon="2.27619">
        <ele>31.39999961853</ele>
        <time>2016-02-01T19:53:03.000Z</time>
      </trkpt>
      <trkpt lat="48.83328" lon="2.27631">
        <ele>32.799999237061</ele>
        <time>2016-02-01T19:53:10.000Z</time>
      </trkpt>
      <trkpt lat="48.83325" lon="2.27638">
        <ele>33.200000762939</ele>
        <time>2016-02-01T19:53:12.000Z</time>
      </trkpt>
      <trkpt lat="48.83313" lon="2.2766">
        <ele>35.400001525879</ele>
        <time>2016-02-01T19:53:24.000Z</time>
      </trkpt>
      <trkpt lat="48.83312" lon="2.27662">
        <ele>35.599998474121</ele>
        <time>2016-02-01T19:53:26.000Z</time>
      </trkpt>
      <trkpt lat="48.83293" lon="2.27649">
        <ele>35.799999237061</ele>
        <time>2016-02-01T19:53:43.000Z</time>
      </trkpt>
      <trkpt lat="48.83274" lon="2.27631">
        <ele>36</ele>
        <time>2016-02-01T19:53:52.000Z</time>
      </trkpt>
      <trkpt lat="48.83264" lon="2.27608">
        <ele>35.400001525879</ele>
        <time>2016-02-01T19:54:00.000Z</time>
      </trkpt>
      <trkpt lat="48.83269" lon="2.2758">
        <ele>33.200000762939</ele>
        <time>2016-02-01T19:54:08.000Z</time>
      </trkpt>
      <trkpt lat="48.83269" lon="2.27545">
        <ele>33.200000762939</ele>
        <time>2016-02-01T19:54:17.000Z</time>
      </trkpt>
      <trkpt lat="48.83265" lon="2.27519">
        <ele>33.400001525879</ele>
        <time>2016-02-01T19:54:22.000Z</time>
      </trkpt>
      <trkpt lat="48.83253" lon="2.27496">
        <ele>33.799999237061</ele>
        <time>2016-02-01T19:54:27.000Z</time>
      </trkpt>
      <trkpt lat="48.83241" lon="2.27473">
        <ele>33.400001525879</ele>
        <time>2016-02-01T19:54:32.000Z</time>
      </trkpt>
      <trkpt lat="48.83228" lon="2.27448">
        <ele>32.799999237061</ele>
        <time>2016-02-01T19:54:37.000Z</time>
      </trkpt>
      <trkpt lat="48.83219" lon="2.27417">
        <ele>32.400001525879</ele>
        <time>2016-02-01T19:54:42.000Z</time>
      </trkpt>
      <trkpt lat="48.83215" lon="2.27391">
        <ele>31.799999237061</ele>
        <time>2016-02-01T19:54:46.000Z</time>
      </trkpt>
      <trkpt lat="48.83212" lon="2.27363">
        <ele>31.200000762939</ele>
        <time>2016-02-01T19:54:50.000Z</time>
      </trkpt>
      <trkpt lat="48.83213" lon="2.27334">
        <ele>31.39999961853</ele>
        <time>2016-02-01T19:54:54.000Z</time>
      </trkpt>
      <trkpt lat="48.83215" lon="2.27313">
        <ele>32.200000762939</ele>
        <time>2016-02-01T19:54:57.000Z</time>
      </trkpt>
      <trkpt lat="48.83218" lon="2.27299">
        <ele>32.799999237061</ele>
        <time>2016-02-01T19:54:59.000Z</time>
      </trkpt>
      <trkpt lat="48.83222" lon="2.27268">
        <ele>34.200000762939</ele>
        <time>2016-02-01T19:55:03.000Z</time>
      </trkpt>
      <trkpt lat="48.83225" lon="2.27237">
        <ele>35</ele>
        <time>2016-02-01T19:55:07.000Z</time>
      </trkpt>
      <trkpt lat="48.83225" lon="2.27222">
        <ele>34.799999237061</ele>
        <time>2016-02-01T19:55:09.000Z</time>
      </trkpt>
      <trkpt lat="48.83222" lon="2.27192">
        <ele>33.799999237061</ele>
        <time>2016-02-01T19:55:13.000Z</time>
      </trkpt>
      <trkpt lat="48.8322" lon="2.27184">
        <ele>33.599998474121</ele>
        <time>2016-02-01T19:55:14.000Z</time>
      </trkpt>
      <trkpt lat="48.83214" lon="2.27165">
        <ele>32.599998474121</ele>
        <time>2016-02-01T19:55:17.000Z</time>
      </trkpt>
      <trkpt lat="48.83203" lon="2.27139">
        <ele>33.200000762939</ele>
        <time>2016-02-01T19:55:21.000Z</time>
      </trkpt>
      <trkpt lat="48.83194" lon="2.27111">
        <ele>34</ele>
        <time>2016-02-01T19:55:25.000Z</time>
      </trkpt>
      <trkpt lat="48.83192" lon="2.27097">
        <ele>34.400001525879</ele>
        <time>2016-02-01T19:55:27.000Z</time>
      </trkpt>
      <trkpt lat="48.83191" lon="2.27067">
        <ele>35</ele>
        <time>2016-02-01T19:55:31.000Z</time>
      </trkpt>
      <trkpt lat="48.83187" lon="2.27036">
        <ele>35</ele>
        <time>2016-02-01T19:55:36.000Z</time>
      </trkpt>
      <trkpt lat="48.83183" lon="2.27014">
        <ele>35</ele>
        <time>2016-02-01T19:55:40.000Z</time>
      </trkpt>
      <trkpt lat="48.83174" lon="2.26994">
        <ele>35</ele>
        <time>2016-02-01T19:55:44.000Z</time>
      </trkpt>
      <trkpt lat="48.83165" lon="2.26979">
        <ele>34.799999237061</ele>
        <time>2016-02-01T19:55:47.000Z</time>
      </trkpt>
      <trkpt lat="48.83147" lon="2.2696">
        <ele>34.599998474121</ele>
        <time>2016-02-01T19:55:52.000Z</time>
      </trkpt>
      <trkpt lat="48.83138" lon="2.26951">
        <ele>34.400001525879</ele>
        <time>2016-02-01T19:55:55.000Z</time>
      </trkpt>
      <trkpt lat="48.83125" lon="2.26947">
        <ele>34.400001525879</ele>
        <time>2016-02-01T19:56:22.000Z</time>
      </trkpt>
      <trkpt lat="48.83106" lon="2.26944">
        <ele>34.400001525879</ele>
        <time>2016-02-01T19:56:28.000Z</time>
      </trkpt>
      <trkpt lat="48.83085" lon="2.26943">
        <ele>33.799999237061</ele>
        <time>2016-02-01T19:56:34.000Z</time>
      </trkpt>
      <trkpt lat="48.83064" lon="2.26947">
        <ele>33.400001525879</ele>
        <time>2016-02-01T19:56:40.000Z</time>
      </trkpt>
      <trkpt lat="48.83044" lon="2.26957">
        <ele>32.599998474121</ele>
        <time>2016-02-01T19:56:46.000Z</time>
      </trkpt>
      <trkpt lat="48.83026" lon="2.26971">
        <ele>31.39999961853</ele>
        <time>2016-02-01T19:56:51.000Z</time>
      </trkpt>
      <trkpt lat="48.83007" lon="2.2699">
        <ele>31.39999961853</ele>
        <time>2016-02-01T19:56:56.000Z</time>
      </trkpt>
      <trkpt lat="48.82989" lon="2.27001">
        <ele>31.799999237061</ele>
        <time>2016-02-01T19:57:01.000Z</time>
      </trkpt>
      <trkpt lat="48.82967" lon="2.27">
        <ele>32.400001525879</ele>
        <time>2016-02-01T19:57:06.000Z</time>
      </trkpt>
      <trkpt lat="48.82946" lon="2.26991">
        <ele>32.799999237061</ele>
        <time>2016-02-01T19:57:10.000Z</time>
      </trkpt>
      <trkpt lat="48.82936" lon="2.26984">
        <ele>33</ele>
        <time>2016-02-01T19:57:12.000Z</time>
      </trkpt>
      <trkpt lat="48.82917" lon="2.26971">
        <ele>32.200000762939</ele>
        <time>2016-02-01T19:57:16.000Z</time>
      </trkpt>
      <trkpt lat="48.82898" lon="2.26954">
        <ele>31.60000038147</ele>
        <time>2016-02-01T19:57:20.000Z</time>
      </trkpt>
      <trkpt lat="48.82881" lon="2.26934">
        <ele>31</ele>
        <time>2016-02-01T19:57:24.000Z</time>
      </trkpt>
      <trkpt lat="48.82863" lon="2.26911">
        <ele>30.39999961853</ele>
        <time>2016-02-01T19:57:28.000Z</time>
      </trkpt>
      <trkpt lat="48.82851" lon="2.2689">
        <ele>30.200000762939</ele>
        <time>2016-02-01T19:57:32.000Z</time>
      </trkpt>
      <trkpt lat="48.82839" lon="2.26862">
        <ele>30.200000762939</ele>
        <time>2016-02-01T19:57:37.000Z</time>
      </trkpt>
      <trkpt lat="48.82827" lon="2.26843">
        <ele>30.200000762939</ele>
        <time>2016-02-01T19:57:40.000Z</time>
      </trkpt>
      <trkpt lat="48.82819" lon="2.26836">
        <ele>30</ele>
        <time>2016-02-01T19:57:43.000Z</time>
      </trkpt>
      <trkpt lat="48.82817" lon="2.26835">
        <ele>30</ele>
        <time>2016-02-01T19:57:45.000Z</time>
      </trkpt>
      <trkpt lat="48.82812" lon="2.26832">
        <ele>30</ele>
        <time>2016-02-01T19:57:49.000Z</time>
      </trkpt>
      <trkpt lat="48.82798" lon="2.26825">
        <ele>29.60000038147</ele>
        <time>2016-02-01T19:58:21.000Z</time>
      </trkpt>
      <trkpt lat="48.82794" lon="2.26795">
        <ele>30</ele>
        <time>2016-02-01T19:58:28.000Z</time>
      </trkpt>
      <trkpt lat="48.82792" lon="2.26767">
        <ele>30.200000762939</ele>
        <time>2016-02-01T19:58:32.000Z</time>
      </trkpt>
      <trkpt lat="48.82785" lon="2.26743">
        <ele>30.39999961853</ele>
        <time>2016-02-01T19:58:38.000Z</time>
      </trkpt>
      <trkpt lat="48.82766" lon="2.26753">
        <ele>30</ele>
        <time>2016-02-01T19:58:46.000Z</time>
      </trkpt>
      <trkpt lat="48.82748" lon="2.26757">
        <ele>30.39999961853</ele>
        <time>2016-02-01T19:58:50.000Z</time>
      </trkpt>
      <trkpt lat="48.82727" lon="2.2676">
        <ele>31</ele>
        <time>2016-02-01T19:58:53.000Z</time>
      </trkpt>
      <trkpt lat="48.82706" lon="2.26761">
        <ele>31.39999961853</ele>
        <time>2016-02-01T19:58:58.000Z</time>
      </trkpt>
      <trkpt lat="48.82686" lon="2.26762">
        <ele>31.39999961853</ele>
        <time>2016-02-01T19:59:01.000Z</time>
      </trkpt>
      <trkpt lat="48.82662" lon="2.26766">
        <ele>31</ele>
        <time>2016-02-01T19:59:06.000Z</time>
      </trkpt>
      <trkpt lat="48.82639" lon="2.26768">
        <ele>30.60000038147</ele>
        <time>2016-02-01T19:59:11.000Z</time>
      </trkpt>
      <trkpt lat="48.82626" lon="2.26768">
        <ele>30.60000038147</ele>
        <time>2016-02-01T19:59:12.000Z</time>
      </trkpt>
      <trkpt lat="48.82602" lon="2.2677">
        <ele>31</ele>
        <time>2016-02-01T19:59:17.000Z</time>
      </trkpt>
      <trkpt lat="48.82579" lon="2.26777">
        <ele>31.39999961853</ele>
        <time>2016-02-01T19:59:21.000Z</time>
      </trkpt>
      <trkpt lat="48.82564" lon="2.26775">
        <ele>31.60000038147</ele>
        <time>2016-02-01T19:59:24.000Z</time>
      </trkpt>
      <trkpt lat="48.82544" lon="2.26775">
        <ele>31.799999237061</ele>
        <time>2016-02-01T19:59:28.000Z</time>
      </trkpt>
      <trkpt lat="48.82542" lon="2.26775">
        <ele>31.799999237061</ele>
        <time>2016-02-01T19:59:29.000Z</time>
      </trkpt>
      <trkpt lat="48.82533" lon="2.26773">
        <ele>32</ele>
        <time>2016-02-01T19:59:32.000Z</time>
      </trkpt>
      <trkpt lat="48.82521" lon="2.26748">
        <ele>32</ele>
        <time>2016-02-01T19:59:38.000Z</time>
      </trkpt>
      <trkpt lat="48.8252" lon="2.26743">
        <ele>32</ele>
        <time>2016-02-01T19:59:39.000Z</time>
      </trkpt>
      <trkpt lat="48.82514" lon="2.26714">
        <ele>32</ele>
        <time>2016-02-01T19:59:44.000Z</time>
      </trkpt>
      <trkpt lat="48.82508" lon="2.26688">
        <ele>32</ele>
        <time>2016-02-01T19:59:48.000Z</time>
      </trkpt>
      <trkpt lat="48.82501" lon="2.26657">
        <ele>32</ele>
        <time>2016-02-01T19:59:52.000Z</time>
      </trkpt>
      <trkpt lat="48.82494" lon="2.26624">
        <ele>32.599998474121</ele>
        <time>2016-02-01T19:59:56.000Z</time>
      </trkpt>
      <trkpt lat="48.82489" lon="2.2659">
        <ele>33.400001525879</ele>
        <time>2016-02-01T20:00:00.000Z</time>
      </trkpt>
      <trkpt lat="48.82484" lon="2.2656">
        <ele>33.400001525879</ele>
        <time>2016-02-01T20:00:04.000Z</time>
      </trkpt>
      <trkpt lat="48.8248" lon="2.26532">
        <ele>33</ele>
        <time>2016-02-01T20:00:08.000Z</time>
      </trkpt>
      <trkpt lat="48.82475" lon="2.26499">
        <ele>32.400001525879</ele>
        <time>2016-02-01T20:00:12.000Z</time>
      </trkpt>
      <trkpt lat="48.82468" lon="2.26471">
        <ele>32</ele>
        <time>2016-02-01T20:00:16.000Z</time>
      </trkpt>
      <trkpt lat="48.8246" lon="2.26442">
        <ele>31.60000038147</ele>
        <time>2016-02-01T20:00:20.000Z</time>
      </trkpt>
      <trkpt lat="48.82457" lon="2.26434">
        <ele>31.39999961853</ele>
        <time>2016-02-01T20:00:21.000Z</time>
      </trkpt>
      <trkpt lat="48.82446" lon="2.26401">
        <ele>31.39999961853</ele>
        <time>2016-02-01T20:00:25.000Z</time>
      </trkpt>
      <trkpt lat="48.82444" lon="2.26383">
        <ele>32</ele>
        <time>2016-02-01T20:00:27.000Z</time>
      </trkpt>
      <trkpt lat="48.82442" lon="2.26361">
        <ele>32.799999237061</ele>
        <time>2016-02-01T20:00:30.000Z</time>
      </trkpt>
      <trkpt lat="48.82437" lon="2.26329">
        <ele>34.200000762939</ele>
        <time>2016-02-01T20:00:34.000Z</time>
      </trkpt>
      <trkpt lat="48.82429" lon="2.26301">
        <ele>34.200000762939</ele>
        <time>2016-02-01T20:00:37.000Z</time>
      </trkpt>
      <trkpt lat="48.82423" lon="2.26286">
        <ele>34.200000762939</ele>
        <time>2016-02-01T20:00:39.000Z</time>
      </trkpt>
      <trkpt lat="48.82419" lon="2.26256">
        <ele>34.200000762939</ele>
        <time>2016-02-01T20:00:44.000Z</time>
      </trkpt>
      <trkpt lat="48.8242" lon="2.26234">
        <ele>34.599998474121</ele>
        <time>2016-02-01T20:00:49.000Z</time>
      </trkpt>
      <trkpt lat="48.8242" lon="2.26231">
        <ele>34.599998474121</ele>
        <time>2016-02-01T20:00:50.000Z</time>
      </trkpt>
      <trkpt lat="48.82415" lon="2.26225">
        <ele>34.799999237061</ele>
        <time>2016-02-01T20:00:56.000Z</time>
      </trkpt>
      <trkpt lat="48.82412" lon="2.26227">
        <ele>34.799999237061</ele>
        <time>2016-02-01T20:00:57.000Z</time>
      </trkpt>
      <trkpt lat="48.82392" lon="2.26239">
        <ele>34.799999237061</ele>
        <time>2016-02-01T20:01:04.000Z</time>
      </trkpt>
      <trkpt lat="48.82381" lon="2.26237">
        <ele>34.799999237061</ele>
        <time>2016-02-01T20:01:06.000Z</time>
      </trkpt>
      <trkpt lat="48.82376" lon="2.26236">
        <ele>35</ele>
        <time>2016-02-01T20:01:07.000Z</time>
      </trkpt>
      <trkpt lat="48.82355" lon="2.26228">
        <ele>35.400001525879</ele>
        <time>2016-02-01T20:01:11.000Z</time>
      </trkpt>
      <trkpt lat="48.82336" lon="2.26221">
        <ele>35.799999237061</ele>
        <time>2016-02-01T20:01:14.000Z</time>
      </trkpt>
      <trkpt lat="48.82311" lon="2.26207">
        <ele>36.599998474121</ele>
        <time>2016-02-01T20:01:18.000Z</time>
      </trkpt>
      <trkpt lat="48.82303" lon="2.26204">
        <ele>36.799999237061</ele>
        <time>2016-02-01T20:01:20.000Z</time>
      </trkpt>
      <trkpt lat="48.82282" lon="2.26199">
        <ele>37.400001525879</ele>
        <time>2016-02-01T20:01:25.000Z</time>
      </trkpt>
      <trkpt lat="48.82274" lon="2.26195">
        <ele>37.599998474121</ele>
        <time>2016-02-01T20:01:27.000Z</time>
      </trkpt>
      <trkpt lat="48.82254" lon="2.26187">
        <ele>38.400001525879</ele>
        <time>2016-02-01T20:01:31.000Z</time>
      </trkpt>
      <trkpt lat="48.82244" lon="2.26183">
        <ele>38.799999237061</ele>
        <time>2016-02-01T20:01:33.000Z</time>
      </trkpt>
      <trkpt lat="48.82224" lon="2.26173">
        <ele>39.599998474121</ele>
        <time>2016-02-01T20:01:37.000Z</time>
      </trkpt>
      <trkpt lat="48.82203" lon="2.26162">
        <ele>40.400001525879</ele>
        <time>2016-02-01T20:01:41.000Z</time>
      </trkpt>
      <trkpt lat="48.82186" lon="2.26152">
        <ele>40.799999237061</ele>
        <time>2016-02-01T20:01:44.000Z</time>
      </trkpt>
      <trkpt lat="48.82168" lon="2.26142">
        <ele>41.599998474121</ele>
        <time>2016-02-01T20:01:47.000Z</time>
      </trkpt>
      <trkpt lat="48.8215" lon="2.26131">
        <ele>42</ele>
        <time>2016-02-01T20:01:50.000Z</time>
      </trkpt>
      <trkpt lat="48.82134" lon="2.26117">
        <ele>42.400001525879</ele>
        <time>2016-02-01T20:01:53.000Z</time>
      </trkpt>
      <trkpt lat="48.82126" lon="2.2609">
        <ele>42.200000762939</ele>
        <time>2016-02-01T20:01:57.000Z</time>
      </trkpt>
      <trkpt lat="48.82116" lon="2.26066">
        <ele>42</ele>
        <time>2016-02-01T20:02:00.000Z</time>
      </trkpt>
      <trkpt lat="48.82105" lon="2.26037">
        <ele>41.400001525879</ele>
        <time>2016-02-01T20:02:05.000Z</time>
      </trkpt>
      <trkpt lat="48.82101" lon="2.26028">
        <ele>41.799999237061</ele>
        <time>2016-02-01T20:02:07.000Z</time>
      </trkpt>
      <trkpt lat="48.82096" lon="2.26016">
        <ele>42</ele>
        <time>2016-02-01T20:02:12.000Z</time>
      </trkpt>
      <trkpt lat="48.82084" lon="2.26023">
        <ele>43.799999237061</ele>
        <time>2016-02-01T20:02:59.000Z</time>
      </trkpt>
      <trkpt lat="48.82073" lon="2.26034">
        <ele>45.799999237061</ele>
        <time>2016-02-01T20:03:07.000Z</time>
      </trkpt>
      <trkpt lat="48.82061" lon="2.26014">
        <ele>46.599998474121</ele>
        <time>2016-02-01T20:03:22.000Z</time>
      </trkpt>
      <trkpt lat="48.82049" lon="2.25991">
        <ele>47.200000762939</ele>
        <time>2016-02-01T20:03:29.000Z</time>
      </trkpt>
      <trkpt lat="48.82036" lon="2.25966">
        <ele>48.400001525879</ele>
        <time>2016-02-01T20:03:36.000Z</time>
      </trkpt>
      <trkpt lat="48.82019" lon="2.25949">
        <ele>50.200000762939</ele>
        <time>2016-02-01T20:03:43.000Z</time>
      </trkpt>
      <trkpt lat="48.82015" lon="2.25946">
        <ele>50.799999237061</ele>
        <time>2016-02-01T20:03:46.000Z</time>
      </trkpt>
      <trkpt lat="48.82003" lon="2.25948">
        <ele>52.599998474121</ele>
        <time>2016-02-01T20:03:54.000Z</time>
      </trkpt>
      <trkpt lat="48.81993" lon="2.25942">
        <ele>54</ele>
        <time>2016-02-01T20:04:28.000Z</time>
      </trkpt>
      <trkpt lat="48.81977" lon="2.25946">
        <ele>56.200000762939</ele>
        <time>2016-02-01T20:04:43.000Z</time>
      </trkpt>
      <trkpt lat="48.81959" lon="2.25955">
        <ele>60.400001525879</ele>
        <time>2016-02-01T20:04:56.000Z</time>
      </trkpt>
      <trkpt lat="48.81942" lon="2.25955">
        <ele>63.799999237061</ele>
        <time>2016-02-01T20:05:33.000Z</time>
      </trkpt>
      <trkpt lat="48.81931" lon="2.25935">
        <ele>65</ele>
        <time>2016-02-01T20:06:36.000Z</time>
      </trkpt>
      <trkpt lat="48.81928" lon="2.25929">
        <ele>65.199996948242</ele>
        <time>2016-02-01T20:06:38.000Z</time>
      </trkpt>
      <trkpt lat="48.81913" lon="2.25908">
        <ele>67.199996948242</ele>
        <time>2016-02-01T20:06:54.000Z</time>
      </trkpt>
      <trkpt lat="48.8191" lon="2.25905">
        <ele>67.800003051758</ele>
        <time>2016-02-01T20:06:58.000Z</time>
      </trkpt>
      <trkpt lat="48.81908" lon="2.25904">
        <ele>68.199996948242</ele>
        <time>2016-02-01T20:07:00.000Z</time>
      </trkpt>
      <trkpt lat="48.81892" lon="2.25902">
        <ele>71.800003051758</ele>
        <time>2016-02-01T20:07:42.000Z</time>
      </trkpt>
      <trkpt lat="48.81898" lon="2.25904">
        <ele>70.800003051758</ele>
        <time>2016-02-01T20:07:51.000Z</time>
      </trkpt>
      <trkpt lat="48.81903" lon="2.25904">
        <ele>69.400001525879</ele>
        <time>2016-02-01T20:07:55.000Z</time>
      </trkpt>
      <trkpt lat="48.8189" lon="2.25916">
        <ele>73.400001525879</ele>
        <time>2016-02-01T20:08:18.000Z</time>
      </trkpt>
      <trkpt lat="48.81887" lon="2.25921">
        <ele>74.800003051758</ele>
        <time>2016-02-01T20:08:23.000Z</time>
      </trkpt>
      <trkpt lat="48.8187" lon="2.25932">
        <ele>79.800003051758</ele>
        <time>2016-02-01T20:08:49.000Z</time>
      </trkpt>
      <trkpt lat="48.81856" lon="2.25925">
        <ele>82.599998474121</ele>
        <time>2016-02-01T20:09:36.000Z</time>
      </trkpt>
      <trkpt lat="48.81857" lon="2.25951">
        <ele>84.199996948242</ele>
        <time>2016-02-01T20:09:55.000Z</time>
      </trkpt>
      <trkpt lat="48.81867" lon="2.25979">
        <ele>84</ele>
        <time>2016-02-01T20:10:04.000Z</time>
      </trkpt>
      <trkpt lat="48.81868" lon="2.26009">
        <ele>86.199996948242</ele>
        <time>2016-02-01T20:10:13.000Z</time>
      </trkpt>
      <trkpt lat="48.81855" lon="2.26031">
        <ele>88.800003051758</ele>
        <time>2016-02-01T20:10:21.000Z</time>
      </trkpt>
      <trkpt lat="48.81837" lon="2.26045">
        <ele>90.599998474121</ele>
        <time>2016-02-01T20:10:27.000Z</time>
      </trkpt>
      <trkpt lat="48.81818" lon="2.26062">
        <ele>92.199996948242</ele>
        <time>2016-02-01T20:10:31.000Z</time>
      </trkpt>
      <trkpt lat="48.81814" lon="2.26067">
        <ele>92.800003051758</ele>
        <time>2016-02-01T20:10:32.000Z</time>
      </trkpt>
      <trkpt lat="48.818" lon="2.2608">
        <ele>94</ele>
        <time>2016-02-01T20:10:35.000Z</time>
      </trkpt>
      <trkpt lat="48.81779" lon="2.26098">
        <ele>94.800003051758</ele>
        <time>2016-02-01T20:10:39.000Z</time>
      </trkpt>
      <trkpt lat="48.81758" lon="2.26115">
        <ele>94</ele>
        <time>2016-02-01T20:10:43.000Z</time>
      </trkpt>
      <trkpt lat="48.81747" lon="2.26122">
        <ele>93.400001525879</ele>
        <time>2016-02-01T20:10:46.000Z</time>
      </trkpt>
      <trkpt lat="48.81735" lon="2.26124">
        <ele>93</ele>
        <time>2016-02-01T20:10:52.000Z</time>
      </trkpt>
      <trkpt lat="48.81732" lon="2.26125">
        <ele>93</ele>
        <time>2016-02-01T20:10:56.000Z</time>
      </trkpt>
      <trkpt lat="48.81736" lon="2.26105">
        <ele>94</ele>
        <time>2016-02-01T20:11:46.000Z</time>
      </trkpt>
      <trkpt lat="48.81754" lon="2.26094">
        <ele>94.800003051758</ele>
        <time>2016-02-01T20:11:55.000Z</time>
      </trkpt>
      <trkpt lat="48.81774" lon="2.26078">
        <ele>95.800003051758</ele>
        <time>2016-02-01T20:12:01.000Z</time>
      </trkpt>
      <trkpt lat="48.81793" lon="2.26063">
        <ele>94</ele>
        <time>2016-02-01T20:12:06.000Z</time>
      </trkpt>
      <trkpt lat="48.81807" lon="2.26054">
        <ele>92.800003051758</ele>
        <time>2016-02-01T20:12:09.000Z</time>
      </trkpt>
      <trkpt lat="48.81822" lon="2.26038">
        <ele>91.400001525879</ele>
        <time>2016-02-01T20:12:15.000Z</time>
      </trkpt>
      <trkpt lat="48.81822" lon="2.26037">
        <ele>91.400001525879</ele>
        <time>2016-02-01T20:12:16.000Z</time>
      </trkpt>
      <trkpt lat="48.81808" lon="2.2606">
        <ele>93</ele>
        <time>2016-02-01T20:12:29.000Z</time>
      </trkpt>
      <trkpt lat="48.81791" lon="2.26076">
        <ele>94.599998474121</ele>
        <time>2016-02-01T20:12:34.000Z</time>
      </trkpt>
      <trkpt lat="48.81774" lon="2.26089">
        <ele>95.400001525879</ele>
        <time>2016-02-01T20:12:37.000Z</time>
      </trkpt>
      <trkpt lat="48.81763" lon="2.26098">
        <ele>94.800003051758</ele>
        <time>2016-02-01T20:12:39.000Z</time>
      </trkpt>
      <trkpt lat="48.81743" lon="2.26113">
        <ele>93.599998474121</ele>
        <time>2016-02-01T20:12:43.000Z</time>
      </trkpt>
      <trkpt lat="48.8173" lon="2.26107">
        <ele>93.599998474121</ele>
        <time>2016-02-01T20:12:54.000Z</time>
      </trkpt>
      <trkpt lat="48.81733" lon="2.26134">
        <ele>92.599998474121</ele>
        <time>2016-02-01T20:13:31.000Z</time>
      </trkpt>
      <trkpt lat="48.81737" lon="2.26162">
        <ele>92</ele>
        <time>2016-02-01T20:13:41.000Z</time>
      </trkpt>
      <trkpt lat="48.81743" lon="2.26188">
        <ele>91.599998474121</ele>
        <time>2016-02-01T20:13:48.000Z</time>
      </trkpt>
      <trkpt lat="48.81751" lon="2.26216">
        <ele>91.400001525879</ele>
        <time>2016-02-01T20:13:54.000Z</time>
      </trkpt>
      <trkpt lat="48.81758" lon="2.26241">
        <ele>91.199996948242</ele>
        <time>2016-02-01T20:13:59.000Z</time>
      </trkpt>
      <trkpt lat="48.81766" lon="2.2627">
        <ele>91.599998474121</ele>
        <time>2016-02-01T20:14:04.000Z</time>
      </trkpt>
      <trkpt lat="48.81776" lon="2.26299">
        <ele>92.199996948242</ele>
        <time>2016-02-01T20:14:09.000Z</time>
      </trkpt>
      <trkpt lat="48.81785" lon="2.26327">
        <ele>92.599998474121</ele>
        <time>2016-02-01T20:14:14.000Z</time>
      </trkpt>
      <trkpt lat="48.81794" lon="2.26352">
        <ele>92</ele>
        <time>2016-02-01T20:14:18.000Z</time>
      </trkpt>
      <trkpt lat="48.81804" lon="2.26378">
        <ele>91.199996948242</ele>
        <time>2016-02-01T20:14:22.000Z</time>
      </trkpt>
      <trkpt lat="48.81815" lon="2.26404">
        <ele>90.599998474121</ele>
        <time>2016-02-01T20:14:26.000Z</time>
      </trkpt>
      <trkpt lat="48.81823" lon="2.26423">
        <ele>90</ele>
        <time>2016-02-01T20:14:29.000Z</time>
      </trkpt>
      <trkpt lat="48.81834" lon="2.26449">
        <ele>89.400001525879</ele>
        <time>2016-02-01T20:14:33.000Z</time>
      </trkpt>
      <trkpt lat="48.8184" lon="2.26475">
        <ele>88.800003051758</ele>
        <time>2016-02-01T20:14:38.000Z</time>
      </trkpt>
      <trkpt lat="48.81841" lon="2.26482">
        <ele>88.599998474121</ele>
        <time>2016-02-01T20:14:40.000Z</time>
      </trkpt>
      <trkpt lat="48.8184" lon="2.2649">
        <ele>88.800003051758</ele>
        <time>2016-02-01T20:14:44.000Z</time>
      </trkpt>
      <trkpt lat="48.81839" lon="2.2649">
        <ele>89</ele>
        <time>2016-02-01T20:14:45.000Z</time>
      </trkpt>
      <trkpt lat="48.81851" lon="2.26481">
        <ele>88.400001525879</ele>
        <time>2016-02-01T20:15:31.000Z</time>
      </trkpt>
      <trkpt lat="48.8187" lon="2.26474">
        <ele>87.400001525879</ele>
        <time>2016-02-01T20:15:37.000Z</time>
      </trkpt>
      <trkpt lat="48.81887" lon="2.26466">
        <ele>86.400001525879</ele>
        <time>2016-02-01T20:15:42.000Z</time>
      </trkpt>
      <trkpt lat="48.81906" lon="2.26455">
        <ele>85.400001525879</ele>
        <time>2016-02-01T20:15:49.000Z</time>
      </trkpt>
      <trkpt lat="48.81924" lon="2.26455">
        <ele>84</ele>
        <time>2016-02-01T20:15:57.000Z</time>
      </trkpt>
      <trkpt lat="48.81931" lon="2.26483">
        <ele>83.599998474121</ele>
        <time>2016-02-01T20:16:03.000Z</time>
      </trkpt>
      <trkpt lat="48.81936" lon="2.26514">
        <ele>83.400001525879</ele>
        <time>2016-02-01T20:16:08.000Z</time>
      </trkpt>
      <trkpt lat="48.81942" lon="2.26544">
        <ele>83.199996948242</ele>
        <time>2016-02-01T20:16:12.000Z</time>
      </trkpt>
      <trkpt lat="48.81947" lon="2.26573">
        <ele>82.800003051758</ele>
        <time>2016-02-01T20:16:16.000Z</time>
      </trkpt>
      <trkpt lat="48.81953" lon="2.266">
        <ele>82.800003051758</ele>
        <time>2016-02-01T20:16:20.000Z</time>
      </trkpt>
      <trkpt lat="48.81956" lon="2.26631">
        <ele>82.199996948242</ele>
        <time>2016-02-01T20:16:24.000Z</time>
      </trkpt>
      <trkpt lat="48.81962" lon="2.26661">
        <ele>81.400001525879</ele>
        <time>2016-02-01T20:16:28.000Z</time>
      </trkpt>
      <trkpt lat="48.81966" lon="2.26683">
        <ele>80.599998474121</ele>
        <time>2016-02-01T20:16:33.000Z</time>
      </trkpt>
      <trkpt lat="48.81966" lon="2.26685">
        <ele>80.400001525879</ele>
        <time>2016-02-01T20:16:35.000Z</time>
      </trkpt>
      <trkpt lat="48.81957" lon="2.26681">
        <ele>81.199996948242</ele>
        <time>2016-02-01T20:16:45.000Z</time>
      </trkpt>
      <trkpt lat="48.81951" lon="2.26708">
        <ele>81.400001525879</ele>
        <time>2016-02-01T20:16:51.000Z</time>
      </trkpt>
      <trkpt lat="48.81949" lon="2.26736">
        <ele>81.199996948242</ele>
        <time>2016-02-01T20:16:55.000Z</time>
      </trkpt>
      <trkpt lat="48.81946" lon="2.26768">
        <ele>81.400001525879</ele>
        <time>2016-02-01T20:16:59.000Z</time>
      </trkpt>
      <trkpt lat="48.81943" lon="2.26801">
        <ele>81.599998474121</ele>
        <time>2016-02-01T20:17:03.000Z</time>
      </trkpt>
      <trkpt lat="48.81941" lon="2.26834">
        <ele>82</ele>
        <time>2016-02-01T20:17:07.000Z</time>
      </trkpt>
      <trkpt lat="48.81939" lon="2.26851">
        <ele>82.199996948242</ele>
        <time>2016-02-01T20:17:09.000Z</time>
      </trkpt>
      <trkpt lat="48.81936" lon="2.26885">
        <ele>82.800003051758</ele>
        <time>2016-02-01T20:17:13.000Z</time>
      </trkpt>
      <trkpt lat="48.81933" lon="2.26919">
        <ele>83.199996948242</ele>
        <time>2016-02-01T20:17:17.000Z</time>
      </trkpt>
      <trkpt lat="48.81929" lon="2.26942">
        <ele>83.400001525879</ele>
        <time>2016-02-01T20:17:20.000Z</time>
      </trkpt>
      <trkpt lat="48.81923" lon="2.26974">
        <ele>83.800003051758</ele>
        <time>2016-02-01T20:17:24.000Z</time>
      </trkpt>
      <trkpt lat="48.8192" lon="2.26982">
        <ele>83.800003051758</ele>
        <time>2016-02-01T20:17:25.000Z</time>
      </trkpt>
      <trkpt lat="48.81913" lon="2.27017">
        <ele>83.400001525879</ele>
        <time>2016-02-01T20:17:29.000Z</time>
      </trkpt>
      <trkpt lat="48.81909" lon="2.27036">
        <ele>83.400001525879</ele>
        <time>2016-02-01T20:17:31.000Z</time>
      </trkpt>
      <trkpt lat="48.81901" lon="2.27063">
        <ele>83.400001525879</ele>
        <time>2016-02-01T20:17:34.000Z</time>
      </trkpt>
      <trkpt lat="48.81891" lon="2.27088">
        <ele>83.599998474121</ele>
        <time>2016-02-01T20:17:37.000Z</time>
      </trkpt>
      <trkpt lat="48.81881" lon="2.27112">
        <ele>83.599998474121</ele>
        <time>2016-02-01T20:17:40.000Z</time>
      </trkpt>
      <trkpt lat="48.8187" lon="2.27137">
        <ele>83.800003051758</ele>
        <time>2016-02-01T20:17:43.000Z</time>
      </trkpt>
      <trkpt lat="48.81857" lon="2.2716">
        <ele>84</ele>
        <time>2016-02-01T20:17:46.000Z</time>
      </trkpt>
      <trkpt lat="48.81844" lon="2.27182">
        <ele>84.599998474121</ele>
        <time>2016-02-01T20:17:50.000Z</time>
      </trkpt>
      <trkpt lat="48.81839" lon="2.27195">
        <ele>84.800003051758</ele>
        <time>2016-02-01T20:17:54.000Z</time>
      </trkpt>
      <trkpt lat="48.81829" lon="2.27218">
        <ele>85.199996948242</ele>
        <time>2016-02-01T20:18:01.000Z</time>
      </trkpt>
      <trkpt lat="48.81825" lon="2.27229">
        <ele>84.599998474121</ele>
        <time>2016-02-01T20:18:05.000Z</time>
      </trkpt>
      <trkpt lat="48.81824" lon="2.27239">
        <ele>84</ele>
        <time>2016-02-01T20:18:08.000Z</time>
      </trkpt>
      <trkpt lat="48.81822" lon="2.27245">
        <ele>83.599998474121</ele>
        <time>2016-02-01T20:18:10.000Z</time>
      </trkpt>
      <trkpt lat="48.81808" lon="2.27261">
        <ele>82.800003051758</ele>
        <time>2016-02-01T20:18:19.000Z</time>
      </trkpt>
      <trkpt lat="48.81807" lon="2.27259">
        <ele>82.800003051758</ele>
        <time>2016-02-01T20:18:20.000Z</time>
      </trkpt>
      <trkpt lat="48.81808" lon="2.2725">
        <ele>83.199996948242</ele>
        <time>2016-02-01T20:18:28.000Z</time>
      </trkpt>
      <trkpt lat="48.81806" lon="2.27256">
        <ele>83</ele>
        <time>2016-02-01T20:18:32.000Z</time>
      </trkpt>
      <trkpt lat="48.81791" lon="2.27276">
        <ele>82.400001525879</ele>
        <time>2016-02-01T20:18:48.000Z</time>
      </trkpt>
      <trkpt lat="48.81778" lon="2.27299">
        <ele>83.400001525879</ele>
        <time>2016-02-01T20:18:53.000Z</time>
      </trkpt>
      <trkpt lat="48.81764" lon="2.27323">
        <ele>84</ele>
        <time>2016-02-01T20:18:58.000Z</time>
      </trkpt>
      <trkpt lat="48.81751" lon="2.27344">
        <ele>83.199996948242</ele>
        <time>2016-02-01T20:19:02.000Z</time>
      </trkpt>
      <trkpt lat="48.81738" lon="2.27366">
        <ele>82.199996948242</ele>
        <time>2016-02-01T20:19:06.000Z</time>
      </trkpt>
      <trkpt lat="48.8173" lon="2.27379">
        <ele>81.599998474121</ele>
        <time>2016-02-01T20:19:09.000Z</time>
      </trkpt>
      <trkpt lat="48.81717" lon="2.27403">
        <ele>80.599998474121</ele>
        <time>2016-02-01T20:19:14.000Z</time>
      </trkpt>
      <trkpt lat="48.81704" lon="2.27425">
        <ele>79.599998474121</ele>
        <time>2016-02-01T20:19:18.000Z</time>
      </trkpt>
      <trkpt lat="48.8169" lon="2.27449">
        <ele>78.599998474121</ele>
        <time>2016-02-01T20:19:22.000Z</time>
      </trkpt>
      <trkpt lat="48.81681" lon="2.27464">
        <ele>78</ele>
        <time>2016-02-01T20:19:25.000Z</time>
      </trkpt>
      <trkpt lat="48.81668" lon="2.27488">
        <ele>76.800003051758</ele>
        <time>2016-02-01T20:19:30.000Z</time>
      </trkpt>
      <trkpt lat="48.81654" lon="2.27513">
        <ele>75.400001525879</ele>
        <time>2016-02-01T20:19:35.000Z</time>
      </trkpt>
      <trkpt lat="48.81642" lon="2.27534">
        <ele>74</ele>
        <time>2016-02-01T20:19:39.000Z</time>
      </trkpt>
      <trkpt lat="48.8163" lon="2.27557">
        <ele>72.599998474121</ele>
        <time>2016-02-01T20:19:44.000Z</time>
      </trkpt>
      <trkpt lat="48.81617" lon="2.27578">
        <ele>71.400001525879</ele>
        <time>2016-02-01T20:19:48.000Z</time>
      </trkpt>
      <trkpt lat="48.81603" lon="2.27601">
        <ele>70.199996948242</ele>
        <time>2016-02-01T20:19:52.000Z</time>
      </trkpt>
      <trkpt lat="48.81587" lon="2.27629">
        <ele>68.800003051758</ele>
        <time>2016-02-01T20:19:56.000Z</time>
      </trkpt>
      <trkpt lat="48.81572" lon="2.27654">
        <ele>67.800003051758</ele>
        <time>2016-02-01T20:20:00.000Z</time>
      </trkpt>
      <trkpt lat="48.81559" lon="2.27676">
        <ele>67.199996948242</ele>
        <time>2016-02-01T20:20:03.000Z</time>
      </trkpt>
      <trkpt lat="48.81547" lon="2.27697">
        <ele>66.800003051758</ele>
        <time>2016-02-01T20:20:06.000Z</time>
      </trkpt>
      <trkpt lat="48.81532" lon="2.27724">
        <ele>66.400001525879</ele>
        <time>2016-02-01T20:20:10.000Z</time>
      </trkpt>
      <trkpt lat="48.81521" lon="2.27742">
        <ele>66</ele>
        <time>2016-02-01T20:20:13.000Z</time>
      </trkpt>
      <trkpt lat="48.8151" lon="2.27764">
        <ele>66.599998474121</ele>
        <time>2016-02-01T20:20:17.000Z</time>
      </trkpt>
      <trkpt lat="48.81506" lon="2.27772">
        <ele>66.800003051758</ele>
        <time>2016-02-01T20:20:19.000Z</time>
      </trkpt>
      <trkpt lat="48.81502" lon="2.27779">
        <ele>67.199996948242</ele>
        <time>2016-02-01T20:20:21.000Z</time>
      </trkpt>
      <trkpt lat="48.81494" lon="2.27796">
        <ele>67.599998474121</ele>
        <time>2016-02-01T20:20:26.000Z</time>
      </trkpt>
      <trkpt lat="48.81488" lon="2.27805">
        <ele>67.800003051758</ele>
        <time>2016-02-01T20:20:30.000Z</time>
      </trkpt>
      <trkpt lat="48.81475" lon="2.27806">
        <ele>68.199996948242</ele>
        <time>2016-02-01T20:20:35.000Z</time>
      </trkpt>
      <trkpt lat="48.81466" lon="2.27809">
        <ele>68.400001525879</ele>
        <time>2016-02-01T20:20:39.000Z</time>
      </trkpt>
      <trkpt lat="48.8146" lon="2.27812">
        <ele>68.400001525879</ele>
        <time>2016-02-01T20:20:43.000Z</time>
      </trkpt>
      <trkpt lat="48.8144" lon="2.27817">
        <ele>69</ele>
        <time>2016-02-01T20:20:49.000Z</time>
      </trkpt>
      <trkpt lat="48.81423" lon="2.27812">
        <ele>70.199996948242</ele>
        <time>2016-02-01T20:20:59.000Z</time>
      </trkpt>
      <trkpt lat="48.81414" lon="2.27835">
        <ele>70.199996948242</ele>
        <time>2016-02-01T20:21:14.000Z</time>
      </trkpt>
      <trkpt lat="48.81399" lon="2.27851">
        <ele>71.199996948242</ele>
        <time>2016-02-01T20:21:19.000Z</time>
      </trkpt>
      <trkpt lat="48.81387" lon="2.27864">
        <ele>71.800003051758</ele>
        <time>2016-02-01T20:21:22.000Z</time>
      </trkpt>
      <trkpt lat="48.81377" lon="2.27873">
        <ele>71.199996948242</ele>
        <time>2016-02-01T20:21:24.000Z</time>
      </trkpt>
      <trkpt lat="48.81361" lon="2.2789">
        <ele>70.199996948242</ele>
        <time>2016-02-01T20:21:27.000Z</time>
      </trkpt>
      <trkpt lat="48.81346" lon="2.27905">
        <ele>69.800003051758</ele>
        <time>2016-02-01T20:21:30.000Z</time>
      </trkpt>
      <trkpt lat="48.81329" lon="2.2792">
        <ele>71.599998474121</ele>
        <time>2016-02-01T20:21:33.000Z</time>
      </trkpt>
      <trkpt lat="48.81324" lon="2.27926">
        <ele>72.400001525879</ele>
        <time>2016-02-01T20:21:34.000Z</time>
      </trkpt>
      <trkpt lat="48.81308" lon="2.27945">
        <ele>75</ele>
        <time>2016-02-01T20:21:37.000Z</time>
      </trkpt>
      <trkpt lat="48.81301" lon="2.2795">
        <ele>75.199996948242</ele>
        <time>2016-02-01T20:21:38.000Z</time>
      </trkpt>
      <trkpt lat="48.81284" lon="2.27966">
        <ele>75.800003051758</ele>
        <time>2016-02-01T20:21:41.000Z</time>
      </trkpt>
      <trkpt lat="48.81279" lon="2.27973">
        <ele>75.800003051758</ele>
        <time>2016-02-01T20:21:42.000Z</time>
      </trkpt>
      <trkpt lat="48.81262" lon="2.2799">
        <ele>76.400001525879</ele>
        <time>2016-02-01T20:21:45.000Z</time>
      </trkpt>
      <trkpt lat="48.81253" lon="2.28001">
        <ele>76.800003051758</ele>
        <time>2016-02-01T20:21:47.000Z</time>
      </trkpt>
      <trkpt lat="48.81238" lon="2.2802">
        <ele>77.400001525879</ele>
        <time>2016-02-01T20:21:50.000Z</time>
      </trkpt>
      <trkpt lat="48.81227" lon="2.28031">
        <ele>78</ele>
        <time>2016-02-01T20:21:52.000Z</time>
      </trkpt>
      <trkpt lat="48.81213" lon="2.28047">
        <ele>78.400001525879</ele>
        <time>2016-02-01T20:21:55.000Z</time>
      </trkpt>
      <trkpt lat="48.81194" lon="2.28066">
        <ele>78.800003051758</ele>
        <time>2016-02-01T20:21:59.000Z</time>
      </trkpt>
      <trkpt lat="48.81183" lon="2.28074">
        <ele>79.199996948242</ele>
        <time>2016-02-01T20:22:02.000Z</time>
      </trkpt>
      <trkpt lat="48.81173" lon="2.28075">
        <ele>79.599998474121</ele>
        <time>2016-02-01T20:22:07.000Z</time>
      </trkpt>
      <trkpt lat="48.81174" lon="2.28079">
        <ele>79.599998474121</ele>
        <time>2016-02-01T20:22:35.000Z</time>
      </trkpt>
      <trkpt lat="48.81156" lon="2.28095">
        <ele>80.599998474121</ele>
        <time>2016-02-01T20:22:41.000Z</time>
      </trkpt>
      <trkpt lat="48.81139" lon="2.2811">
        <ele>81.599998474121</ele>
        <time>2016-02-01T20:22:47.000Z</time>
      </trkpt>
      <trkpt lat="48.81122" lon="2.28126">
        <ele>81.800003051758</ele>
        <time>2016-02-01T20:22:53.000Z</time>
      </trkpt>
      <trkpt lat="48.81106" lon="2.28144">
        <ele>82</ele>
        <time>2016-02-01T20:22:59.000Z</time>
      </trkpt>
      <trkpt lat="48.81091" lon="2.28162">
        <ele>82.599998474121</ele>
        <time>2016-02-01T20:23:05.000Z</time>
      </trkpt>
      <trkpt lat="48.81075" lon="2.28176">
        <ele>83.199996948242</ele>
        <time>2016-02-01T20:23:11.000Z</time>
      </trkpt>
      <trkpt lat="48.81058" lon="2.28192">
        <ele>83.800003051758</ele>
        <time>2016-02-01T20:23:17.000Z</time>
      </trkpt>
      <trkpt lat="48.81043" lon="2.28209">
        <ele>84</ele>
        <time>2016-02-01T20:23:23.000Z</time>
      </trkpt>
      <trkpt lat="48.81026" lon="2.28224">
        <ele>84.199996948242</ele>
        <time>2016-02-01T20:23:29.000Z</time>
      </trkpt>
      <trkpt lat="48.8101" lon="2.28241">
        <ele>84</ele>
        <time>2016-02-01T20:23:35.000Z</time>
      </trkpt>
      <trkpt lat="48.80995" lon="2.28255">
        <ele>84.199996948242</ele>
        <time>2016-02-01T20:23:41.000Z</time>
      </trkpt>
      <trkpt lat="48.80979" lon="2.2827">
        <ele>84.199996948242</ele>
        <time>2016-02-01T20:23:47.000Z</time>
      </trkpt>
      <trkpt lat="48.80962" lon="2.28289">
        <ele>84</ele>
        <time>2016-02-01T20:23:54.000Z</time>
      </trkpt>
      <trkpt lat="48.80946" lon="2.28307">
        <ele>83.400001525879</ele>
        <time>2016-02-01T20:24:00.000Z</time>
      </trkpt>
      <trkpt lat="48.80928" lon="2.28323">
        <ele>83</ele>
        <time>2016-02-01T20:24:06.000Z</time>
      </trkpt>
      <trkpt lat="48.80913" lon="2.28339">
        <ele>83.400001525879</ele>
        <time>2016-02-01T20:24:12.000Z</time>
      </trkpt>
      <trkpt lat="48.80897" lon="2.28356">
        <ele>83.800003051758</ele>
        <time>2016-02-01T20:24:18.000Z</time>
      </trkpt>
      <trkpt lat="48.80881" lon="2.28374">
        <ele>84.199996948242</ele>
        <time>2016-02-01T20:24:25.000Z</time>
      </trkpt>
      <trkpt lat="48.80864" lon="2.28391">
        <ele>84.599998474121</ele>
        <time>2016-02-01T20:24:32.000Z</time>
      </trkpt>
      <trkpt lat="48.80848" lon="2.28407">
        <ele>85</ele>
        <time>2016-02-01T20:24:38.000Z</time>
      </trkpt>
      <trkpt lat="48.8083" lon="2.28423">
        <ele>85.599998474121</ele>
        <time>2016-02-01T20:24:45.000Z</time>
      </trkpt>
      <trkpt lat="48.80815" lon="2.28439">
        <ele>86.199996948242</ele>
        <time>2016-02-01T20:24:51.000Z</time>
      </trkpt>
      <trkpt lat="48.80799" lon="2.28455">
        <ele>86.599998474121</ele>
        <time>2016-02-01T20:24:57.000Z</time>
      </trkpt>
      <trkpt lat="48.80784" lon="2.28471">
        <ele>87.199996948242</ele>
        <time>2016-02-01T20:25:03.000Z</time>
      </trkpt>
      <trkpt lat="48.80767" lon="2.28486">
        <ele>88</ele>
        <time>2016-02-01T20:25:09.000Z</time>
      </trkpt>
      <trkpt lat="48.80751" lon="2.28502">
        <ele>88.599998474121</ele>
        <time>2016-02-01T20:25:15.000Z</time>
      </trkpt>
      <trkpt lat="48.80735" lon="2.2852">
        <ele>89.400001525879</ele>
        <time>2016-02-01T20:25:21.000Z</time>
      </trkpt>
      <trkpt lat="48.80719" lon="2.28536">
        <ele>90</ele>
        <time>2016-02-01T20:25:27.000Z</time>
      </trkpt>
      <trkpt lat="48.80703" lon="2.28553">
        <ele>90</ele>
        <time>2016-02-01T20:25:33.000Z</time>
      </trkpt>
      <trkpt lat="48.80685" lon="2.28568">
        <ele>90.199996948242</ele>
        <time>2016-02-01T20:25:39.000Z</time>
      </trkpt>
      <trkpt lat="48.8067" lon="2.28585">
        <ele>90.800003051758</ele>
        <time>2016-02-01T20:25:45.000Z</time>
      </trkpt>
      <trkpt lat="48.80654" lon="2.28601">
        <ele>91.400001525879</ele>
        <time>2016-02-01T20:25:51.000Z</time>
      </trkpt>
      <trkpt lat="48.80635" lon="2.28616">
        <ele>91.800003051758</ele>
        <time>2016-02-01T20:25:57.000Z</time>
      </trkpt>
      <trkpt lat="48.80617" lon="2.28635">
        <ele>90.599998474121</ele>
        <time>2016-02-01T20:26:02.000Z</time>
      </trkpt>
      <trkpt lat="48.806" lon="2.28651">
        <ele>89.599998474121</ele>
        <time>2016-02-01T20:26:07.000Z</time>
      </trkpt>
      <trkpt lat="48.80583" lon="2.28667">
        <ele>89.199996948242</ele>
        <time>2016-02-01T20:26:12.000Z</time>
      </trkpt>
      <trkpt lat="48.80567" lon="2.28683">
        <ele>89.400001525879</ele>
        <time>2016-02-01T20:26:17.000Z</time>
      </trkpt>
      <trkpt lat="48.80553" lon="2.28699">
        <ele>89.599998474121</ele>
        <time>2016-02-01T20:26:22.000Z</time>
      </trkpt>
      <trkpt lat="48.80536" lon="2.28716">
        <ele>90.199996948242</ele>
        <time>2016-02-01T20:26:28.000Z</time>
      </trkpt>
      <trkpt lat="48.80521" lon="2.28733">
        <ele>90.800003051758</ele>
        <time>2016-02-01T20:26:34.000Z</time>
      </trkpt>
      <trkpt lat="48.80504" lon="2.2875">
        <ele>92.199996948242</ele>
        <time>2016-02-01T20:26:41.000Z</time>
      </trkpt>
      <trkpt lat="48.80488" lon="2.28766">
        <ele>93.599998474121</ele>
        <time>2016-02-01T20:26:47.000Z</time>
      </trkpt>
      <trkpt lat="48.80473" lon="2.28783">
        <ele>94.800003051758</ele>
        <time>2016-02-01T20:26:53.000Z</time>
      </trkpt>
      <trkpt lat="48.80458" lon="2.28801">
        <ele>96.599998474121</ele>
        <time>2016-02-01T20:26:59.000Z</time>
      </trkpt>
      <trkpt lat="48.80443" lon="2.28816">
        <ele>98.199996948242</ele>
        <time>2016-02-01T20:27:05.000Z</time>
      </trkpt>
      <trkpt lat="48.80426" lon="2.28828">
        <ele>99</ele>
        <time>2016-02-01T20:27:11.000Z</time>
      </trkpt>
      <trkpt lat="48.8041" lon="2.28843">
        <ele>98.599998474121</ele>
        <time>2016-02-01T20:27:18.000Z</time>
      </trkpt>
      <trkpt lat="48.80404" lon="2.28848">
        <ele>98.599998474121</ele>
        <time>2016-02-01T20:27:21.000Z</time>
      </trkpt>
      <trkpt lat="48.80396" lon="2.28852">
        <ele>98.400001525879</ele>
        <time>2016-02-01T20:27:26.000Z</time>
      </trkpt>
      <trkpt lat="48.80385" lon="2.28858">
        <ele>98.400001525879</ele>
        <time>2016-02-01T20:27:34.000Z</time>
      </trkpt>
      <trkpt lat="48.80379" lon="2.28866">
        <ele>98.800003051758</ele>
        <time>2016-02-01T20:29:16.000Z</time>
      </trkpt>
      <trkpt lat="48.80364" lon="2.28873">
        <ele>100</ele>
        <time>2016-02-01T20:29:37.000Z</time>
      </trkpt>
      <trkpt lat="48.80346" lon="2.28858">
        <ele>100.59999847412</ele>
        <time>2016-02-01T20:29:45.000Z</time>
      </trkpt>
      <trkpt lat="48.80329" lon="2.28846">
        <ele>101.19999694824</ele>
        <time>2016-02-01T20:29:53.000Z</time>
      </trkpt>
      <trkpt lat="48.8031" lon="2.28836">
        <ele>102</ele>
        <time>2016-02-01T20:30:03.000Z</time>
      </trkpt>
      <trkpt lat="48.80292" lon="2.28822">
        <ele>102.59999847412</ele>
        <time>2016-02-01T20:30:10.000Z</time>
      </trkpt>
      <trkpt lat="48.80273" lon="2.2881">
        <ele>103.19999694824</ele>
        <time>2016-02-01T20:30:17.000Z</time>
      </trkpt>
      <trkpt lat="48.80256" lon="2.28792">
        <ele>103.40000152588</ele>
        <time>2016-02-01T20:30:23.000Z</time>
      </trkpt>
      <trkpt lat="48.80237" lon="2.28778">
        <ele>103.80000305176</ele>
        <time>2016-02-01T20:30:29.000Z</time>
      </trkpt>
      <trkpt lat="48.80219" lon="2.28766">
        <ele>104.19999694824</ele>
        <time>2016-02-01T20:30:34.000Z</time>
      </trkpt>
      <trkpt lat="48.80201" lon="2.28756">
        <ele>104.80000305176</ele>
        <time>2016-02-01T20:30:39.000Z</time>
      </trkpt>
      <trkpt lat="48.80182" lon="2.28744">
        <ele>105.40000152588</ele>
        <time>2016-02-01T20:30:45.000Z</time>
      </trkpt>
      <trkpt lat="48.80165" lon="2.28733">
        <ele>106</ele>
        <time>2016-02-01T20:30:50.000Z</time>
      </trkpt>
      <trkpt lat="48.80146" lon="2.28719">
        <ele>106.80000305176</ele>
        <time>2016-02-01T20:30:55.000Z</time>
      </trkpt>
      <trkpt lat="48.8013" lon="2.28704">
        <ele>107.40000152588</ele>
        <time>2016-02-01T20:30:59.000Z</time>
      </trkpt>
      <trkpt lat="48.80112" lon="2.28693">
        <ele>108.19999694824</ele>
        <time>2016-02-01T20:31:03.000Z</time>
      </trkpt>
      <trkpt lat="48.80095" lon="2.2868">
        <ele>108.80000305176</ele>
        <time>2016-02-01T20:31:07.000Z</time>
      </trkpt>
      <trkpt lat="48.80091" lon="2.28677">
        <ele>109</ele>
        <time>2016-02-01T20:31:08.000Z</time>
      </trkpt>
      <trkpt lat="48.80078" lon="2.28667">
        <ele>109.40000152588</ele>
        <time>2016-02-01T20:31:12.000Z</time>
      </trkpt>
      <trkpt lat="48.80061" lon="2.28654">
        <ele>110</ele>
        <time>2016-02-01T20:31:17.000Z</time>
      </trkpt>
      <trkpt lat="48.80053" lon="2.28648">
        <ele>110.40000152588</ele>
        <time>2016-02-01T20:31:20.000Z</time>
      </trkpt>
      <trkpt lat="48.80036" lon="2.28631">
        <ele>111</ele>
        <time>2016-02-01T20:31:26.000Z</time>
      </trkpt>
      <trkpt lat="48.8003" lon="2.28624">
        <ele>111.19999694824</ele>
        <time>2016-02-01T20:31:28.000Z</time>
      </trkpt>
      <trkpt lat="48.80014" lon="2.28606">
        <ele>111.80000305176</ele>
        <time>2016-02-01T20:31:33.000Z</time>
      </trkpt>
      <trkpt lat="48.79997" lon="2.2859">
        <ele>112.80000305176</ele>
        <time>2016-02-01T20:31:39.000Z</time>
      </trkpt>
      <trkpt lat="48.79982" lon="2.2857">
        <ele>113.80000305176</ele>
        <time>2016-02-01T20:31:47.000Z</time>
      </trkpt>
      <trkpt lat="48.79979" lon="2.28568">
        <ele>114</ele>
        <time>2016-02-01T20:31:50.000Z</time>
      </trkpt>
      <trkpt lat="48.79975" lon="2.28583">
        <ele>114.40000152588</ele>
        <time>2016-02-01T20:32:40.000Z</time>
      </trkpt>
      <trkpt lat="48.79965" lon="2.28599">
        <ele>115.40000152588</ele>
        <time>2016-02-01T20:33:08.000Z</time>
      </trkpt>
      <trkpt lat="48.79953" lon="2.28623">
        <ele>117.19999694824</ele>
        <time>2016-02-01T20:33:14.000Z</time>
      </trkpt>
      <trkpt lat="48.7994" lon="2.28645">
        <ele>119.19999694824</ele>
        <time>2016-02-01T20:33:19.000Z</time>
      </trkpt>
      <trkpt lat="48.79925" lon="2.28668">
        <ele>119.59999847412</ele>
        <time>2016-02-01T20:33:24.000Z</time>
      </trkpt>
      <trkpt lat="48.79908" lon="2.2868">
        <ele>119.19999694824</ele>
        <time>2016-02-01T20:33:28.000Z</time>
      </trkpt>
      <trkpt lat="48.7989" lon="2.28691">
        <ele>118.59999847412</ele>
        <time>2016-02-01T20:33:32.000Z</time>
      </trkpt>
      <trkpt lat="48.79874" lon="2.28704">
        <ele>118.19999694824</ele>
        <time>2016-02-01T20:33:36.000Z</time>
      </trkpt>
      <trkpt lat="48.79857" lon="2.28725">
        <ele>117.80000305176</ele>
        <time>2016-02-01T20:33:41.000Z</time>
      </trkpt>
      <trkpt lat="48.79854" lon="2.28729">
        <ele>118</ele>
        <time>2016-02-01T20:33:42.000Z</time>
      </trkpt>
      <trkpt lat="48.79842" lon="2.28741">
        <ele>119</ele>
        <time>2016-02-01T20:33:46.000Z</time>
      </trkpt>
      <trkpt lat="48.79835" lon="2.28749">
        <ele>119.19999694824</ele>
        <time>2016-02-01T20:33:51.000Z</time>
      </trkpt>
      <trkpt lat="48.79833" lon="2.28749">
        <ele>119.40000152588</ele>
        <time>2016-02-01T20:33:53.000Z</time>
      </trkpt>
      <trkpt lat="48.79822" lon="2.28758">
        <ele>120</ele>
        <time>2016-02-01T20:34:41.000Z</time>
      </trkpt>
      <trkpt lat="48.79804" lon="2.28769">
        <ele>121</ele>
        <time>2016-02-01T20:34:50.000Z</time>
      </trkpt>
      <trkpt lat="48.79786" lon="2.28777">
        <ele>121.80000305176</ele>
        <time>2016-02-01T20:34:58.000Z</time>
      </trkpt>
      <trkpt lat="48.79767" lon="2.28786">
        <ele>122</ele>
        <time>2016-02-01T20:35:06.000Z</time>
      </trkpt>
      <trkpt lat="48.79746" lon="2.28791">
        <ele>121.40000152588</ele>
        <time>2016-02-01T20:35:13.000Z</time>
      </trkpt>
      <trkpt lat="48.79726" lon="2.28797">
        <ele>120.19999694824</ele>
        <time>2016-02-01T20:35:19.000Z</time>
      </trkpt>
      <trkpt lat="48.79707" lon="2.288">
        <ele>119</ele>
        <time>2016-02-01T20:35:24.000Z</time>
      </trkpt>
      <trkpt lat="48.79685" lon="2.28804">
        <ele>117.40000152588</ele>
        <time>2016-02-01T20:35:28.000Z</time>
      </trkpt>
      <trkpt lat="48.7968" lon="2.28803">
        <ele>117.19999694824</ele>
        <time>2016-02-01T20:35:29.000Z</time>
      </trkpt>
      <trkpt lat="48.79658" lon="2.28802">
        <ele>116.59999847412</ele>
        <time>2016-02-01T20:35:33.000Z</time>
      </trkpt>
      <trkpt lat="48.79636" lon="2.28803">
        <ele>116</ele>
        <time>2016-02-01T20:35:37.000Z</time>
      </trkpt>
      <trkpt lat="48.79618" lon="2.288">
        <ele>115.80000305176</ele>
        <time>2016-02-01T20:35:40.000Z</time>
      </trkpt>
      <trkpt lat="48.79607" lon="2.28798">
        <ele>115.59999847412</ele>
        <time>2016-02-01T20:35:42.000Z</time>
      </trkpt>
      <trkpt lat="48.79584" lon="2.28796">
        <ele>115.40000152588</ele>
        <time>2016-02-01T20:35:46.000Z</time>
      </trkpt>
      <trkpt lat="48.79579" lon="2.28793">
        <ele>115.40000152588</ele>
        <time>2016-02-01T20:35:47.000Z</time>
      </trkpt>
      <trkpt lat="48.79558" lon="2.28793">
        <ele>115.40000152588</ele>
        <time>2016-02-01T20:35:51.000Z</time>
      </trkpt>
      <trkpt lat="48.79536" lon="2.28791">
        <ele>115.40000152588</ele>
        <time>2016-02-01T20:35:55.000Z</time>
      </trkpt>
      <trkpt lat="48.79526" lon="2.2879">
        <ele>115.40000152588</ele>
        <time>2016-02-01T20:35:57.000Z</time>
      </trkpt>
      <trkpt lat="48.79505" lon="2.28789">
        <ele>115.40000152588</ele>
        <time>2016-02-01T20:36:01.000Z</time>
      </trkpt>
      <trkpt lat="48.79495" lon="2.28792">
        <ele>115.40000152588</ele>
        <time>2016-02-01T20:36:03.000Z</time>
      </trkpt>
      <trkpt lat="48.79474" lon="2.28799">
        <ele>115.19999694824</ele>
        <time>2016-02-01T20:36:07.000Z</time>
      </trkpt>
      <trkpt lat="48.79453" lon="2.28803">
        <ele>115</ele>
        <time>2016-02-01T20:36:12.000Z</time>
      </trkpt>
      <trkpt lat="48.79439" lon="2.28808">
        <ele>114.80000305176</ele>
        <time>2016-02-01T20:36:16.000Z</time>
      </trkpt>
      <trkpt lat="48.79423" lon="2.28814">
        <ele>115</ele>
        <time>2016-02-01T20:36:21.000Z</time>
      </trkpt>
      <trkpt lat="48.79403" lon="2.28826">
        <ele>115.40000152588</ele>
        <time>2016-02-01T20:36:27.000Z</time>
      </trkpt>
      <trkpt lat="48.79383" lon="2.28832">
        <ele>116</ele>
        <time>2016-02-01T20:36:32.000Z</time>
      </trkpt>
      <trkpt lat="48.79363" lon="2.28843">
        <ele>116.40000152588</ele>
        <time>2016-02-01T20:36:37.000Z</time>
      </trkpt>
      <trkpt lat="48.79344" lon="2.28854">
        <ele>117</ele>
        <time>2016-02-01T20:36:42.000Z</time>
      </trkpt>
      <trkpt lat="48.79326" lon="2.28864">
        <ele>117.80000305176</ele>
        <time>2016-02-01T20:36:49.000Z</time>
      </trkpt>
      <trkpt lat="48.79317" lon="2.28875">
        <ele>118.19999694824</ele>
        <time>2016-02-01T20:37:06.000Z</time>
      </trkpt>
      <trkpt lat="48.79302" lon="2.28892">
        <ele>117.59999847412</ele>
        <time>2016-02-01T20:37:11.000Z</time>
      </trkpt>
      <trkpt lat="48.79284" lon="2.28912">
        <ele>116.80000305176</ele>
        <time>2016-02-01T20:37:16.000Z</time>
      </trkpt>
      <trkpt lat="48.79268" lon="2.28928">
        <ele>116</ele>
        <time>2016-02-01T20:37:20.000Z</time>
      </trkpt>
      <trkpt lat="48.79253" lon="2.28944">
        <ele>114.80000305176</ele>
        <time>2016-02-01T20:37:24.000Z</time>
      </trkpt>
      <trkpt lat="48.79235" lon="2.28962">
        <ele>113.40000152588</ele>
        <time>2016-02-01T20:37:29.000Z</time>
      </trkpt>
      <trkpt lat="48.79217" lon="2.28978">
        <ele>114.40000152588</ele>
        <time>2016-02-01T20:37:34.000Z</time>
      </trkpt>
      <trkpt lat="48.79212" lon="2.28992">
        <ele>114.80000305176</ele>
        <time>2016-02-01T20:37:40.000Z</time>
      </trkpt>
      <trkpt lat="48.79229" lon="2.29009">
        <ele>113.59999847412</ele>
        <time>2016-02-01T20:37:47.000Z</time>
      </trkpt>
      <trkpt lat="48.79249" lon="2.29019">
        <ele>112.19999694824</ele>
        <time>2016-02-01T20:37:52.000Z</time>
      </trkpt>
      <trkpt lat="48.79269" lon="2.29032">
        <ele>110.80000305176</ele>
        <time>2016-02-01T20:37:57.000Z</time>
      </trkpt>
      <trkpt lat="48.79288" lon="2.29045">
        <ele>109.80000305176</ele>
        <time>2016-02-01T20:38:02.000Z</time>
      </trkpt>
      <trkpt lat="48.79306" lon="2.29062">
        <ele>108.80000305176</ele>
        <time>2016-02-01T20:38:07.000Z</time>
      </trkpt>
      <trkpt lat="48.79324" lon="2.29075">
        <ele>108</ele>
        <time>2016-02-01T20:38:11.000Z</time>
      </trkpt>
      <trkpt lat="48.79342" lon="2.29079">
        <ele>107.40000152588</ele>
        <time>2016-02-01T20:38:14.000Z</time>
      </trkpt>
      <trkpt lat="48.79365" lon="2.29091">
        <ele>106.40000152588</ele>
        <time>2016-02-01T20:38:18.000Z</time>
      </trkpt>
      <trkpt lat="48.79382" lon="2.29102">
        <ele>105.59999847412</ele>
        <time>2016-02-01T20:38:21.000Z</time>
      </trkpt>
      <trkpt lat="48.794" lon="2.29112">
        <ele>105</ele>
        <time>2016-02-01T20:38:24.000Z</time>
      </trkpt>
      <trkpt lat="48.79422" lon="2.29123">
        <ele>104.19999694824</ele>
        <time>2016-02-01T20:38:28.000Z</time>
      </trkpt>
      <trkpt lat="48.79444" lon="2.29136">
        <ele>103.40000152588</ele>
        <time>2016-02-01T20:38:32.000Z</time>
      </trkpt>
      <trkpt lat="48.79465" lon="2.2915">
        <ele>102.59999847412</ele>
        <time>2016-02-01T20:38:36.000Z</time>
      </trkpt>
      <trkpt lat="48.79486" lon="2.29164">
        <ele>102</ele>
        <time>2016-02-01T20:38:40.000Z</time>
      </trkpt>
      <trkpt lat="48.79508" lon="2.29174">
        <ele>101.40000152588</ele>
        <time>2016-02-01T20:38:44.000Z</time>
      </trkpt>
      <trkpt lat="48.79514" lon="2.29177">
        <ele>101.40000152588</ele>
        <time>2016-02-01T20:38:45.000Z</time>
      </trkpt>
      <trkpt lat="48.79536" lon="2.29191">
        <ele>101</ele>
        <time>2016-02-01T20:38:49.000Z</time>
      </trkpt>
      <trkpt lat="48.79552" lon="2.29202">
        <ele>100.80000305176</ele>
        <time>2016-02-01T20:38:52.000Z</time>
      </trkpt>
      <trkpt lat="48.7957" lon="2.29212">
        <ele>100.80000305176</ele>
        <time>2016-02-01T20:38:55.000Z</time>
      </trkpt>
      <trkpt lat="48.79587" lon="2.2922">
        <ele>100.59999847412</ele>
        <time>2016-02-01T20:38:58.000Z</time>
      </trkpt>
      <trkpt lat="48.79608" lon="2.29233">
        <ele>100.40000152588</ele>
        <time>2016-02-01T20:39:02.000Z</time>
      </trkpt>
      <trkpt lat="48.7963" lon="2.29246">
        <ele>100</ele>
        <time>2016-02-01T20:39:06.000Z</time>
      </trkpt>
      <trkpt lat="48.79648" lon="2.29256">
        <ele>100</ele>
        <time>2016-02-01T20:39:09.000Z</time>
      </trkpt>
      <trkpt lat="48.79665" lon="2.29266">
        <ele>100</ele>
        <time>2016-02-01T20:39:12.000Z</time>
      </trkpt>
      <trkpt lat="48.79688" lon="2.29278">
        <ele>100</ele>
        <time>2016-02-01T20:39:16.000Z</time>
      </trkpt>
      <trkpt lat="48.79708" lon="2.2929">
        <ele>101</ele>
        <time>2016-02-01T20:39:20.000Z</time>
      </trkpt>
      <trkpt lat="48.79722" lon="2.29303">
        <ele>101.59999847412</ele>
        <time>2016-02-01T20:39:23.000Z</time>
      </trkpt>
      <trkpt lat="48.7974" lon="2.29324">
        <ele>102.40000152588</ele>
        <time>2016-02-01T20:39:27.000Z</time>
      </trkpt>
      <trkpt lat="48.79755" lon="2.29341">
        <ele>103</ele>
        <time>2016-02-01T20:39:30.000Z</time>
      </trkpt>
      <trkpt lat="48.79771" lon="2.29366">
        <ele>103.19999694824</ele>
        <time>2016-02-01T20:39:34.000Z</time>
      </trkpt>
      <trkpt lat="48.79784" lon="2.29386">
        <ele>102.40000152588</ele>
        <time>2016-02-01T20:39:37.000Z</time>
      </trkpt>
      <trkpt lat="48.79801" lon="2.29411">
        <ele>101.40000152588</ele>
        <time>2016-02-01T20:39:41.000Z</time>
      </trkpt>
      <trkpt lat="48.79809" lon="2.29421">
        <ele>101</ele>
        <time>2016-02-01T20:39:43.000Z</time>
      </trkpt>
      <trkpt lat="48.79823" lon="2.2944">
        <ele>100.80000305176</ele>
        <time>2016-02-01T20:39:48.000Z</time>
      </trkpt>
      <trkpt lat="48.79831" lon="2.29452">
        <ele>100.59999847412</ele>
        <time>2016-02-01T20:39:52.000Z</time>
      </trkpt>
      <trkpt lat="48.79837" lon="2.29459">
        <ele>100.40000152588</ele>
        <time>2016-02-01T20:39:55.000Z</time>
      </trkpt>
      <trkpt lat="48.79845" lon="2.29465">
        <ele>100.19999694824</ele>
        <time>2016-02-01T20:39:58.000Z</time>
      </trkpt>
      <trkpt lat="48.79863" lon="2.29482">
        <ele>99.800003051758</ele>
        <time>2016-02-01T20:40:03.000Z</time>
      </trkpt>
      <trkpt lat="48.79875" lon="2.29498">
        <ele>99.400001525879</ele>
        <time>2016-02-01T20:40:06.000Z</time>
      </trkpt>
      <trkpt lat="48.79894" lon="2.29519">
        <ele>98</ele>
        <time>2016-02-01T20:40:10.000Z</time>
      </trkpt>
      <trkpt lat="48.7991" lon="2.29533">
        <ele>97</ele>
        <time>2016-02-01T20:40:13.000Z</time>
      </trkpt>
      <trkpt lat="48.79922" lon="2.2954">
        <ele>96.400001525879</ele>
        <time>2016-02-01T20:40:15.000Z</time>
      </trkpt>
      <trkpt lat="48.79941" lon="2.29549">
        <ele>95.400001525879</ele>
        <time>2016-02-01T20:40:18.000Z</time>
      </trkpt>
      <trkpt lat="48.79961" lon="2.29556">
        <ele>95.400001525879</ele>
        <time>2016-02-01T20:40:21.000Z</time>
      </trkpt>
      <trkpt lat="48.79968" lon="2.29559">
        <ele>95.400001525879</ele>
        <time>2016-02-01T20:40:22.000Z</time>
      </trkpt>
      <trkpt lat="48.7998" lon="2.29567">
        <ele>95.199996948242</ele>
        <time>2016-02-01T20:40:24.000Z</time>
      </trkpt>
      <trkpt lat="48.8" lon="2.29573">
        <ele>95</ele>
        <time>2016-02-01T20:40:27.000Z</time>
      </trkpt>
      <trkpt lat="48.80007" lon="2.29576">
        <ele>95</ele>
        <time>2016-02-01T20:40:28.000Z</time>
      </trkpt>
      <trkpt lat="48.80027" lon="2.29584">
        <ele>95</ele>
        <time>2016-02-01T20:40:31.000Z</time>
      </trkpt>
      <trkpt lat="48.80046" lon="2.29593">
        <ele>95</ele>
        <time>2016-02-01T20:40:34.000Z</time>
      </trkpt>
      <trkpt lat="48.80067" lon="2.29607">
        <ele>94.800003051758</ele>
        <time>2016-02-01T20:40:38.000Z</time>
      </trkpt>
      <trkpt lat="48.80084" lon="2.29613">
        <ele>95</ele>
        <time>2016-02-01T20:40:41.000Z</time>
      </trkpt>
      <trkpt lat="48.80103" lon="2.29618">
        <ele>95.199996948242</ele>
        <time>2016-02-01T20:40:44.000Z</time>
      </trkpt>
      <trkpt lat="48.80125" lon="2.29625">
        <ele>95.400001525879</ele>
        <time>2016-02-01T20:40:47.000Z</time>
      </trkpt>
      <trkpt lat="48.80145" lon="2.29634">
        <ele>95.400001525879</ele>
        <time>2016-02-01T20:40:50.000Z</time>
      </trkpt>
      <trkpt lat="48.80166" lon="2.29645">
        <ele>95.400001525879</ele>
        <time>2016-02-01T20:40:53.000Z</time>
      </trkpt>
      <trkpt lat="48.80188" lon="2.29656">
        <ele>95.400001525879</ele>
        <time>2016-02-01T20:40:56.000Z</time>
      </trkpt>
      <trkpt lat="48.8021" lon="2.29666">
        <ele>95.199996948242</ele>
        <time>2016-02-01T20:40:59.000Z</time>
      </trkpt>
      <trkpt lat="48.8023" lon="2.29674">
        <ele>95.199996948242</ele>
        <time>2016-02-01T20:41:02.000Z</time>
      </trkpt>
      <trkpt lat="48.80249" lon="2.29683">
        <ele>95.199996948242</ele>
        <time>2016-02-01T20:41:05.000Z</time>
      </trkpt>
      <trkpt lat="48.80267" lon="2.29692">
        <ele>95.199996948242</ele>
        <time>2016-02-01T20:41:08.000Z</time>
      </trkpt>
      <trkpt lat="48.80286" lon="2.29701">
        <ele>95</ele>
        <time>2016-02-01T20:41:11.000Z</time>
      </trkpt>
      <trkpt lat="48.80305" lon="2.29712">
        <ele>94.400001525879</ele>
        <time>2016-02-01T20:41:14.000Z</time>
      </trkpt>
      <trkpt lat="48.80324" lon="2.29723">
        <ele>94</ele>
        <time>2016-02-01T20:41:17.000Z</time>
      </trkpt>
      <trkpt lat="48.80342" lon="2.29733">
        <ele>93.400001525879</ele>
        <time>2016-02-01T20:41:20.000Z</time>
      </trkpt>
      <trkpt lat="48.8036" lon="2.29746">
        <ele>93</ele>
        <time>2016-02-01T20:41:23.000Z</time>
      </trkpt>
      <trkpt lat="48.80377" lon="2.29758">
        <ele>92.800003051758</ele>
        <time>2016-02-01T20:41:26.000Z</time>
      </trkpt>
      <trkpt lat="48.80398" lon="2.29773">
        <ele>92.599998474121</ele>
        <time>2016-02-01T20:41:30.000Z</time>
      </trkpt>
      <trkpt lat="48.80403" lon="2.29775">
        <ele>92.599998474121</ele>
        <time>2016-02-01T20:41:31.000Z</time>
      </trkpt>
      <trkpt lat="48.80427" lon="2.29779">
        <ele>92.599998474121</ele>
        <time>2016-02-01T20:41:35.000Z</time>
      </trkpt>
      <trkpt lat="48.80445" lon="2.2978">
        <ele>92.800003051758</ele>
        <time>2016-02-01T20:41:38.000Z</time>
      </trkpt>
      <trkpt lat="48.80463" lon="2.29782">
        <ele>92.400001525879</ele>
        <time>2016-02-01T20:41:41.000Z</time>
      </trkpt>
      <trkpt lat="48.80483" lon="2.29787">
        <ele>92</ele>
        <time>2016-02-01T20:41:44.000Z</time>
      </trkpt>
      <trkpt lat="48.80504" lon="2.2979">
        <ele>91.599998474121</ele>
        <time>2016-02-01T20:41:47.000Z</time>
      </trkpt>
      <trkpt lat="48.80524" lon="2.29792">
        <ele>91.400001525879</ele>
        <time>2016-02-01T20:41:50.000Z</time>
      </trkpt>
      <trkpt lat="48.80543" lon="2.29796">
        <ele>90.800003051758</ele>
        <time>2016-02-01T20:41:53.000Z</time>
      </trkpt>
      <trkpt lat="48.80562" lon="2.298">
        <ele>90.199996948242</ele>
        <time>2016-02-01T20:41:56.000Z</time>
      </trkpt>
      <trkpt lat="48.80582" lon="2.29801">
        <ele>89.599998474121</ele>
        <time>2016-02-01T20:41:59.000Z</time>
      </trkpt>
      <trkpt lat="48.80588" lon="2.29802">
        <ele>89.400001525879</ele>
        <time>2016-02-01T20:42:00.000Z</time>
      </trkpt>
      <trkpt lat="48.80612" lon="2.29807">
        <ele>89</ele>
        <time>2016-02-01T20:42:04.000Z</time>
      </trkpt>
      <trkpt lat="48.80634" lon="2.29814">
        <ele>89</ele>
        <time>2016-02-01T20:42:08.000Z</time>
      </trkpt>
      <trkpt lat="48.80658" lon="2.29819">
        <ele>89</ele>
        <time>2016-02-01T20:42:12.000Z</time>
      </trkpt>
      <trkpt lat="48.80663" lon="2.29819">
        <ele>89</ele>
        <time>2016-02-01T20:42:13.000Z</time>
      </trkpt>
      <trkpt lat="48.80686" lon="2.29822">
        <ele>89.199996948242</ele>
        <time>2016-02-01T20:42:17.000Z</time>
      </trkpt>
      <trkpt lat="48.80698" lon="2.29829">
        <ele>89.199996948242</ele>
        <time>2016-02-01T20:42:19.000Z</time>
      </trkpt>
      <trkpt lat="48.80714" lon="2.2985">
        <ele>88.599998474121</ele>
        <time>2016-02-01T20:42:23.000Z</time>
      </trkpt>
      <trkpt lat="48.80722" lon="2.29856">
        <ele>88.599998474121</ele>
        <time>2016-02-01T20:42:26.000Z</time>
      </trkpt>
      <trkpt lat="48.80729" lon="2.29866">
        <ele>88.199996948242</ele>
        <time>2016-02-01T20:42:42.000Z</time>
      </trkpt>
      <trkpt lat="48.8074" lon="2.29875">
        <ele>88</ele>
        <time>2016-02-01T20:42:46.000Z</time>
      </trkpt>
      <trkpt lat="48.80758" lon="2.29892">
        <ele>87.599998474121</ele>
        <time>2016-02-01T20:42:51.000Z</time>
      </trkpt>
      <trkpt lat="48.80776" lon="2.29909">
        <ele>87.400001525879</ele>
        <time>2016-02-01T20:42:55.000Z</time>
      </trkpt>
      <trkpt lat="48.80794" lon="2.29928">
        <ele>87.400001525879</ele>
        <time>2016-02-01T20:42:59.000Z</time>
      </trkpt>
      <trkpt lat="48.80811" lon="2.29946">
        <ele>87.599998474121</ele>
        <time>2016-02-01T20:43:03.000Z</time>
      </trkpt>
      <trkpt lat="48.80829" lon="2.29965">
        <ele>87.800003051758</ele>
        <time>2016-02-01T20:43:07.000Z</time>
      </trkpt>
      <trkpt lat="48.80843" lon="2.29981">
        <ele>88</ele>
        <time>2016-02-01T20:43:10.000Z</time>
      </trkpt>
      <trkpt lat="48.8086" lon="2.30002">
        <ele>88</ele>
        <time>2016-02-01T20:43:13.000Z</time>
      </trkpt>
      <trkpt lat="48.80865" lon="2.30009">
        <ele>88</ele>
        <time>2016-02-01T20:43:14.000Z</time>
      </trkpt>
      <trkpt lat="48.80879" lon="2.30032">
        <ele>87.800003051758</ele>
        <time>2016-02-01T20:43:17.000Z</time>
      </trkpt>
      <trkpt lat="48.80895" lon="2.30052">
        <ele>87.599998474121</ele>
        <time>2016-02-01T20:43:20.000Z</time>
      </trkpt>
      <trkpt lat="48.80901" lon="2.30058">
        <ele>87.599998474121</ele>
        <time>2016-02-01T20:43:21.000Z</time>
      </trkpt>
      <trkpt lat="48.80915" lon="2.30079">
        <ele>87.400001525879</ele>
        <time>2016-02-01T20:43:24.000Z</time>
      </trkpt>
      <trkpt lat="48.80931" lon="2.30099">
        <ele>87.199996948242</ele>
        <time>2016-02-01T20:43:27.000Z</time>
      </trkpt>
      <trkpt lat="48.80941" lon="2.30113">
        <ele>86.800003051758</ele>
        <time>2016-02-01T20:43:29.000Z</time>
      </trkpt>
      <trkpt lat="48.80954" lon="2.30134">
        <ele>85.599998474121</ele>
        <time>2016-02-01T20:43:32.000Z</time>
      </trkpt>
      <trkpt lat="48.8097" lon="2.30158">
        <ele>84.400001525879</ele>
        <time>2016-02-01T20:43:36.000Z</time>
      </trkpt>
      <trkpt lat="48.8099" lon="2.3017">
        <ele>83.599998474121</ele>
        <time>2016-02-01T20:43:40.000Z</time>
      </trkpt>
      <trkpt lat="48.81011" lon="2.30174">
        <ele>83</ele>
        <time>2016-02-01T20:43:43.000Z</time>
      </trkpt>
      <trkpt lat="48.81037" lon="2.30183">
        <ele>82</ele>
        <time>2016-02-01T20:43:46.000Z</time>
      </trkpt>
      <trkpt lat="48.8105" lon="2.30213">
        <ele>80.800003051758</ele>
        <time>2016-02-01T20:43:49.000Z</time>
      </trkpt>
      <trkpt lat="48.81064" lon="2.30232">
        <ele>79.800003051758</ele>
        <time>2016-02-01T20:43:52.000Z</time>
      </trkpt>
      <trkpt lat="48.81084" lon="2.3025">
        <ele>78.800003051758</ele>
        <time>2016-02-01T20:43:56.000Z</time>
      </trkpt>
      <trkpt lat="48.81102" lon="2.30265">
        <ele>78.599998474121</ele>
        <time>2016-02-01T20:44:00.000Z</time>
      </trkpt>
      <trkpt lat="48.81106" lon="2.30269">
        <ele>78.400001525879</ele>
        <time>2016-02-01T20:44:01.000Z</time>
      </trkpt>
      <trkpt lat="48.81122" lon="2.30283">
        <ele>78</ele>
        <time>2016-02-01T20:44:05.000Z</time>
      </trkpt>
      <trkpt lat="48.8113" lon="2.30288">
        <ele>77.800003051758</ele>
        <time>2016-02-01T20:44:07.000Z</time>
      </trkpt>
      <trkpt lat="48.81144" lon="2.30307">
        <ele>77.599998474121</ele>
        <time>2016-02-01T20:44:11.000Z</time>
      </trkpt>
      <trkpt lat="48.81157" lon="2.30331">
        <ele>77.599998474121</ele>
        <time>2016-02-01T20:44:15.000Z</time>
      </trkpt>
      <trkpt lat="48.81171" lon="2.30357">
        <ele>77.800003051758</ele>
        <time>2016-02-01T20:44:19.000Z</time>
      </trkpt>
      <trkpt lat="48.81184" lon="2.30382">
        <ele>78.199996948242</ele>
        <time>2016-02-01T20:44:23.000Z</time>
      </trkpt>
      <trkpt lat="48.81199" lon="2.30405">
        <ele>78.400001525879</ele>
        <time>2016-02-01T20:44:27.000Z</time>
      </trkpt>
      <trkpt lat="48.81212" lon="2.30429">
        <ele>78.599998474121</ele>
        <time>2016-02-01T20:44:31.000Z</time>
      </trkpt>
      <trkpt lat="48.81228" lon="2.30447">
        <ele>78.400001525879</ele>
        <time>2016-02-01T20:44:35.000Z</time>
      </trkpt>
      <trkpt lat="48.81232" lon="2.30453">
        <ele>78.400001525879</ele>
        <time>2016-02-01T20:44:36.000Z</time>
      </trkpt>
      <trkpt lat="48.81248" lon="2.30478">
        <ele>78.400001525879</ele>
        <time>2016-02-01T20:44:40.000Z</time>
      </trkpt>
      <trkpt lat="48.81256" lon="2.30488">
        <ele>78.199996948242</ele>
        <time>2016-02-01T20:44:42.000Z</time>
      </trkpt>
      <trkpt lat="48.8127" lon="2.30512">
        <ele>78.400001525879</ele>
        <time>2016-02-01T20:44:46.000Z</time>
      </trkpt>
      <trkpt lat="48.81281" lon="2.30529">
        <ele>78.599998474121</ele>
        <time>2016-02-01T20:44:49.000Z</time>
      </trkpt>
      <trkpt lat="48.81294" lon="2.30556">
        <ele>78.800003051758</ele>
        <time>2016-02-01T20:44:53.000Z</time>
      </trkpt>
      <trkpt lat="48.81308" lon="2.3058">
        <ele>79.199996948242</ele>
        <time>2016-02-01T20:44:57.000Z</time>
      </trkpt>
      <trkpt lat="48.81322" lon="2.30603">
        <ele>78.199996948242</ele>
        <time>2016-02-01T20:45:01.000Z</time>
      </trkpt>
      <trkpt lat="48.8134" lon="2.30623">
        <ele>77.400001525879</ele>
        <time>2016-02-01T20:45:05.000Z</time>
      </trkpt>
      <trkpt lat="48.81346" lon="2.30628">
        <ele>77</ele>
        <time>2016-02-01T20:45:06.000Z</time>
      </trkpt>
      <trkpt lat="48.8136" lon="2.30648">
        <ele>76.199996948242</ele>
        <time>2016-02-01T20:45:09.000Z</time>
      </trkpt>
      <trkpt lat="48.81369" lon="2.30663">
        <ele>75.599998474121</ele>
        <time>2016-02-01T20:45:11.000Z</time>
      </trkpt>
      <trkpt lat="48.81384" lon="2.30688">
        <ele>75.599998474121</ele>
        <time>2016-02-01T20:45:15.000Z</time>
      </trkpt>
      <trkpt lat="48.81397" lon="2.30708">
        <ele>75.599998474121</ele>
        <time>2016-02-01T20:45:18.000Z</time>
      </trkpt>
      <trkpt lat="48.81413" lon="2.30734">
        <ele>76</ele>
        <time>2016-02-01T20:45:22.000Z</time>
      </trkpt>
      <trkpt lat="48.81424" lon="2.30755">
        <ele>76.199996948242</ele>
        <time>2016-02-01T20:45:25.000Z</time>
      </trkpt>
      <trkpt lat="48.8144" lon="2.30782">
        <ele>76.599998474121</ele>
        <time>2016-02-01T20:45:29.000Z</time>
      </trkpt>
      <trkpt lat="48.81453" lon="2.30809">
        <ele>78.199996948242</ele>
        <time>2016-02-01T20:45:33.000Z</time>
      </trkpt>
      <trkpt lat="48.81466" lon="2.30834">
        <ele>79.400001525879</ele>
        <time>2016-02-01T20:45:37.000Z</time>
      </trkpt>
      <trkpt lat="48.81479" lon="2.30863">
        <ele>79.800003051758</ele>
        <time>2016-02-01T20:45:41.000Z</time>
      </trkpt>
      <trkpt lat="48.81487" lon="2.30882">
        <ele>80.199996948242</ele>
        <time>2016-02-01T20:45:44.000Z</time>
      </trkpt>
      <trkpt lat="48.81506" lon="2.30907">
        <ele>80.400001525879</ele>
        <time>2016-02-01T20:45:48.000Z</time>
      </trkpt>
      <trkpt lat="48.81514" lon="2.30918">
        <ele>80.599998474121</ele>
        <time>2016-02-01T20:45:50.000Z</time>
      </trkpt>
      <trkpt lat="48.81528" lon="2.30942">
        <ele>79.400001525879</ele>
        <time>2016-02-01T20:45:54.000Z</time>
      </trkpt>
      <trkpt lat="48.81535" lon="2.30955">
        <ele>78.599998474121</ele>
        <time>2016-02-01T20:45:56.000Z</time>
      </trkpt>
      <trkpt lat="48.81542" lon="2.30967">
        <ele>77.599998474121</ele>
        <time>2016-02-01T20:45:58.000Z</time>
      </trkpt>
      <trkpt lat="48.81555" lon="2.30993">
        <ele>76</ele>
        <time>2016-02-01T20:46:02.000Z</time>
      </trkpt>
      <trkpt lat="48.81568" lon="2.31021">
        <ele>75.599998474121</ele>
        <time>2016-02-01T20:46:06.000Z</time>
      </trkpt>
      <trkpt lat="48.8158" lon="2.31046">
        <ele>75.599998474121</ele>
        <time>2016-02-01T20:46:10.000Z</time>
      </trkpt>
      <trkpt lat="48.81594" lon="2.31075">
        <ele>75.199996948242</ele>
        <time>2016-02-01T20:46:14.000Z</time>
      </trkpt>
      <trkpt lat="48.81599" lon="2.31085">
        <ele>74.800003051758</ele>
        <time>2016-02-01T20:46:15.000Z</time>
      </trkpt>
      <trkpt lat="48.81607" lon="2.31116">
        <ele>73.800003051758</ele>
        <time>2016-02-01T20:46:19.000Z</time>
      </trkpt>
      <trkpt lat="48.81608" lon="2.31132">
        <ele>73.199996948242</ele>
        <time>2016-02-01T20:46:21.000Z</time>
      </trkpt>
      <trkpt lat="48.81615" lon="2.31153">
        <ele>72.599998474121</ele>
        <time>2016-02-01T20:46:25.000Z</time>
      </trkpt>
      <trkpt lat="48.81616" lon="2.31155">
        <ele>72.400001525879</ele>
        <time>2016-02-01T20:46:26.000Z</time>
      </trkpt>
      <trkpt lat="48.81618" lon="2.31158">
        <ele>72.400001525879</ele>
        <time>2016-02-01T20:46:28.000Z</time>
      </trkpt>
      <trkpt lat="48.81632" lon="2.31173">
        <ele>72.199996948242</ele>
        <time>2016-02-01T20:46:57.000Z</time>
      </trkpt>
      <trkpt lat="48.81636" lon="2.31179">
        <ele>72.199996948242</ele>
        <time>2016-02-01T20:47:00.000Z</time>
      </trkpt>
      <trkpt lat="48.81648" lon="2.31194">
        <ele>72.199996948242</ele>
        <time>2016-02-01T20:47:07.000Z</time>
      </trkpt>
      <trkpt lat="48.81659" lon="2.31216">
        <ele>72</ele>
        <time>2016-02-01T20:47:12.000Z</time>
      </trkpt>
      <trkpt lat="48.81663" lon="2.31243">
        <ele>71.800003051758</ele>
        <time>2016-02-01T20:47:16.000Z</time>
      </trkpt>
      <trkpt lat="48.81668" lon="2.31248">
        <ele>71.800003051758</ele>
        <time>2016-02-01T20:47:17.000Z</time>
      </trkpt>
      <trkpt lat="48.81676" lon="2.3128">
        <ele>71.400001525879</ele>
        <time>2016-02-01T20:47:22.000Z</time>
      </trkpt>
      <trkpt lat="48.81678" lon="2.31288">
        <ele>71.400001525879</ele>
        <time>2016-02-01T20:47:23.000Z</time>
      </trkpt>
      <trkpt lat="48.81684" lon="2.31315">
        <ele>71.199996948242</ele>
        <time>2016-02-01T20:47:27.000Z</time>
      </trkpt>
      <trkpt lat="48.8169" lon="2.31346">
        <ele>70.800003051758</ele>
        <time>2016-02-01T20:47:32.000Z</time>
      </trkpt>
      <trkpt lat="48.81698" lon="2.31378">
        <ele>70.599998474121</ele>
        <time>2016-02-01T20:47:37.000Z</time>
      </trkpt>
      <trkpt lat="48.81701" lon="2.31399">
        <ele>70.400001525879</ele>
        <time>2016-02-01T20:47:40.000Z</time>
      </trkpt>
      <trkpt lat="48.81706" lon="2.31421">
        <ele>70.199996948242</ele>
        <time>2016-02-01T20:47:43.000Z</time>
      </trkpt>
      <trkpt lat="48.81711" lon="2.31435">
        <ele>70</ele>
        <time>2016-02-01T20:47:45.000Z</time>
      </trkpt>
      <trkpt lat="48.81718" lon="2.31463">
        <ele>70</ele>
        <time>2016-02-01T20:47:49.000Z</time>
      </trkpt>
      <trkpt lat="48.81723" lon="2.31484">
        <ele>70</ele>
        <time>2016-02-01T20:47:52.000Z</time>
      </trkpt>
      <trkpt lat="48.81732" lon="2.3151">
        <ele>70.400001525879</ele>
        <time>2016-02-01T20:47:56.000Z</time>
      </trkpt>
      <trkpt lat="48.81734" lon="2.31516">
        <ele>70.599998474121</ele>
        <time>2016-02-01T20:47:57.000Z</time>
      </trkpt>
      <trkpt lat="48.81743" lon="2.31541">
        <ele>71.599998474121</ele>
        <time>2016-02-01T20:48:01.000Z</time>
      </trkpt>
      <trkpt lat="48.81751" lon="2.31569">
        <ele>72.400001525879</ele>
        <time>2016-02-01T20:48:05.000Z</time>
      </trkpt>
      <trkpt lat="48.8176" lon="2.31596">
        <ele>72.599998474121</ele>
        <time>2016-02-01T20:48:09.000Z</time>
      </trkpt>
      <trkpt lat="48.8177" lon="2.31625">
        <ele>72.400001525879</ele>
        <time>2016-02-01T20:48:13.000Z</time>
      </trkpt>
      <trkpt lat="48.81774" lon="2.31638">
        <ele>72.400001525879</ele>
        <time>2016-02-01T20:48:15.000Z</time>
      </trkpt>
      <trkpt lat="48.81783" lon="2.31668">
        <ele>72.199996948242</ele>
        <time>2016-02-01T20:48:19.000Z</time>
      </trkpt>
      <trkpt lat="48.81788" lon="2.31687">
        <ele>72.599998474121</ele>
        <time>2016-02-01T20:48:21.000Z</time>
      </trkpt>
      <trkpt lat="48.81792" lon="2.31715">
        <ele>73.599998474121</ele>
        <time>2016-02-01T20:48:24.000Z</time>
      </trkpt>
      <trkpt lat="48.81798" lon="2.31742">
        <ele>74.599998474121</ele>
        <time>2016-02-01T20:48:27.000Z</time>
      </trkpt>
      <trkpt lat="48.81805" lon="2.31769">
        <ele>75.199996948242</ele>
        <time>2016-02-01T20:48:30.000Z</time>
      </trkpt>
      <trkpt lat="48.81812" lon="2.31795">
        <ele>75.599998474121</ele>
        <time>2016-02-01T20:48:33.000Z</time>
      </trkpt>
      <trkpt lat="48.81819" lon="2.31821">
        <ele>76.199996948242</ele>
        <time>2016-02-01T20:48:36.000Z</time>
      </trkpt>
      <trkpt lat="48.81827" lon="2.31846">
        <ele>76.599998474121</ele>
        <time>2016-02-01T20:48:39.000Z</time>
      </trkpt>
      <trkpt lat="48.81834" lon="2.31871">
        <ele>76.800003051758</ele>
        <time>2016-02-01T20:48:42.000Z</time>
      </trkpt>
      <trkpt lat="48.81845" lon="2.31902">
        <ele>77</ele>
        <time>2016-02-01T20:48:46.000Z</time>
      </trkpt>
      <trkpt lat="48.81848" lon="2.31933">
        <ele>77.199996948242</ele>
        <time>2016-02-01T20:48:50.000Z</time>
      </trkpt>
      <trkpt lat="48.81848" lon="2.31951">
        <ele>77.400001525879</ele>
        <time>2016-02-01T20:48:54.000Z</time>
      </trkpt>
      <trkpt lat="48.81847" lon="2.31956">
        <ele>77.599998474121</ele>
        <time>2016-02-01T20:48:56.000Z</time>
      </trkpt>
      <trkpt lat="48.81844" lon="2.3196">
        <ele>77.599998474121</ele>
        <time>2016-02-01T20:49:00.000Z</time>
      </trkpt>
      <trkpt lat="48.81846" lon="2.31979">
        <ele>77.800003051758</ele>
        <time>2016-02-01T20:49:52.000Z</time>
      </trkpt>
      <trkpt lat="48.81842" lon="2.31993">
        <ele>77.800003051758</ele>
        <time>2016-02-01T20:49:58.000Z</time>
      </trkpt>
      <trkpt lat="48.81842" lon="2.32004">
        <ele>77.599998474121</ele>
        <time>2016-02-01T20:50:02.000Z</time>
      </trkpt>
      <trkpt lat="48.81838" lon="2.32033">
        <ele>77.599998474121</ele>
        <time>2016-02-01T20:50:09.000Z</time>
      </trkpt>
      <trkpt lat="48.81837" lon="2.32064">
        <ele>77.599998474121</ele>
        <time>2016-02-01T20:50:16.000Z</time>
      </trkpt>
      <trkpt lat="48.81837" lon="2.32087">
        <ele>78</ele>
        <time>2016-02-01T20:50:20.000Z</time>
      </trkpt>
      <trkpt lat="48.8183" lon="2.32119">
        <ele>78</ele>
        <time>2016-02-01T20:50:25.000Z</time>
      </trkpt>
      <trkpt lat="48.81826" lon="2.32146">
        <ele>78.199996948242</ele>
        <time>2016-02-01T20:50:29.000Z</time>
      </trkpt>
      <trkpt lat="48.81822" lon="2.32175">
        <ele>78.800003051758</ele>
        <time>2016-02-01T20:50:34.000Z</time>
      </trkpt>
      <trkpt lat="48.81813" lon="2.32202">
        <ele>79</ele>
        <time>2016-02-01T20:50:39.000Z</time>
      </trkpt>
      <trkpt lat="48.81808" lon="2.32234">
        <ele>78.400001525879</ele>
        <time>2016-02-01T20:50:44.000Z</time>
      </trkpt>
      <trkpt lat="48.81808" lon="2.32262">
        <ele>78.400001525879</ele>
        <time>2016-02-01T20:50:48.000Z</time>
      </trkpt>
      <trkpt lat="48.81808" lon="2.32293">
        <ele>79.199996948242</ele>
        <time>2016-02-01T20:50:52.000Z</time>
      </trkpt>
      <trkpt lat="48.81807" lon="2.32325">
        <ele>79.800003051758</ele>
        <time>2016-02-01T20:50:56.000Z</time>
      </trkpt>
      <trkpt lat="48.81803" lon="2.32357">
        <ele>80.599998474121</ele>
        <time>2016-02-01T20:51:00.000Z</time>
      </trkpt>
      <trkpt lat="48.81796" lon="2.32388">
        <ele>80.599998474121</ele>
        <time>2016-02-01T20:51:04.000Z</time>
      </trkpt>
      <trkpt lat="48.81788" lon="2.32417">
        <ele>80.400001525879</ele>
        <time>2016-02-01T20:51:08.000Z</time>
      </trkpt>
      <trkpt lat="48.81782" lon="2.32446">
        <ele>79.400001525879</ele>
        <time>2016-02-01T20:51:12.000Z</time>
      </trkpt>
      <trkpt lat="48.81776" lon="2.32478">
        <ele>78.599998474121</ele>
        <time>2016-02-01T20:51:16.000Z</time>
      </trkpt>
      <trkpt lat="48.81767" lon="2.32508">
        <ele>78.400001525879</ele>
        <time>2016-02-01T20:51:20.000Z</time>
      </trkpt>
      <trkpt lat="48.81763" lon="2.32524">
        <ele>78.599998474121</ele>
        <time>2016-02-01T20:51:22.000Z</time>
      </trkpt>
      <trkpt lat="48.81754" lon="2.32549">
        <ele>79.199996948242</ele>
        <time>2016-02-01T20:51:26.000Z</time>
      </trkpt>
      <trkpt lat="48.81753" lon="2.32553">
        <ele>79.400001525879</ele>
        <time>2016-02-01T20:51:27.000Z</time>
      </trkpt>
      <trkpt lat="48.81753" lon="2.32561">
        <ele>79.400001525879</ele>
        <time>2016-02-01T20:51:31.000Z</time>
      </trkpt>
      <trkpt lat="48.8175" lon="2.3258">
        <ele>79.599998474121</ele>
        <time>2016-02-01T20:52:00.000Z</time>
      </trkpt>
      <trkpt lat="48.81748" lon="2.32613">
        <ele>78.800003051758</ele>
        <time>2016-02-01T20:52:05.000Z</time>
      </trkpt>
      <trkpt lat="48.81746" lon="2.32644">
        <ele>78.199996948242</ele>
        <time>2016-02-01T20:52:09.000Z</time>
      </trkpt>
      <trkpt lat="48.81744" lon="2.32674">
        <ele>77.599998474121</ele>
        <time>2016-02-01T20:52:13.000Z</time>
      </trkpt>
      <trkpt lat="48.81744" lon="2.32681">
        <ele>77.599998474121</ele>
        <time>2016-02-01T20:52:14.000Z</time>
      </trkpt>
      <trkpt lat="48.81743" lon="2.32696">
        <ele>77.599998474121</ele>
        <time>2016-02-01T20:52:16.000Z</time>
      </trkpt>
      <trkpt lat="48.81739" lon="2.32728">
        <ele>77.599998474121</ele>
        <time>2016-02-01T20:52:20.000Z</time>
      </trkpt>
      <trkpt lat="48.81739" lon="2.32745">
        <ele>77.400001525879</ele>
        <time>2016-02-01T20:52:22.000Z</time>
      </trkpt>
      <trkpt lat="48.81742" lon="2.32772">
        <ele>78</ele>
        <time>2016-02-01T20:52:25.000Z</time>
      </trkpt>
      <trkpt lat="48.81742" lon="2.32803">
        <ele>78.599998474121</ele>
        <time>2016-02-01T20:52:28.000Z</time>
      </trkpt>
      <trkpt lat="48.81739" lon="2.32837">
        <ele>78.199996948242</ele>
        <time>2016-02-01T20:52:31.000Z</time>
      </trkpt>
      <trkpt lat="48.81733" lon="2.32869">
        <ele>77.599998474121</ele>
        <time>2016-02-01T20:52:34.000Z</time>
      </trkpt>
      <trkpt lat="48.8173" lon="2.32902">
        <ele>77.199996948242</ele>
        <time>2016-02-01T20:52:37.000Z</time>
      </trkpt>
      <trkpt lat="48.81728" lon="2.32923">
        <ele>77</ele>
        <time>2016-02-01T20:52:39.000Z</time>
      </trkpt>
      <trkpt lat="48.81724" lon="2.32955">
        <ele>77.199996948242</ele>
        <time>2016-02-01T20:52:42.000Z</time>
      </trkpt>
      <trkpt lat="48.81722" lon="2.32966">
        <ele>77.199996948242</ele>
        <time>2016-02-01T20:52:43.000Z</time>
      </trkpt>
      <trkpt lat="48.81721" lon="2.33">
        <ele>77.199996948242</ele>
        <time>2016-02-01T20:52:46.000Z</time>
      </trkpt>
      <trkpt lat="48.81722" lon="2.33033">
        <ele>77.199996948242</ele>
        <time>2016-02-01T20:52:49.000Z</time>
      </trkpt>
      <trkpt lat="48.8172" lon="2.33065">
        <ele>77.199996948242</ele>
        <time>2016-02-01T20:52:52.000Z</time>
      </trkpt>
      <trkpt lat="48.81718" lon="2.33095">
        <ele>78</ele>
        <time>2016-02-01T20:52:55.000Z</time>
      </trkpt>
      <trkpt lat="48.81714" lon="2.33123">
        <ele>79.199996948242</ele>
        <time>2016-02-01T20:52:58.000Z</time>
      </trkpt>
      <trkpt lat="48.81709" lon="2.33157">
        <ele>80.599998474121</ele>
        <time>2016-02-01T20:53:02.000Z</time>
      </trkpt>
      <trkpt lat="48.81706" lon="2.33185">
        <ele>81.199996948242</ele>
        <time>2016-02-01T20:53:06.000Z</time>
      </trkpt>
      <trkpt lat="48.81705" lon="2.33192">
        <ele>81.199996948242</ele>
        <time>2016-02-01T20:53:07.000Z</time>
      </trkpt>
      <trkpt lat="48.81701" lon="2.33216">
        <ele>81.599998474121</ele>
        <time>2016-02-01T20:53:11.000Z</time>
      </trkpt>
      <trkpt lat="48.817" lon="2.33233">
        <ele>82</ele>
        <time>2016-02-01T20:53:14.000Z</time>
      </trkpt>
      <trkpt lat="48.81697" lon="2.33255">
        <ele>82</ele>
        <time>2016-02-01T20:53:18.000Z</time>
      </trkpt>
      <trkpt lat="48.81694" lon="2.33284">
        <ele>82</ele>
        <time>2016-02-01T20:53:23.000Z</time>
      </trkpt>
      <trkpt lat="48.81695" lon="2.33315">
        <ele>82</ele>
        <time>2016-02-01T20:53:28.000Z</time>
      </trkpt>
      <trkpt lat="48.81692" lon="2.33344">
        <ele>81.599998474121</ele>
        <time>2016-02-01T20:53:33.000Z</time>
      </trkpt>
      <trkpt lat="48.81688" lon="2.33371">
        <ele>81</ele>
        <time>2016-02-01T20:53:38.000Z</time>
      </trkpt>
      <trkpt lat="48.81687" lon="2.33377">
        <ele>80.800003051758</ele>
        <time>2016-02-01T20:53:42.000Z</time>
      </trkpt>
      <trkpt lat="48.81688" lon="2.33385">
        <ele>80.599998474121</ele>
        <time>2016-02-01T20:53:46.000Z</time>
      </trkpt>
      <trkpt lat="48.81687" lon="2.33412">
        <ele>80</ele>
        <time>2016-02-01T20:53:53.000Z</time>
      </trkpt>
      <trkpt lat="48.81685" lon="2.33444">
        <ele>79.400001525879</ele>
        <time>2016-02-01T20:53:59.000Z</time>
      </trkpt>
      <trkpt lat="48.81684" lon="2.33473">
        <ele>78.599998474121</ele>
        <time>2016-02-01T20:54:05.000Z</time>
      </trkpt>
      <trkpt lat="48.8168" lon="2.33504">
        <ele>78.199996948242</ele>
        <time>2016-02-01T20:54:12.000Z</time>
      </trkpt>
      <trkpt lat="48.81675" lon="2.33534">
        <ele>78</ele>
        <time>2016-02-01T20:54:20.000Z</time>
      </trkpt>
      <trkpt lat="48.8167" lon="2.33567">
        <ele>77.800003051758</ele>
        <time>2016-02-01T20:54:26.000Z</time>
      </trkpt>
      <trkpt lat="48.81667" lon="2.33598">
        <ele>77.199996948242</ele>
        <time>2016-02-01T20:54:31.000Z</time>
      </trkpt>
      <trkpt lat="48.81662" lon="2.33631">
        <ele>77.400001525879</ele>
        <time>2016-02-01T20:54:36.000Z</time>
      </trkpt>
      <trkpt lat="48.81658" lon="2.33662">
        <ele>76.599998474121</ele>
        <time>2016-02-01T20:54:40.000Z</time>
      </trkpt>
      <trkpt lat="48.81656" lon="2.33696">
        <ele>75.400001525879</ele>
        <time>2016-02-01T20:54:44.000Z</time>
      </trkpt>
      <trkpt lat="48.81655" lon="2.33733">
        <ele>74.400001525879</ele>
        <time>2016-02-01T20:54:48.000Z</time>
      </trkpt>
      <trkpt lat="48.81653" lon="2.33761">
        <ele>74</ele>
        <time>2016-02-01T20:54:51.000Z</time>
      </trkpt>
      <trkpt lat="48.81652" lon="2.3379">
        <ele>74</ele>
        <time>2016-02-01T20:54:54.000Z</time>
      </trkpt>
      <trkpt lat="48.81649" lon="2.33818">
        <ele>74.400001525879</ele>
        <time>2016-02-01T20:54:57.000Z</time>
      </trkpt>
      <trkpt lat="48.81648" lon="2.33846">
        <ele>73.800003051758</ele>
        <time>2016-02-01T20:55:00.000Z</time>
      </trkpt>
      <trkpt lat="48.81646" lon="2.33882">
        <ele>72.400001525879</ele>
        <time>2016-02-01T20:55:04.000Z</time>
      </trkpt>
      <trkpt lat="48.81644" lon="2.3391">
        <ele>71.599998474121</ele>
        <time>2016-02-01T20:55:07.000Z</time>
      </trkpt>
      <trkpt lat="48.81643" lon="2.3394">
        <ele>71.599998474121</ele>
        <time>2016-02-01T20:55:10.000Z</time>
      </trkpt>
      <trkpt lat="48.81641" lon="2.3397">
        <ele>71</ele>
        <time>2016-02-01T20:55:13.000Z</time>
      </trkpt>
      <trkpt lat="48.81639" lon="2.34">
        <ele>70</ele>
        <time>2016-02-01T20:55:16.000Z</time>
      </trkpt>
      <trkpt lat="48.81637" lon="2.34029">
        <ele>70</ele>
        <time>2016-02-01T20:55:19.000Z</time>
      </trkpt>
      <trkpt lat="48.81636" lon="2.34063">
        <ele>69.599998474121</ele>
        <time>2016-02-01T20:55:23.000Z</time>
      </trkpt>
      <trkpt lat="48.81634" lon="2.34096">
        <ele>68.800003051758</ele>
        <time>2016-02-01T20:55:27.000Z</time>
      </trkpt>
      <trkpt lat="48.81632" lon="2.3413">
        <ele>67.199996948242</ele>
        <time>2016-02-01T20:55:31.000Z</time>
      </trkpt>
      <trkpt lat="48.81631" lon="2.34166">
        <ele>65.599998474121</ele>
        <time>2016-02-01T20:55:35.000Z</time>
      </trkpt>
      <trkpt lat="48.81627" lon="2.342">
        <ele>65.199996948242</ele>
        <time>2016-02-01T20:55:39.000Z</time>
      </trkpt>
      <trkpt lat="48.81622" lon="2.34228">
        <ele>66.400001525879</ele>
        <time>2016-02-01T20:55:42.000Z</time>
      </trkpt>
      <trkpt lat="48.81617" lon="2.34255">
        <ele>67.199996948242</ele>
        <time>2016-02-01T20:55:45.000Z</time>
      </trkpt>
      <trkpt lat="48.81611" lon="2.34283">
        <ele>67.599998474121</ele>
        <time>2016-02-01T20:55:48.000Z</time>
      </trkpt>
      <trkpt lat="48.81605" lon="2.3431">
        <ele>68</ele>
        <time>2016-02-01T20:55:51.000Z</time>
      </trkpt>
      <trkpt lat="48.81597" lon="2.34335">
        <ele>67.800003051758</ele>
        <time>2016-02-01T20:55:54.000Z</time>
      </trkpt>
      <trkpt lat="48.81588" lon="2.34363">
        <ele>66.599998474121</ele>
        <time>2016-02-01T20:55:58.000Z</time>
      </trkpt>
      <trkpt lat="48.81587" lon="2.3437">
        <ele>66.400001525879</ele>
        <time>2016-02-01T20:55:59.000Z</time>
      </trkpt>
      <trkpt lat="48.81587" lon="2.34388">
        <ele>65.800003051758</ele>
        <time>2016-02-01T20:56:02.000Z</time>
      </trkpt>
      <trkpt lat="48.81582" lon="2.34409">
        <ele>65</ele>
        <time>2016-02-01T20:56:07.000Z</time>
      </trkpt>
      <trkpt lat="48.8158" lon="2.34419">
        <ele>64.599998474121</ele>
        <time>2016-02-01T20:56:11.000Z</time>
      </trkpt>
      <trkpt lat="48.81579" lon="2.3442">
        <ele>64.599998474121</ele>
        <time>2016-02-01T20:56:12.000Z</time>
      </trkpt>
      <trkpt lat="48.81581" lon="2.34429">
        <ele>64.400001525879</ele>
        <time>2016-02-01T20:56:21.000Z</time>
      </trkpt>
      <trkpt lat="48.81596" lon="2.34437">
        <ele>64.400001525879</ele>
        <time>2016-02-01T20:56:30.000Z</time>
      </trkpt>
      <trkpt lat="48.81597" lon="2.34437">
        <ele>64.400001525879</ele>
        <time>2016-02-01T20:56:31.000Z</time>
      </trkpt>
      <trkpt lat="48.81614" lon="2.34428">
        <ele>64.400001525879</ele>
        <time>2016-02-01T20:56:45.000Z</time>
      </trkpt>
      <trkpt lat="48.81633" lon="2.34414">
        <ele>63</ele>
        <time>2016-02-01T20:56:51.000Z</time>
      </trkpt>
      <trkpt lat="48.81642" lon="2.34412">
        <ele>62.400001525879</ele>
        <time>2016-02-01T20:56:53.000Z</time>
      </trkpt>
      <trkpt lat="48.81659" lon="2.34413">
        <ele>61.200000762939</ele>
        <time>2016-02-01T20:56:56.000Z</time>
      </trkpt>
      <trkpt lat="48.81677" lon="2.34416">
        <ele>59.799999237061</ele>
        <time>2016-02-01T20:57:02.000Z</time>
      </trkpt>
      <trkpt lat="48.81698" lon="2.34418">
        <ele>59.200000762939</ele>
        <time>2016-02-01T20:57:10.000Z</time>
      </trkpt>
      <trkpt lat="48.81719" lon="2.34419">
        <ele>60</ele>
        <time>2016-02-01T20:57:16.000Z</time>
      </trkpt>
      <trkpt lat="48.81738" lon="2.3442">
        <ele>60.599998474121</ele>
        <time>2016-02-01T20:57:20.000Z</time>
      </trkpt>
      <trkpt lat="48.81757" lon="2.34423">
        <ele>61.400001525879</ele>
        <time>2016-02-01T20:57:24.000Z</time>
      </trkpt>
      <trkpt lat="48.81779" lon="2.34421">
        <ele>62.200000762939</ele>
        <time>2016-02-01T20:57:28.000Z</time>
      </trkpt>
      <trkpt lat="48.818" lon="2.34421">
        <ele>63.200000762939</ele>
        <time>2016-02-01T20:57:32.000Z</time>
      </trkpt>
      <trkpt lat="48.81811" lon="2.3442">
        <ele>63.799999237061</ele>
        <time>2016-02-01T20:57:34.000Z</time>
      </trkpt>
      <trkpt lat="48.81835" lon="2.34419">
        <ele>65</ele>
        <time>2016-02-01T20:57:38.000Z</time>
      </trkpt>
      <trkpt lat="48.81853" lon="2.3442">
        <ele>65.800003051758</ele>
        <time>2016-02-01T20:57:41.000Z</time>
      </trkpt>
      <trkpt lat="48.81859" lon="2.3442">
        <ele>65.800003051758</ele>
        <time>2016-02-01T20:57:42.000Z</time>
      </trkpt>
      <trkpt lat="48.81882" lon="2.34425">
        <ele>65.599998474121</ele>
        <time>2016-02-01T20:57:46.000Z</time>
      </trkpt>
      <trkpt lat="48.81901" lon="2.34443">
        <ele>65</ele>
        <time>2016-02-01T20:57:51.000Z</time>
      </trkpt>
      <trkpt lat="48.81911" lon="2.34458">
        <ele>64.400001525879</ele>
        <time>2016-02-01T20:57:55.000Z</time>
      </trkpt>
      <trkpt lat="48.81916" lon="2.34461">
        <ele>64.400001525879</ele>
        <time>2016-02-01T20:57:57.000Z</time>
      </trkpt>
      <trkpt lat="48.81927" lon="2.34468">
        <ele>64</ele>
        <time>2016-02-01T20:58:01.000Z</time>
      </trkpt>
      <trkpt lat="48.81933" lon="2.34471">
        <ele>64</ele>
        <time>2016-02-01T20:58:05.000Z</time>
      </trkpt>
      <trkpt lat="48.81945" lon="2.34466">
        <ele>64</ele>
        <time>2016-02-01T20:58:24.000Z</time>
      </trkpt>
      <trkpt lat="48.81957" lon="2.34463">
        <ele>63.799999237061</ele>
        <time>2016-02-01T20:59:05.000Z</time>
      </trkpt>
      <trkpt lat="48.81973" lon="2.34449">
        <ele>64</ele>
        <time>2016-02-01T20:59:12.000Z</time>
      </trkpt>
      <trkpt lat="48.81989" lon="2.34433">
        <ele>63.799999237061</ele>
        <time>2016-02-01T20:59:17.000Z</time>
      </trkpt>
      <trkpt lat="48.82008" lon="2.34417">
        <ele>63.400001525879</ele>
        <time>2016-02-01T20:59:22.000Z</time>
      </trkpt>
      <trkpt lat="48.82025" lon="2.34403">
        <ele>63.400001525879</ele>
        <time>2016-02-01T20:59:27.000Z</time>
      </trkpt>
      <trkpt lat="48.82041" lon="2.3439">
        <ele>62.799999237061</ele>
        <time>2016-02-01T20:59:32.000Z</time>
      </trkpt>
      <trkpt lat="48.82061" lon="2.34372">
        <ele>62.200000762939</ele>
        <time>2016-02-01T20:59:37.000Z</time>
      </trkpt>
      <trkpt lat="48.82078" lon="2.3435">
        <ele>60.200000762939</ele>
        <time>2016-02-01T20:59:41.000Z</time>
      </trkpt>
      <trkpt lat="48.82092" lon="2.3433">
        <ele>58.599998474121</ele>
        <time>2016-02-01T20:59:44.000Z</time>
      </trkpt>
      <trkpt lat="48.82104" lon="2.34309">
        <ele>58.400001525879</ele>
        <time>2016-02-01T20:59:47.000Z</time>
      </trkpt>
      <trkpt lat="48.82116" lon="2.34288">
        <ele>59.200000762939</ele>
        <time>2016-02-01T20:59:50.000Z</time>
      </trkpt>
      <trkpt lat="48.82134" lon="2.34264">
        <ele>59.799999237061</ele>
        <time>2016-02-01T20:59:54.000Z</time>
      </trkpt>
      <trkpt lat="48.82151" lon="2.34245">
        <ele>60</ele>
        <time>2016-02-01T20:59:58.000Z</time>
      </trkpt>
      <trkpt lat="48.8217" lon="2.34227">
        <ele>59.799999237061</ele>
        <time>2016-02-01T21:00:02.000Z</time>
      </trkpt>
      <trkpt lat="48.82191" lon="2.34213">
        <ele>58.799999237061</ele>
        <time>2016-02-01T21:00:06.000Z</time>
      </trkpt>
      <trkpt lat="48.82211" lon="2.342">
        <ele>58.799999237061</ele>
        <time>2016-02-01T21:00:10.000Z</time>
      </trkpt>
      <trkpt lat="48.82228" lon="2.34186">
        <ele>58.799999237061</ele>
        <time>2016-02-01T21:00:13.000Z</time>
      </trkpt>
      <trkpt lat="48.82245" lon="2.34176">
        <ele>58.400001525879</ele>
        <time>2016-02-01T21:00:16.000Z</time>
      </trkpt>
      <trkpt lat="48.82265" lon="2.34165">
        <ele>58.200000762939</ele>
        <time>2016-02-01T21:00:19.000Z</time>
      </trkpt>
      <trkpt lat="48.82284" lon="2.34156">
        <ele>58.200000762939</ele>
        <time>2016-02-01T21:00:22.000Z</time>
      </trkpt>
      <trkpt lat="48.82303" lon="2.34147">
        <ele>58.599998474121</ele>
        <time>2016-02-01T21:00:25.000Z</time>
      </trkpt>
      <trkpt lat="48.82323" lon="2.34137">
        <ele>59</ele>
        <time>2016-02-01T21:00:28.000Z</time>
      </trkpt>
      <trkpt lat="48.82342" lon="2.34132">
        <ele>58.799999237061</ele>
        <time>2016-02-01T21:00:31.000Z</time>
      </trkpt>
      <trkpt lat="48.82364" lon="2.34128">
        <ele>58</ele>
        <time>2016-02-01T21:00:35.000Z</time>
      </trkpt>
      <trkpt lat="48.82383" lon="2.34126">
        <ele>56.599998474121</ele>
        <time>2016-02-01T21:00:38.000Z</time>
      </trkpt>
      <trkpt lat="48.82402" lon="2.34126">
        <ele>55.200000762939</ele>
        <time>2016-02-01T21:00:41.000Z</time>
      </trkpt>
      <trkpt lat="48.82424" lon="2.34129">
        <ele>54.200000762939</ele>
        <time>2016-02-01T21:00:45.000Z</time>
      </trkpt>
      <trkpt lat="48.82446" lon="2.34135">
        <ele>53</ele>
        <time>2016-02-01T21:00:49.000Z</time>
      </trkpt>
      <trkpt lat="48.82469" lon="2.34138">
        <ele>51.400001525879</ele>
        <time>2016-02-01T21:00:53.000Z</time>
      </trkpt>
      <trkpt lat="48.82492" lon="2.34143">
        <ele>50</ele>
        <time>2016-02-01T21:00:57.000Z</time>
      </trkpt>
      <trkpt lat="48.8251" lon="2.34148">
        <ele>49.200000762939</ele>
        <time>2016-02-01T21:01:00.000Z</time>
      </trkpt>
      <trkpt lat="48.82533" lon="2.3415">
        <ele>49.400001525879</ele>
        <time>2016-02-01T21:01:04.000Z</time>
      </trkpt>
      <trkpt lat="48.82553" lon="2.34156">
        <ele>49.200000762939</ele>
        <time>2016-02-01T21:01:08.000Z</time>
      </trkpt>
      <trkpt lat="48.82573" lon="2.34155">
        <ele>49.400001525879</ele>
        <time>2016-02-01T21:01:12.000Z</time>
      </trkpt>
      <trkpt lat="48.82587" lon="2.34155">
        <ele>49.599998474121</ele>
        <time>2016-02-01T21:01:15.000Z</time>
      </trkpt>
      <trkpt lat="48.82606" lon="2.34149">
        <ele>50.400001525879</ele>
        <time>2016-02-01T21:01:19.000Z</time>
      </trkpt>
      <trkpt lat="48.82615" lon="2.34147">
        <ele>50.599998474121</ele>
        <time>2016-02-01T21:01:21.000Z</time>
      </trkpt>
      <trkpt lat="48.82619" lon="2.34147">
        <ele>50.799999237061</ele>
        <time>2016-02-01T21:01:22.000Z</time>
      </trkpt>
      <trkpt lat="48.82635" lon="2.3415">
        <ele>50.799999237061</ele>
        <time>2016-02-01T21:01:27.000Z</time>
      </trkpt>
      <trkpt lat="48.82643" lon="2.34161">
        <ele>50.200000762939</ele>
        <time>2016-02-01T21:01:33.000Z</time>
      </trkpt>
      <trkpt lat="48.82661" lon="2.34162">
        <ele>50.400001525879</ele>
        <time>2016-02-01T21:01:38.000Z</time>
      </trkpt>
      <trkpt lat="48.82664" lon="2.34163">
        <ele>50.599998474121</ele>
        <time>2016-02-01T21:01:39.000Z</time>
      </trkpt>
      <trkpt lat="48.82686" lon="2.34168">
        <ele>50.799999237061</ele>
        <time>2016-02-01T21:01:44.000Z</time>
      </trkpt>
      <trkpt lat="48.82696" lon="2.34169">
        <ele>50.799999237061</ele>
        <time>2016-02-01T21:01:46.000Z</time>
      </trkpt>
      <trkpt lat="48.82714" lon="2.34173">
        <ele>50.599998474121</ele>
        <time>2016-02-01T21:01:49.000Z</time>
      </trkpt>
      <trkpt lat="48.82738" lon="2.34175">
        <ele>50.400001525879</ele>
        <time>2016-02-01T21:01:52.000Z</time>
      </trkpt>
      <trkpt lat="48.82764" lon="2.34174">
        <ele>50.599998474121</ele>
        <time>2016-02-01T21:01:55.000Z</time>
      </trkpt>
      <trkpt lat="48.82788" lon="2.34173">
        <ele>50.799999237061</ele>
        <time>2016-02-01T21:01:58.000Z</time>
      </trkpt>
      <trkpt lat="48.82807" lon="2.34178">
        <ele>50.799999237061</ele>
        <time>2016-02-01T21:02:01.000Z</time>
      </trkpt>
      <trkpt lat="48.82826" lon="2.34186">
        <ele>50.799999237061</ele>
        <time>2016-02-01T21:02:04.000Z</time>
      </trkpt>
      <trkpt lat="48.82842" lon="2.34203">
        <ele>50.599998474121</ele>
        <time>2016-02-01T21:02:06.000Z</time>
      </trkpt>
      <trkpt lat="48.82858" lon="2.34229">
        <ele>50.200000762939</ele>
        <time>2016-02-01T21:02:08.000Z</time>
      </trkpt>
      <trkpt lat="48.82873" lon="2.34248">
        <ele>49.599998474121</ele>
        <time>2016-02-01T21:02:11.000Z</time>
      </trkpt>
      <trkpt lat="48.82888" lon="2.34266">
        <ele>48.599998474121</ele>
        <time>2016-02-01T21:02:14.000Z</time>
      </trkpt>
      <trkpt lat="48.82893" lon="2.34271">
        <ele>48.200000762939</ele>
        <time>2016-02-01T21:02:15.000Z</time>
      </trkpt>
      <trkpt lat="48.82911" lon="2.34289">
        <ele>47.200000762939</ele>
        <time>2016-02-01T21:02:19.000Z</time>
      </trkpt>
      <trkpt lat="48.82931" lon="2.34303">
        <ele>46.200000762939</ele>
        <time>2016-02-01T21:02:23.000Z</time>
      </trkpt>
      <trkpt lat="48.82951" lon="2.34317">
        <ele>45.400001525879</ele>
        <time>2016-02-01T21:02:27.000Z</time>
      </trkpt>
      <trkpt lat="48.82957" lon="2.3432">
        <ele>45.200000762939</ele>
        <time>2016-02-01T21:02:28.000Z</time>
      </trkpt>
      <trkpt lat="48.82968" lon="2.34327">
        <ele>44.799999237061</ele>
        <time>2016-02-01T21:02:30.000Z</time>
      </trkpt>
      <trkpt lat="48.8299" lon="2.3434">
        <ele>44.400001525879</ele>
        <time>2016-02-01T21:02:34.000Z</time>
      </trkpt>
      <trkpt lat="48.83008" lon="2.34349">
        <ele>44.200000762939</ele>
        <time>2016-02-01T21:02:37.000Z</time>
      </trkpt>
      <trkpt lat="48.83027" lon="2.34362">
        <ele>44.200000762939</ele>
        <time>2016-02-01T21:02:41.000Z</time>
      </trkpt>
      <trkpt lat="48.83045" lon="2.34375">
        <ele>45.400001525879</ele>
        <time>2016-02-01T21:02:45.000Z</time>
      </trkpt>
      <trkpt lat="48.83062" lon="2.34384">
        <ele>46.400001525879</ele>
        <time>2016-02-01T21:02:49.000Z</time>
      </trkpt>
      <trkpt lat="48.83077" lon="2.34391">
        <ele>47.200000762939</ele>
        <time>2016-02-01T21:02:53.000Z</time>
      </trkpt>
      <trkpt lat="48.83087" lon="2.34397">
        <ele>47.799999237061</ele>
        <time>2016-02-01T21:02:57.000Z</time>
      </trkpt>
      <trkpt lat="48.83099" lon="2.34397">
        <ele>48.599998474121</ele>
        <time>2016-02-01T21:03:02.000Z</time>
      </trkpt>
      <trkpt lat="48.83109" lon="2.34415">
        <ele>49</ele>
        <time>2016-02-01T21:03:18.000Z</time>
      </trkpt>
      <trkpt lat="48.83127" lon="2.34418">
        <ele>49</ele>
        <time>2016-02-01T21:03:25.000Z</time>
      </trkpt>
      <trkpt lat="48.83145" lon="2.34427">
        <ele>49.200000762939</ele>
        <time>2016-02-01T21:03:31.000Z</time>
      </trkpt>
      <trkpt lat="48.83157" lon="2.34431">
        <ele>49.200000762939</ele>
        <time>2016-02-01T21:03:34.000Z</time>
      </trkpt>
      <trkpt lat="48.83179" lon="2.34438">
        <ele>49.200000762939</ele>
        <time>2016-02-01T21:03:38.000Z</time>
      </trkpt>
      <trkpt lat="48.83198" lon="2.34443">
        <ele>49.400001525879</ele>
        <time>2016-02-01T21:03:41.000Z</time>
      </trkpt>
      <trkpt lat="48.83211" lon="2.34446">
        <ele>49.400001525879</ele>
        <time>2016-02-01T21:03:43.000Z</time>
      </trkpt>
      <trkpt lat="48.83231" lon="2.34446">
        <ele>49.200000762939</ele>
        <time>2016-02-01T21:03:46.000Z</time>
      </trkpt>
      <trkpt lat="48.83251" lon="2.34448">
        <ele>49</ele>
        <time>2016-02-01T21:03:50.000Z</time>
      </trkpt>
      <trkpt lat="48.83269" lon="2.34451">
        <ele>49</ele>
        <time>2016-02-01T21:03:54.000Z</time>
      </trkpt>
      <trkpt lat="48.83292" lon="2.34455">
        <ele>49.200000762939</ele>
        <time>2016-02-01T21:03:59.000Z</time>
      </trkpt>
      <trkpt lat="48.83311" lon="2.34458">
        <ele>49.599998474121</ele>
        <time>2016-02-01T21:04:03.000Z</time>
      </trkpt>
      <trkpt lat="48.83329" lon="2.34462">
        <ele>50</ele>
        <time>2016-02-01T21:04:07.000Z</time>
      </trkpt>
      <trkpt lat="48.83338" lon="2.34464">
        <ele>50.400001525879</ele>
        <time>2016-02-01T21:04:09.000Z</time>
      </trkpt>
      <trkpt lat="48.83359" lon="2.34467">
        <ele>51</ele>
        <time>2016-02-01T21:04:14.000Z</time>
      </trkpt>
      <trkpt lat="48.83364" lon="2.34467">
        <ele>50.799999237061</ele>
        <time>2016-02-01T21:04:15.000Z</time>
      </trkpt>
      <trkpt lat="48.83384" lon="2.34465">
        <ele>50.400001525879</ele>
        <time>2016-02-01T21:04:19.000Z</time>
      </trkpt>
      <trkpt lat="48.83405" lon="2.34463">
        <ele>49.799999237061</ele>
        <time>2016-02-01T21:04:23.000Z</time>
      </trkpt>
      <trkpt lat="48.83415" lon="2.34465">
        <ele>49.799999237061</ele>
        <time>2016-02-01T21:04:25.000Z</time>
      </trkpt>
      <trkpt lat="48.83433" lon="2.34473">
        <ele>49.799999237061</ele>
        <time>2016-02-01T21:04:29.000Z</time>
      </trkpt>
      <trkpt lat="48.83452" lon="2.3448">
        <ele>50.200000762939</ele>
        <time>2016-02-01T21:04:34.000Z</time>
      </trkpt>
      <trkpt lat="48.83455" lon="2.34482">
        <ele>50.200000762939</ele>
        <time>2016-02-01T21:04:35.000Z</time>
      </trkpt>
      <trkpt lat="48.83471" lon="2.34478">
        <ele>50.799999237061</ele>
        <time>2016-02-01T21:04:39.000Z</time>
      </trkpt>
      <trkpt lat="48.83478" lon="2.34482">
        <ele>51</ele>
        <time>2016-02-01T21:04:41.000Z</time>
      </trkpt>
      <trkpt lat="48.83497" lon="2.34478">
        <ele>51.799999237061</ele>
        <time>2016-02-01T21:04:46.000Z</time>
      </trkpt>
      <trkpt lat="48.83501" lon="2.34479">
        <ele>52</ele>
        <time>2016-02-01T21:04:47.000Z</time>
      </trkpt>
      <trkpt lat="48.83519" lon="2.34488">
        <ele>52.200000762939</ele>
        <time>2016-02-01T21:04:52.000Z</time>
      </trkpt>
      <trkpt lat="48.83538" lon="2.34496">
        <ele>51.599998474121</ele>
        <time>2016-02-01T21:04:56.000Z</time>
      </trkpt>
      <trkpt lat="48.83558" lon="2.34503">
        <ele>51</ele>
        <time>2016-02-01T21:05:00.000Z</time>
      </trkpt>
      <trkpt lat="48.83578" lon="2.34512">
        <ele>50.400001525879</ele>
        <time>2016-02-01T21:05:03.000Z</time>
      </trkpt>
      <trkpt lat="48.83601" lon="2.34519">
        <ele>49.799999237061</ele>
        <time>2016-02-01T21:05:06.000Z</time>
      </trkpt>
      <trkpt lat="48.83626" lon="2.34528">
        <ele>48.599998474121</ele>
        <time>2016-02-01T21:05:09.000Z</time>
      </trkpt>
      <trkpt lat="48.83651" lon="2.34532">
        <ele>48.200000762939</ele>
        <time>2016-02-01T21:05:12.000Z</time>
      </trkpt>
      <trkpt lat="48.83677" lon="2.34536">
        <ele>48.400001525879</ele>
        <time>2016-02-01T21:05:15.000Z</time>
      </trkpt>
      <trkpt lat="48.837" lon="2.3454">
        <ele>49</ele>
        <time>2016-02-01T21:05:18.000Z</time>
      </trkpt>
      <trkpt lat="48.83718" lon="2.34544">
        <ele>49.599998474121</ele>
        <time>2016-02-01T21:05:21.000Z</time>
      </trkpt>
      <trkpt lat="48.83731" lon="2.34547">
        <ele>49.799999237061</ele>
        <time>2016-02-01T21:05:23.000Z</time>
      </trkpt>
      <trkpt lat="48.83747" lon="2.34547">
        <ele>50.200000762939</ele>
        <time>2016-02-01T21:05:26.000Z</time>
      </trkpt>
      <trkpt lat="48.83753" lon="2.34553">
        <ele>50</ele>
        <time>2016-02-01T21:05:28.000Z</time>
      </trkpt>
      <trkpt lat="48.83761" lon="2.34559">
        <ele>49.799999237061</ele>
        <time>2016-02-01T21:05:32.000Z</time>
      </trkpt>
      <trkpt lat="48.83765" lon="2.34563">
        <ele>49.799999237061</ele>
        <time>2016-02-01T21:05:35.000Z</time>
      </trkpt>
      <trkpt lat="48.8378" lon="2.3455">
        <ele>50.799999237061</ele>
        <time>2016-02-01T21:05:57.000Z</time>
      </trkpt>
      <trkpt lat="48.83802" lon="2.34553">
        <ele>51.799999237061</ele>
        <time>2016-02-01T21:06:02.000Z</time>
      </trkpt>
      <trkpt lat="48.83823" lon="2.34557">
        <ele>52.599998474121</ele>
        <time>2016-02-01T21:06:06.000Z</time>
      </trkpt>
      <trkpt lat="48.83843" lon="2.34558">
        <ele>52.799999237061</ele>
        <time>2016-02-01T21:06:10.000Z</time>
      </trkpt>
      <trkpt lat="48.83863" lon="2.34564">
        <ele>52.599998474121</ele>
        <time>2016-02-01T21:06:15.000Z</time>
      </trkpt>
      <trkpt lat="48.83884" lon="2.34571">
        <ele>52.799999237061</ele>
        <time>2016-02-01T21:06:19.000Z</time>
      </trkpt>
      <trkpt lat="48.83908" lon="2.34578">
        <ele>53</ele>
        <time>2016-02-01T21:06:23.000Z</time>
      </trkpt>
      <trkpt lat="48.83928" lon="2.34585">
        <ele>52.799999237061</ele>
        <time>2016-02-01T21:06:26.000Z</time>
      </trkpt>
      <trkpt lat="48.83949" lon="2.34587">
        <ele>53.200000762939</ele>
        <time>2016-02-01T21:06:29.000Z</time>
      </trkpt>
      <trkpt lat="48.83968" lon="2.34588">
        <ele>53.799999237061</ele>
        <time>2016-02-01T21:06:32.000Z</time>
      </trkpt>
      <trkpt lat="48.83989" lon="2.34591">
        <ele>54.599998474121</ele>
        <time>2016-02-01T21:06:35.000Z</time>
      </trkpt>
      <trkpt lat="48.84012" lon="2.34594">
        <ele>55.400001525879</ele>
        <time>2016-02-01T21:06:39.000Z</time>
      </trkpt>
      <trkpt lat="48.8402" lon="2.34591">
        <ele>55.599998474121</ele>
        <time>2016-02-01T21:06:44.000Z</time>
      </trkpt>
      <trkpt lat="48.84032" lon="2.34584">
        <ele>56.200000762939</ele>
        <time>2016-02-01T21:07:00.000Z</time>
      </trkpt>
      <trkpt lat="48.84044" lon="2.34558">
        <ele>55.599998474121</ele>
        <time>2016-02-01T21:07:08.000Z</time>
      </trkpt>
      <trkpt lat="48.84056" lon="2.34532">
        <ele>55</ele>
        <time>2016-02-01T21:07:13.000Z</time>
      </trkpt>
      <trkpt lat="48.84069" lon="2.34506">
        <ele>55.400001525879</ele>
        <time>2016-02-01T21:07:17.000Z</time>
      </trkpt>
      <trkpt lat="48.84081" lon="2.34481">
        <ele>55.599998474121</ele>
        <time>2016-02-01T21:07:20.000Z</time>
      </trkpt>
      <trkpt lat="48.84093" lon="2.34454">
        <ele>56.599998474121</ele>
        <time>2016-02-01T21:07:23.000Z</time>
      </trkpt>
      <trkpt lat="48.84105" lon="2.34425">
        <ele>57.799999237061</ele>
        <time>2016-02-01T21:07:27.000Z</time>
      </trkpt>
      <trkpt lat="48.84116" lon="2.34398">
        <ele>58.400001525879</ele>
        <time>2016-02-01T21:07:31.000Z</time>
      </trkpt>
      <trkpt lat="48.8412" lon="2.34391">
        <ele>58.599998474121</ele>
        <time>2016-02-01T21:07:32.000Z</time>
      </trkpt>
      <trkpt lat="48.84126" lon="2.3438">
        <ele>58.799999237061</ele>
        <time>2016-02-01T21:07:34.000Z</time>
      </trkpt>
      <trkpt lat="48.84137" lon="2.34366">
        <ele>59.400001525879</ele>
        <time>2016-02-01T21:07:37.000Z</time>
      </trkpt>
      <trkpt lat="48.84154" lon="2.34354">
        <ele>59.799999237061</ele>
        <time>2016-02-01T21:07:41.000Z</time>
      </trkpt>
      <trkpt lat="48.84169" lon="2.3434">
        <ele>60.400001525879</ele>
        <time>2016-02-01T21:07:45.000Z</time>
      </trkpt>
      <trkpt lat="48.84186" lon="2.34332">
        <ele>61</ele>
        <time>2016-02-01T21:07:49.000Z</time>
      </trkpt>
      <trkpt lat="48.84197" lon="2.34321">
        <ele>61.200000762939</ele>
        <time>2016-02-01T21:07:52.000Z</time>
      </trkpt>
      <trkpt lat="48.84214" lon="2.34312">
        <ele>61.599998474121</ele>
        <time>2016-02-01T21:07:57.000Z</time>
      </trkpt>
      <trkpt lat="48.84235" lon="2.34297">
        <ele>62</ele>
        <time>2016-02-01T21:08:03.000Z</time>
      </trkpt>
      <trkpt lat="48.8424" lon="2.34292">
        <ele>62.200000762939</ele>
        <time>2016-02-01T21:08:04.000Z</time>
      </trkpt>
      <trkpt lat="48.84258" lon="2.34276">
        <ele>63</ele>
        <time>2016-02-01T21:08:08.000Z</time>
      </trkpt>
      <trkpt lat="48.84278" lon="2.34263">
        <ele>63.799999237061</ele>
        <time>2016-02-01T21:08:13.000Z</time>
      </trkpt>
      <trkpt lat="48.84288" lon="2.34257">
        <ele>63.799999237061</ele>
        <time>2016-02-01T21:08:15.000Z</time>
      </trkpt>
      <trkpt lat="48.84306" lon="2.34246">
        <ele>63.200000762939</ele>
        <time>2016-02-01T21:08:19.000Z</time>
      </trkpt>
      <trkpt lat="48.84316" lon="2.34244">
        <ele>63</ele>
        <time>2016-02-01T21:08:22.000Z</time>
      </trkpt>
      <trkpt lat="48.84336" lon="2.3424">
        <ele>62.599998474121</ele>
        <time>2016-02-01T21:08:28.000Z</time>
      </trkpt>
      <trkpt lat="48.84339" lon="2.34239">
        <ele>62.599998474121</ele>
        <time>2016-02-01T21:08:29.000Z</time>
      </trkpt>
      <trkpt lat="48.84349" lon="2.34236">
        <ele>62.200000762939</ele>
        <time>2016-02-01T21:08:32.000Z</time>
      </trkpt>
      <trkpt lat="48.84368" lon="2.34228">
        <ele>62.400001525879</ele>
        <time>2016-02-01T21:08:37.000Z</time>
      </trkpt>
      <trkpt lat="48.84388" lon="2.34219">
        <ele>63.200000762939</ele>
        <time>2016-02-01T21:08:42.000Z</time>
      </trkpt>
      <trkpt lat="48.84408" lon="2.3421">
        <ele>63.799999237061</ele>
        <time>2016-02-01T21:08:48.000Z</time>
      </trkpt>
      <trkpt lat="48.84431" lon="2.34199">
        <ele>63.799999237061</ele>
        <time>2016-02-01T21:09:21.000Z</time>
      </trkpt>
      <trkpt lat="48.84451" lon="2.34191">
        <ele>64.199996948242</ele>
        <time>2016-02-01T21:09:29.000Z</time>
      </trkpt>
      <trkpt lat="48.84471" lon="2.34179">
        <ele>65</ele>
        <time>2016-02-01T21:09:35.000Z</time>
      </trkpt>
      <trkpt lat="48.8449" lon="2.3417">
        <ele>65.599998474121</ele>
        <time>2016-02-01T21:09:41.000Z</time>
      </trkpt>
      <trkpt lat="48.8451" lon="2.3416">
        <ele>66.400001525879</ele>
        <time>2016-02-01T21:09:46.000Z</time>
      </trkpt>
      <trkpt lat="48.8453" lon="2.34151">
        <ele>67</ele>
        <time>2016-02-01T21:09:50.000Z</time>
      </trkpt>
      <trkpt lat="48.84549" lon="2.3414">
        <ele>67</ele>
        <time>2016-02-01T21:09:54.000Z</time>
      </trkpt>
      <trkpt lat="48.84571" lon="2.34126">
        <ele>67</ele>
        <time>2016-02-01T21:09:58.000Z</time>
      </trkpt>
      <trkpt lat="48.84589" lon="2.34116">
        <ele>66.199996948242</ele>
        <time>2016-02-01T21:10:02.000Z</time>
      </trkpt>
      <trkpt lat="48.84611" lon="2.34105">
        <ele>65</ele>
        <time>2016-02-01T21:10:07.000Z</time>
      </trkpt>
      <trkpt lat="48.84628" lon="2.34096">
        <ele>64.199996948242</ele>
        <time>2016-02-01T21:10:11.000Z</time>
      </trkpt>
      <trkpt lat="48.84632" lon="2.34094">
        <ele>63.799999237061</ele>
        <time>2016-02-01T21:10:12.000Z</time>
      </trkpt>
      <trkpt lat="48.84652" lon="2.34083">
        <ele>62.400001525879</ele>
        <time>2016-02-01T21:10:17.000Z</time>
      </trkpt>
      <trkpt lat="48.84669" lon="2.34073">
        <ele>61.599998474121</ele>
        <time>2016-02-01T21:10:21.000Z</time>
      </trkpt>
      <trkpt lat="48.8469" lon="2.34063">
        <ele>59</ele>
        <time>2016-02-01T21:10:26.000Z</time>
      </trkpt>
      <trkpt lat="48.84699" lon="2.3406">
        <ele>58.400001525879</ele>
        <time>2016-02-01T21:10:28.000Z</time>
      </trkpt>
      <trkpt lat="48.84719" lon="2.34067">
        <ele>58.599998474121</ele>
        <time>2016-02-01T21:10:33.000Z</time>
      </trkpt>
      <trkpt lat="48.84733" lon="2.34082">
        <ele>59.400001525879</ele>
        <time>2016-02-01T21:10:39.000Z</time>
      </trkpt>
      <trkpt lat="48.84735" lon="2.34084">
        <ele>59.400001525879</ele>
        <time>2016-02-01T21:10:40.000Z</time>
      </trkpt>
      <trkpt lat="48.8474" lon="2.34086">
        <ele>59.200000762939</ele>
        <time>2016-02-01T21:10:42.000Z</time>
      </trkpt>
      <trkpt lat="48.8476" lon="2.34098">
        <ele>58.799999237061</ele>
        <time>2016-02-01T21:10:48.000Z</time>
      </trkpt>
      <trkpt lat="48.84779" lon="2.34106">
        <ele>58.599998474121</ele>
        <time>2016-02-01T21:10:52.000Z</time>
      </trkpt>
      <trkpt lat="48.84799" lon="2.34115">
        <ele>59.200000762939</ele>
        <time>2016-02-01T21:10:56.000Z</time>
      </trkpt>
      <trkpt lat="48.84823" lon="2.34123">
        <ele>59.799999237061</ele>
        <time>2016-02-01T21:11:00.000Z</time>
      </trkpt>
      <trkpt lat="48.84841" lon="2.3413">
        <ele>60.200000762939</ele>
        <time>2016-02-01T21:11:03.000Z</time>
      </trkpt>
      <trkpt lat="48.8486" lon="2.34136">
        <ele>60.400001525879</ele>
        <time>2016-02-01T21:11:06.000Z</time>
      </trkpt>
      <trkpt lat="48.84877" lon="2.3415">
        <ele>59.599998474121</ele>
        <time>2016-02-01T21:11:09.000Z</time>
      </trkpt>
      <trkpt lat="48.84894" lon="2.34164">
        <ele>58.799999237061</ele>
        <time>2016-02-01T21:11:12.000Z</time>
      </trkpt>
      <trkpt lat="48.84916" lon="2.34175">
        <ele>57.599998474121</ele>
        <time>2016-02-01T21:11:15.000Z</time>
      </trkpt>
      <trkpt lat="48.84941" lon="2.34187">
        <ele>56.200000762939</ele>
        <time>2016-02-01T21:11:18.000Z</time>
      </trkpt>
      <trkpt lat="48.84964" lon="2.34199">
        <ele>55.200000762939</ele>
        <time>2016-02-01T21:11:21.000Z</time>
      </trkpt>
      <trkpt lat="48.84985" lon="2.34213">
        <ele>54.400001525879</ele>
        <time>2016-02-01T21:11:24.000Z</time>
      </trkpt>
      <trkpt lat="48.85005" lon="2.34223">
        <ele>53.400001525879</ele>
        <time>2016-02-01T21:11:27.000Z</time>
      </trkpt>
      <trkpt lat="48.85021" lon="2.34238">
        <ele>52.799999237061</ele>
        <time>2016-02-01T21:11:30.000Z</time>
      </trkpt>
      <trkpt lat="48.8504" lon="2.34253">
        <ele>52</ele>
        <time>2016-02-01T21:11:33.000Z</time>
      </trkpt>
      <trkpt lat="48.85059" lon="2.34266">
        <ele>50.799999237061</ele>
        <time>2016-02-01T21:11:36.000Z</time>
      </trkpt>
      <trkpt lat="48.85077" lon="2.34283">
        <ele>49.599998474121</ele>
        <time>2016-02-01T21:11:39.000Z</time>
      </trkpt>
      <trkpt lat="48.85097" lon="2.34294">
        <ele>48.400001525879</ele>
        <time>2016-02-01T21:11:42.000Z</time>
      </trkpt>
      <trkpt lat="48.85114" lon="2.34305">
        <ele>47.799999237061</ele>
        <time>2016-02-01T21:11:45.000Z</time>
      </trkpt>
      <trkpt lat="48.85132" lon="2.34316">
        <ele>48</ele>
        <time>2016-02-01T21:11:48.000Z</time>
      </trkpt>
      <trkpt lat="48.8515" lon="2.34326">
        <ele>48.200000762939</ele>
        <time>2016-02-01T21:11:51.000Z</time>
      </trkpt>
      <trkpt lat="48.8517" lon="2.34335">
        <ele>48.599998474121</ele>
        <time>2016-02-01T21:11:54.000Z</time>
      </trkpt>
      <trkpt lat="48.85191" lon="2.34343">
        <ele>49</ele>
        <time>2016-02-01T21:11:57.000Z</time>
      </trkpt>
      <trkpt lat="48.85213" lon="2.3435">
        <ele>49.400001525879</ele>
        <time>2016-02-01T21:12:00.000Z</time>
      </trkpt>
      <trkpt lat="48.85234" lon="2.34357">
        <ele>49.599998474121</ele>
        <time>2016-02-01T21:12:03.000Z</time>
      </trkpt>
      <trkpt lat="48.85252" lon="2.34364">
        <ele>49.799999237061</ele>
        <time>2016-02-01T21:12:06.000Z</time>
      </trkpt>
      <trkpt lat="48.85275" lon="2.34371">
        <ele>49.799999237061</ele>
        <time>2016-02-01T21:12:10.000Z</time>
      </trkpt>
      <trkpt lat="48.85298" lon="2.34377">
        <ele>48</ele>
        <time>2016-02-01T21:12:14.000Z</time>
      </trkpt>
      <trkpt lat="48.85318" lon="2.34386">
        <ele>46.599998474121</ele>
        <time>2016-02-01T21:12:18.000Z</time>
      </trkpt>
      <trkpt lat="48.85336" lon="2.34396">
        <ele>45.200000762939</ele>
        <time>2016-02-01T21:12:22.000Z</time>
      </trkpt>
      <trkpt lat="48.8534" lon="2.34399">
        <ele>45</ele>
        <time>2016-02-01T21:12:23.000Z</time>
      </trkpt>
      <trkpt lat="48.85355" lon="2.34415">
        <ele>44</ele>
        <time>2016-02-01T21:12:28.000Z</time>
      </trkpt>
      <trkpt lat="48.85368" lon="2.34429">
        <ele>43.599998474121</ele>
        <time>2016-02-01T21:12:34.000Z</time>
      </trkpt>
      <trkpt lat="48.85377" lon="2.34448">
        <ele>43.200000762939</ele>
        <time>2016-02-01T21:13:12.000Z</time>
      </trkpt>
      <trkpt lat="48.85394" lon="2.34461">
        <ele>42.599998474121</ele>
        <time>2016-02-01T21:13:17.000Z</time>
      </trkpt>
      <trkpt lat="48.8541" lon="2.34475">
        <ele>42</ele>
        <time>2016-02-01T21:13:21.000Z</time>
      </trkpt>
      <trkpt lat="48.85429" lon="2.34493">
        <ele>41.400001525879</ele>
        <time>2016-02-01T21:13:25.000Z</time>
      </trkpt>
      <trkpt lat="48.85449" lon="2.34512">
        <ele>41.599998474121</ele>
        <time>2016-02-01T21:13:29.000Z</time>
      </trkpt>
      <trkpt lat="48.85466" lon="2.34524">
        <ele>42.799999237061</ele>
        <time>2016-02-01T21:13:32.000Z</time>
      </trkpt>
      <trkpt lat="48.85482" lon="2.34536">
        <ele>44</ele>
        <time>2016-02-01T21:13:35.000Z</time>
      </trkpt>
      <trkpt lat="48.855" lon="2.34552">
        <ele>45.200000762939</ele>
        <time>2016-02-01T21:13:38.000Z</time>
      </trkpt>
      <trkpt lat="48.85517" lon="2.34567">
        <ele>46.400001525879</ele>
        <time>2016-02-01T21:13:41.000Z</time>
      </trkpt>
      <trkpt lat="48.85536" lon="2.34582">
        <ele>47.200000762939</ele>
        <time>2016-02-01T21:13:44.000Z</time>
      </trkpt>
      <trkpt lat="48.85554" lon="2.34597">
        <ele>47.400001525879</ele>
        <time>2016-02-01T21:13:47.000Z</time>
      </trkpt>
      <trkpt lat="48.85573" lon="2.3461">
        <ele>47.599998474121</ele>
        <time>2016-02-01T21:13:50.000Z</time>
      </trkpt>
      <trkpt lat="48.85592" lon="2.34619">
        <ele>47.799999237061</ele>
        <time>2016-02-01T21:13:53.000Z</time>
      </trkpt>
      <trkpt lat="48.85614" lon="2.34626">
        <ele>47.400001525879</ele>
        <time>2016-02-01T21:13:57.000Z</time>
      </trkpt>
      <trkpt lat="48.85629" lon="2.34628">
        <ele>46</ele>
        <time>2016-02-01T21:14:01.000Z</time>
      </trkpt>
      <trkpt lat="48.85635" lon="2.34629">
        <ele>45.599998474121</ele>
        <time>2016-02-01T21:14:03.000Z</time>
      </trkpt>
      <trkpt lat="48.8565" lon="2.34642">
        <ele>44.200000762939</ele>
        <time>2016-02-01T21:14:08.000Z</time>
      </trkpt>
      <trkpt lat="48.85654" lon="2.34645">
        <ele>44</ele>
        <time>2016-02-01T21:14:09.000Z</time>
      </trkpt>
      <trkpt lat="48.85671" lon="2.34656">
        <ele>42.599998474121</ele>
        <time>2016-02-01T21:14:14.000Z</time>
      </trkpt>
      <trkpt lat="48.85688" lon="2.3467">
        <ele>41</ele>
        <time>2016-02-01T21:14:19.000Z</time>
      </trkpt>
      <trkpt lat="48.85708" lon="2.34682">
        <ele>40.799999237061</ele>
        <time>2016-02-01T21:14:24.000Z</time>
      </trkpt>
      <trkpt lat="48.85715" lon="2.34685">
        <ele>40.400001525879</ele>
        <time>2016-02-01T21:14:26.000Z</time>
      </trkpt>
      <trkpt lat="48.85736" lon="2.34686">
        <ele>39.599998474121</ele>
        <time>2016-02-01T21:14:32.000Z</time>
      </trkpt>
      <trkpt lat="48.85743" lon="2.34689">
        <ele>39.400001525879</ele>
        <time>2016-02-01T21:14:34.000Z</time>
      </trkpt>
      <trkpt lat="48.85757" lon="2.34695">
        <ele>38.799999237061</ele>
        <time>2016-02-01T21:14:38.000Z</time>
      </trkpt>
      <trkpt lat="48.85776" lon="2.34705">
        <ele>38.799999237061</ele>
        <time>2016-02-01T21:14:43.000Z</time>
      </trkpt>
      <trkpt lat="48.85795" lon="2.34718">
        <ele>40.799999237061</ele>
        <time>2016-02-01T21:14:48.000Z</time>
      </trkpt>
      <trkpt lat="48.85817" lon="2.34722">
        <ele>42.799999237061</ele>
        <time>2016-02-01T21:14:52.000Z</time>
      </trkpt>
      <trkpt lat="48.85838" lon="2.34724">
        <ele>45</ele>
        <time>2016-02-01T21:14:55.000Z</time>
      </trkpt>
      <trkpt lat="48.85857" lon="2.34726">
        <ele>47.400001525879</ele>
        <time>2016-02-01T21:14:58.000Z</time>
      </trkpt>
      <trkpt lat="48.85875" lon="2.34729">
        <ele>46.799999237061</ele>
        <time>2016-02-01T21:15:01.000Z</time>
      </trkpt>
      <trkpt lat="48.85891" lon="2.34729">
        <ele>46.200000762939</ele>
        <time>2016-02-01T21:15:04.000Z</time>
      </trkpt>
      <trkpt lat="48.8591" lon="2.34719">
        <ele>45.799999237061</ele>
        <time>2016-02-01T21:15:08.000Z</time>
      </trkpt>
      <trkpt lat="48.85928" lon="2.34706">
        <ele>45.799999237061</ele>
        <time>2016-02-01T21:15:12.000Z</time>
      </trkpt>
      <trkpt lat="48.85941" lon="2.34695">
        <ele>46</ele>
        <time>2016-02-01T21:15:16.000Z</time>
      </trkpt>
      <trkpt lat="48.85955" lon="2.34705">
        <ele>45.799999237061</ele>
        <time>2016-02-01T21:15:23.000Z</time>
      </trkpt>
      <trkpt lat="48.85956" lon="2.34706">
        <ele>45.599998474121</ele>
        <time>2016-02-01T21:15:24.000Z</time>
      </trkpt>
      <trkpt lat="48.85958" lon="2.34708">
        <ele>45.599998474121</ele>
        <time>2016-02-01T21:15:26.000Z</time>
      </trkpt>
      <trkpt lat="48.85963" lon="2.34715">
        <ele>45.400001525879</ele>
        <time>2016-02-01T21:15:54.000Z</time>
      </trkpt>
    </trkseg>
  </trk>
</gpx>